Darstellungsparameter: Aktuell verwendete Einstellungen:
Skalierung der Graphiken ... ?
xyx+y,   Skalierungsfaktor:      Skalierung: Modus: x, Faktor: 1
Darstellungszeitraum ... ?
Vom - - bis: - -   Zeitraum: 10.12.2008 - 09.06.2009
Min/Max/Avg-Anzeige ... ?
Zeige MMA aktuell
Zeige MMA Monat
Zeige MMA alles
Zeige --A aktuell
Zeige --A Monat
Zeige --A alles
Keine MMA-Anzeige
MMA:
Keine MMA-Graphiken
MMA-Basis: 10.12.2008 - 09.06.2009
Quicknavigation für Darstellung... ?
Tage:      1T, 2T, 3T, 5T -1T -2T -3T -5T +1T +2T +3T +5T
Wochen: 1W, 2W, 3W -1W -2W -3W +1W +2W +3W
Monate: 1M, 3M, 6M -1M -3M -6M +1M +3M +6M
Jahre:    1J, 3J, 5J, 10J -1J -3J -5J -10J +1J +3J +5J +10J
Nutze für die Darstellung ... ?
Originaldaten oder Mittelwerte auf ...
Stundenbasis Tagesbasis Wochenbasis
Monatsbasis Jahresbasis      Datenbasis: Original-Daten
Darstellen als:
Statistik (Auto) Statistik J:M      Darstellung:
Zur Graphik,    zurück zur Übersicht aller Sensoren.
 
Tabellarische Datenbersicht: ?
 
Sensor: Nr:Datum:Temp:Abs-Feuchte:Windchill:Wind:
Aussen-T/F 1 10-12-2008 00:05:36 1.1 C 4.86 g/m*3 1.1 C 0 km/h
2 10-12-2008 00:17:36 1.1 C 4.86 g/m*3 1.1 C 0 km/h
3 10-12-2008 00:29:36 1.1 C 4.91 g/m*3 1.1 C 0 km/h
4 10-12-2008 00:41:37 1.2 C 4.95 g/m*3 1.2 C 0 km/h
5 10-12-2008 00:53:37 1 C 4.88 g/m*3 1 C 0 km/h
6 10-12-2008 01:05:37 0.9 C 4.85 g/m*3 0.9 C 0 km/h
7 10-12-2008 01:17:37 1 C 4.88 g/m*3 1 C 0 km/h
8 10-12-2008 01:29:37 1 C 4.88 g/m*3 1 C 0 km/h
9 10-12-2008 01:41:37 1 C 4.93 g/m*3 1 C 0 km/h
10 10-12-2008 01:53:37 1 C 4.93 g/m*3 1 C 0 km/h
11 10-12-2008 02:05:37 1 C 4.93 g/m*3 1 C 0 km/h
12 10-12-2008 02:17:37 1.1 C 4.96 g/m*3 1.1 C 0 km/h
13 10-12-2008 02:29:37 1.1 C 4.96 g/m*3 1.1 C 0 km/h
14 10-12-2008 02:41:37 1.1 C 4.96 g/m*3 1.1 C 0 km/h
15 10-12-2008 02:53:37 1.2 C 5 g/m*3 1.2 C 0 km/h
16 10-12-2008 03:05:37 1.2 C 5 g/m*3 1.2 C 0 km/h
17 10-12-2008 03:17:37 1.2 C 5 g/m*3 1.2 C 0 km/h
18 10-12-2008 03:29:37 1.2 C 5 g/m*3 1.2 C 0 km/h
19 10-12-2008 03:41:37 1.2 C 5 g/m*3 1.2 C 0 km/h
20 10-12-2008 03:53:37 1.2 C 5 g/m*3 1.2 C 0 km/h
21 10-12-2008 04:05:37 1.2 C 5 g/m*3 1.2 C 0 km/h
22 10-12-2008 04:17:37 1.3 C 5.03 g/m*3 1.3 C 0 km/h
23 10-12-2008 04:29:38 1.3 C 5.03 g/m*3 1.3 C 0 km/h
24 10-12-2008 04:41:38 1.2 C 5 g/m*3 1.2 C 0 km/h
25 10-12-2008 04:53:38 1.2 C 5 g/m*3 1.2 C 0 km/h
Sensor: Nr:Datum:Temp:Abs-Feuchte:Windchill:Wind:
Aussen-T/F 26 10-12-2008 05:05:38 1.3 C 5.03 g/m*3 1.3 C 0 km/h
27 10-12-2008 05:17:38 1.3 C 5.03 g/m*3 1.3 C 0 km/h
28 10-12-2008 05:29:38 1.3 C 5.03 g/m*3 1.3 C 0 km/h
29 10-12-2008 05:41:38 1.3 C 5.03 g/m*3 1.3 C 0 km/h
30 10-12-2008 05:53:38 1.3 C 5.03 g/m*3 1.3 C 0 km/h
31 10-12-2008 06:05:38 1.3 C 5.03 g/m*3 1.3 C 0 km/h
32 10-12-2008 06:17:38 1.3 C 5.03 g/m*3 1.3 C 0 km/h
33 10-12-2008 06:29:38 1.3 C 5.03 g/m*3 1.3 C 0 km/h
34 10-12-2008 06:41:38 1.4 C 5.07 g/m*3 1.4 C 0 km/h
35 10-12-2008 06:53:38 1.4 C 5.07 g/m*3 1.4 C 0 km/h
36 10-12-2008 07:05:35 1.4 C 5.07 g/m*3 1.4 C 0 km/h
37 10-12-2008 07:17:34 1.5 C 5.1 g/m*3 1.5 C 0 km/h
38 10-12-2008 07:29:34 1.5 C 5.1 g/m*3 1.5 C 0 km/h
39 10-12-2008 07:41:35 1.6 C 5.14 g/m*3 1.6 C 0 km/h
40 10-12-2008 07:53:34 1.2 C 5 g/m*3 1.2 C 0 km/h
41 10-12-2008 08:05:34 0.8 C 4.81 g/m*3 0.8 C 0 km/h
42 10-12-2008 08:17:35 1.1 C 4.91 g/m*3 1.1 C 0 km/h
43 10-12-2008 08:29:35 1.1 C 4.91 g/m*3 1.1 C 0 km/h
44 10-12-2008 08:41:34 1.2 C 5 g/m*3 1.2 C 0 km/h
45 10-12-2008 08:53:34 1.3 C 5.03 g/m*3 1.3 C 0 km/h
46 10-12-2008 09:05:34 1.4 C 5.07 g/m*3 1.4 C 0 km/h
47 10-12-2008 09:17:34 1.4 C 5.07 g/m*3 1.4 C 0 km/h
48 10-12-2008 09:29:35 1.5 C 5.1 g/m*3 1.5 C 0 km/h
49 10-12-2008 09:41:33 1.7 C 5.17 g/m*3 1.7 C 0 km/h
50 10-12-2008 09:53:34 1.9 C 5.24 g/m*3 1.9 C 0 km/h
Sensor: Nr:Datum:Temp:Abs-Feuchte:Windchill:Wind:
Aussen-T/F 51 10-12-2008 10:05:33 2 C 5.28 g/m*3 2 C 0 km/h
52 10-12-2008 10:17:33 2.1 C 5.31 g/m*3 2.1 C 0 km/h
53 10-12-2008 10:29:33 2.2 C 5.35 g/m*3 2.2 C 0 km/h
54 10-12-2008 10:41:33 2.3 C 5.39 g/m*3 2.3 C 0 km/h
55 10-12-2008 10:53:33 2.6 C 5.5 g/m*3 2.6 C 0 km/h
56 10-12-2008 11:05:33 2.6 C 5.5 g/m*3 2.6 C 0 km/h
57 10-12-2008 11:17:32 2.6 C 5.5 g/m*3 2.6 C 0 km/h
58 10-12-2008 11:29:32 2.7 C 5.48 g/m*3 2.7 C 0 km/h
59 10-12-2008 11:41:33 2.9 C 5.55 g/m*3 2.9 C 0 km/h
60 10-12-2008 11:53:32 3 C 5.53 g/m*3 3 C 0 km/h
61 10-12-2008 12:05:32 3 C 5.53 g/m*3 3 C 0 km/h
62 10-12-2008 12:17:33 3 C 5.47 g/m*3 3 C 0 km/h
63 10-12-2008 12:29:33 3 C 5.41 g/m*3 3 C 0 km/h
64 10-12-2008 12:41:32 3.1 C 5.45 g/m*3 3.1 C 0 km/h
65 10-12-2008 12:53:32 3.1 C 5.45 g/m*3 3.1 C 0 km/h
66 10-12-2008 13:05:32 3.1 C 5.45 g/m*3 3.1 C 0 km/h
67 10-12-2008 13:17:32 3.1 C 5.39 g/m*3 3.1 C 0 km/h
68 10-12-2008 13:29:32 3.2 C 5.42 g/m*3 3.2 C 0 km/h
69 10-12-2008 13:41:31 3.3 C 5.46 g/m*3 3.3 C 0 km/h
70 10-12-2008 13:53:31 3.3 C 5.46 g/m*3 3.3 C 0 km/h
71 10-12-2008 14:05:31 3.3 C 5.4 g/m*3 3.3 C 0 km/h
72 10-12-2008 14:17:31 3.4 C 5.44 g/m*3 3.4 C 0 km/h
73 10-12-2008 14:29:31 3.5 C 5.47 g/m*3 3.5 C 0 km/h
74 10-12-2008 14:41:32 3.5 C 5.47 g/m*3 3.5 C 0 km/h
75 10-12-2008 14:53:30 3.4 C 5.44 g/m*3 3.4 C 0 km/h
Sensor: Nr:Datum:Temp:Abs-Feuchte:Windchill:Wind:
Aussen-T/F 76 10-12-2008 15:05:31 3.4 C 5.44 g/m*3 3.4 C 0 km/h
77 10-12-2008 15:17:30 3.5 C 5.47 g/m*3 3.5 C 0 km/h
78 10-12-2008 15:29:30 3.5 C 5.47 g/m*3 3.5 C 0 km/h
79 10-12-2008 15:41:30 3.4 C 5.44 g/m*3 3.4 C 0 km/h
80 10-12-2008 15:53:30 3.4 C 5.44 g/m*3 3.4 C 0 km/h
81 10-12-2008 16:05:30 3.2 C 5.36 g/m*3 3.2 C 0 km/h
82 10-12-2008 16:17:30 3.1 C 5.33 g/m*3 3.1 C 0 km/h
83 10-12-2008 16:29:30 3 C 5.35 g/m*3 3 C 0 km/h
84 10-12-2008 16:41:30 2.7 C 5.3 g/m*3 2.7 C 0 km/h
85 10-12-2008 16:53:30 2.5 C 5.23 g/m*3 2.5 C 0 km/h
86 10-12-2008 17:05:29 2.3 C 5.16 g/m*3 2.3 C 0 km/h
87 10-12-2008 17:17:30 2.2 C 5.13 g/m*3 2.2 C 0 km/h
88 10-12-2008 17:29:31 2.1 C 5.09 g/m*3 2.1 C 0 km/h
89 10-12-2008 17:41:29 2.1 C 5.09 g/m*3 2.1 C 0 km/h
90 10-12-2008 17:53:29 2.2 C 5.18 g/m*3 2.2 C 0 km/h
91 10-12-2008 18:05:28 2.3 C 5.22 g/m*3 2.3 C 0 km/h
92 10-12-2008 18:17:29 2.4 C 5.25 g/m*3 2.4 C 0 km/h
93 10-12-2008 18:29:29 2.4 C 5.25 g/m*3 2.4 C 0 km/h
94 10-12-2008 18:41:29 2.4 C 5.25 g/m*3 2.4 C 0 km/h
95 10-12-2008 18:53:28 2.3 C 5.22 g/m*3 2.3 C 0 km/h
96 10-12-2008 19:05:29 2.2 C 5.18 g/m*3 2.2 C 0 km/h
97 10-12-2008 19:17:28 2.2 C 5.18 g/m*3 2.2 C 0 km/h
98 10-12-2008 19:29:28 2 C 5.11 g/m*3 2 C 0 km/h
99 10-12-2008 19:41:28 2 C 5.11 g/m*3 2 C 0 km/h
100 10-12-2008 19:53:28 2 C 5.11 g/m*3 2 C 0 km/h
Sensor: Nr:Datum:Temp:Abs-Feuchte:Windchill:Wind:
Aussen-T/F 101 10-12-2008 20:05:28 2 C 5.11 g/m*3 2 C 0 km/h
102 10-12-2008 20:17:28 1.9 C 5.13 g/m*3 1.9 C 0 km/h
103 10-12-2008 20:29:28 2 C 5.11 g/m*3 2 C 0 km/h
104 10-12-2008 20:41:27 2.1 C 5.2 g/m*3 2.1 C 0 km/h
105 10-12-2008 20:53:28 2.1 C 5.2 g/m*3 2.1 C 0 km/h
106 10-12-2008 21:05:27 2 C 5.17 g/m*3 2 C 0 km/h
107 10-12-2008 21:17:27 1.9 C 5.13 g/m*3 1.9 C 0 km/h
108 10-12-2008 21:29:27 1.8 C 5.1 g/m*3 1.8 C 0 km/h
109 10-12-2008 21:41:27 1.7 C 5.06 g/m*3 1.7 C 0 km/h
110 10-12-2008 21:53:27 1.5 C 4.99 g/m*3 1.5 C 0 km/h
111 10-12-2008 22:05:26 1.6 C 5.03 g/m*3 1.6 C 0 km/h
112 10-12-2008 22:18:02 1.7 C 5.12 g/m*3 1.7 C 0 km/h
113 10-12-2008 22:30:02 1.8 C 5.15 g/m*3 1.8 C 0 km/h
114 10-12-2008 22:42:02 1.9 C 5.19 g/m*3 1.9 C 0 km/h
115 10-12-2008 22:54:03 2 C 5.22 g/m*3 2 C 0 km/h
116 10-12-2008 23:06:03 1.9 C 5.19 g/m*3 1.9 C 0 km/h
117 10-12-2008 23:18:03 1.9 C 5.19 g/m*3 1.9 C 0 km/h
118 10-12-2008 23:30:03 1.9 C 5.19 g/m*3 1.9 C 0 km/h
119 10-12-2008 23:42:03 1.8 C 5.15 g/m*3 1.8 C 0 km/h
120 10-12-2008 23:54:03 1.7 C 5.12 g/m*3 1.7 C 0 km/h
121 11-12-2008 00:06:03 1.5 C 5.05 g/m*3 1.5 C 0 km/h
122 11-12-2008 00:18:03 1.6 C 5.08 g/m*3 1.6 C 0 km/h
123 11-12-2008 00:30:03 1.6 C 5.08 g/m*3 1.6 C 0 km/h
124 11-12-2008 00:42:03 1.5 C 5.05 g/m*3 1.5 C 0 km/h
125 11-12-2008 00:54:03 1.5 C 5.05 g/m*3 1.5 C 0 km/h
Sensor: Nr:Datum:Temp:Abs-Feuchte:Windchill:Wind:
Aussen-T/F 126 11-12-2008 01:06:03 1.5 C 5.05 g/m*3 1.5 C 0 km/h
127 11-12-2008 01:18:03 1.5 C 5.05 g/m*3 1.5 C 0 km/h
128 11-12-2008 01:30:03 1.5 C 5.05 g/m*3 1.5 C 0 km/h
129 11-12-2008 01:42:03 1.6 C 5.08 g/m*3 1.6 C 0 km/h
130 11-12-2008 01:54:03 1.5 C 5.05 g/m*3 1.5 C 0 km/h
131 11-12-2008 02:06:03 1.4 C 5.01 g/m*3 1.4 C 0 km/h
132 11-12-2008 02:18:03 1.2 C 4.89 g/m*3 1.2 C 0 km/h
133 11-12-2008 02:30:03 0.9 C 4.85 g/m*3 0.9 C 0 km/h
134 11-12-2008 02:42:04 0.6 C 4.7 g/m*3 0.6 C 0 km/h
135 11-12-2008 02:54:04 0.5 C 4.66 g/m*3 0.5 C 0 km/h
136 11-12-2008 03:06:04 0.5 C 4.71 g/m*3 0.5 C 0 km/h
137 11-12-2008 03:18:04 0.5 C 4.71 g/m*3 0.5 C 0 km/h
138 11-12-2008 03:30:04 0.6 C 4.75 g/m*3 0.6 C 0 km/h
139 11-12-2008 03:42:04 0.8 C 4.81 g/m*3 0.8 C 0 km/h
140 11-12-2008 03:54:04 1 C 4.88 g/m*3 1 C 0 km/h
141 11-12-2008 04:06:04 1 C 4.88 g/m*3 1 C 0 km/h
142 11-12-2008 04:18:04 0.9 C 4.85 g/m*3 0.9 C 0 km/h
143 11-12-2008 04:30:04 0.9 C 4.79 g/m*3 0.9 C 0 km/h
144 11-12-2008 04:42:04 1 C 4.83 g/m*3 1 C 0 km/h
145 11-12-2008 04:54:04 1 C 4.78 g/m*3 1 C 0 km/h
146 11-12-2008 05:06:04 1 C 4.78 g/m*3 1 C 0 km/h
147 11-12-2008 05:18:04 1 C 4.78 g/m*3 1 C 0 km/h
148 11-12-2008 05:30:04 1 C 4.78 g/m*3 1 C 0 km/h
149 11-12-2008 05:42:04 1 C 4.72 g/m*3 1 C 0 km/h
150 11-12-2008 05:54:04 1 C 4.72 g/m*3 1 C 0 km/h
Sensor: Nr:Datum:Temp:Abs-Feuchte:Windchill:Wind:
Aussen-T/F 151 11-12-2008 06:06:04 1.1 C 4.76 g/m*3 1.1 C 0 km/h
152 11-12-2008 06:18:04 1.1 C 4.7 g/m*3 1.1 C 0 km/h
153 11-12-2008 06:30:05 1 C 4.62 g/m*3 1 C 0 km/h
154 11-12-2008 06:42:05 1.1 C 4.65 g/m*3 1.1 C 0 km/h
155 11-12-2008 06:54:28 1 C 4.57 g/m*3 1 C 0 km/h
156 11-12-2008 07:06:29 0.9 C 4.54 g/m*3 0.9 C 0 km/h
157 11-12-2008 07:18:27 1 C 4.52 g/m*3 1 C 0 km/h
158 11-12-2008 07:30:27 1 C 4.52 g/m*3 1 C 0 km/h
159 11-12-2008 07:42:28 0.9 C 4.48 g/m*3 0.9 C 0 km/h
160 11-12-2008 07:54:27 0.9 C 4.54 g/m*3 0.9 C 0 km/h
161 11-12-2008 08:06:27 1 C 4.52 g/m*3 1 C 0 km/h
162 11-12-2008 08:18:27 0.9 C 4.48 g/m*3 0.9 C 0 km/h
163 11-12-2008 08:30:27 0.8 C 4.45 g/m*3 0.8 C 0 km/h
164 11-12-2008 08:42:27 0.8 C 4.45 g/m*3 0.8 C 0 km/h
165 11-12-2008 08:54:26 0.8 C 4.45 g/m*3 0.8 C 0 km/h
166 11-12-2008 09:06:26 0.9 C 4.48 g/m*3 0.9 C 0 km/h
167 11-12-2008 09:18:27 1 C 4.46 g/m*3 1 C 0 km/h
168 11-12-2008 09:30:27 1.1 C 4.49 g/m*3 1.1 C 0 km/h
169 11-12-2008 09:42:27 1.3 C 4.56 g/m*3 1.3 C 0 km/h
170 11-12-2008 09:54:26 1.4 C 4.53 g/m*3 1.4 C 0 km/h
171 11-12-2008 10:06:26 1.5 C 4.51 g/m*3 1.5 C 0 km/h
172 11-12-2008 10:18:26 1.6 C 4.49 g/m*3 1.6 C 0 km/h
173 11-12-2008 10:30:26 1.7 C 4.46 g/m*3 1.7 C 0 km/h
174 11-12-2008 10:42:26 2 C 4.45 g/m*3 2 C 0 km/h
175 11-12-2008 10:54:25 2.3 C 4.54 g/m*3 2.3 C 0 km/h
Sensor: Nr:Datum:Temp:Abs-Feuchte:Windchill:Wind:
Aussen-T/F 176 11-12-2008 11:06:26 2.4 C 4.51 g/m*3 2.4 C 0 km/h
177 11-12-2008 11:18:25 2.3 C 4.31 g/m*3 2.3 C 0 km/h
178 11-12-2008 11:30:25 2.4 C 4.34 g/m*3 2.4 C 0 km/h
179 11-12-2008 11:42:25 2.6 C 4.4 g/m*3 2.6 C 0 km/h
180 11-12-2008 11:54:25 2.8 C 4.4 g/m*3 2.8 C 0 km/h
181 11-12-2008 12:06:25 2.6 C 4.28 g/m*3 2.6 C 0 km/h
182 11-12-2008 12:18:24 2.7 C 4.37 g/m*3 2.7 C 0 km/h
183 11-12-2008 12:30:24 2.9 C 4.43 g/m*3 2.9 C 0 km/h
184 11-12-2008 12:42:24 2.9 C 4.37 g/m*3 2.9 C 0 km/h
185 11-12-2008 12:54:25 3 C 4.28 g/m*3 3 C 0 km/h
186 11-12-2008 13:06:24 3.1 C 4.31 g/m*3 3.1 C 0 km/h
187 11-12-2008 13:18:24 3.2 C 4.34 g/m*3 3.2 C 0 km/h
188 11-12-2008 13:30:24 3 C 4.22 g/m*3 3 C 0 km/h
189 11-12-2008 13:42:24 2.8 C 4.28 g/m*3 2.8 C 0 km/h
190 11-12-2008 13:54:24 2.9 C 4.31 g/m*3 2.9 C 0 km/h
191 11-12-2008 14:06:23 3.1 C 4.31 g/m*3 3.1 C 0 km/h
192 11-12-2008 14:18:24 3.1 C 4.31 g/m*3 3.1 C 0 km/h
193 11-12-2008 14:30:24 3.2 C 4.4 g/m*3 3.2 C 0 km/h
194 11-12-2008 14:42:24 3 C 4.28 g/m*3 3 C 0 km/h
195 11-12-2008 14:54:23 3 C 4.28 g/m*3 3 C 0 km/h
196 11-12-2008 15:06:24 2.9 C 4.31 g/m*3 2.9 C 0 km/h
197 11-12-2008 15:18:23 2.7 C 4.25 g/m*3 2.7 C 0 km/h
198 11-12-2008 15:30:23 2.8 C 4.34 g/m*3 2.8 C 0 km/h
199 11-12-2008 15:42:23 2.7 C 4.31 g/m*3 2.7 C 0 km/h
200 11-12-2008 15:54:23 2.7 C 4.37 g/m*3 2.7 C 0 km/h
Sensor: Nr:Datum:Temp:Abs-Feuchte:Windchill:Wind:
Aussen-T/F 201 11-12-2008 16:06:23 2.4 C 4.34 g/m*3 2.4 C 0 km/h
202 11-12-2008 16:18:22 2.2 C 4.39 g/m*3 2.2 C 0 km/h
203 11-12-2008 16:30:22 2.2 C 4.45 g/m*3 2.2 C 0 km/h
204 11-12-2008 16:42:22 2.1 C 4.48 g/m*3 2.1 C 0 km/h
205 11-12-2008 16:54:22 2.1 C 4.48 g/m*3 2.1 C 0 km/h
206 11-12-2008 17:06:22 2.1 C 4.48 g/m*3 2.1 C 0 km/h
207 11-12-2008 17:18:22 2 C 4.5 g/m*3 2 C 0 km/h
208 11-12-2008 17:30:22 2 C 4.5 g/m*3 2 C 0 km/h
209 11-12-2008 17:42:22 2 C 4.5 g/m*3 2 C 0 km/h
210 11-12-2008 17:54:22 2 C 4.56 g/m*3 2 C 0 km/h
211 11-12-2008 18:06:23 2.1 C 4.59 g/m*3 2.1 C 0 km/h
212 11-12-2008 18:18:22 2 C 4.56 g/m*3 2 C 0 km/h
213 11-12-2008 18:30:22 1.8 C 4.49 g/m*3 1.8 C 0 km/h
214 11-12-2008 18:42:23 1.7 C 4.46 g/m*3 1.7 C 0 km/h
215 11-12-2008 18:54:22 1.7 C 4.46 g/m*3 1.7 C 0 km/h
216 11-12-2008 19:06:22 1.6 C 4.43 g/m*3 1.6 C 0 km/h
217 11-12-2008 19:18:21 1.6 C 4.49 g/m*3 1.6 C 0 km/h
218 11-12-2008 19:30:21 1.6 C 4.49 g/m*3 1.6 C 0 km/h
219 11-12-2008 19:42:22 1.5 C 4.46 g/m*3 1.5 C 0 km/h
220 11-12-2008 19:54:21 1.4 C 4.43 g/m*3 1.4 C 0 km/h
221 11-12-2008 20:06:21 1.2 C 4.37 g/m*3 1.2 C 0 km/h
222 11-12-2008 20:18:21 1.2 C 4.42 g/m*3 1.2 C 0 km/h
223 11-12-2008 20:30:21 1 C 4.36 g/m*3 1 C 0 km/h
224 11-12-2008 20:42:21 0.9 C 4.38 g/m*3 0.9 C 0 km/h
225 11-12-2008 20:54:20 0.7 C 4.32 g/m*3 0.7 C 0 km/h
Sensor: Nr:Datum:Temp:Abs-Feuchte:Windchill:Wind:
Aussen-T/F 226 11-12-2008 21:06:21 0.7 C 4.37 g/m*3 0.7 C 0 km/h
227 11-12-2008 21:18:20 0.7 C 4.37 g/m*3 0.7 C 0 km/h
228 11-12-2008 21:30:20 0.7 C 4.42 g/m*3 0.7 C 0 km/h
229 11-12-2008 21:42:20 0.5 C 4.36 g/m*3 0.5 C 0 km/h
230 11-12-2008 21:54:19 0.4 C 4.33 g/m*3 0.4 C 0 km/h
231 11-12-2008 22:06:19 0.3 C 4.3 g/m*3 0.3 C 0 km/h
232 11-12-2008 22:18:19 0.1 C 4.29 g/m*3 0.1 C 0 km/h
233 11-12-2008 22:30:19 0 C 4.26 g/m*3 0 C 0 km/h
234 11-12-2008 22:42:19 -0.2 C 4.21 g/m*3 -0.2 C 0 km/h
235 11-12-2008 22:55:20 -0.2 C 4.21 g/m*3 -0.2 C 0 km/h
236 11-12-2008 23:07:20 -0.3 C 4.18 g/m*3 -0.3 C 0 km/h
237 11-12-2008 23:19:21 -0.3 C 4.22 g/m*3 -0.3 C 0 km/h
238 11-12-2008 23:31:21 -0.2 C 4.25 g/m*3 -0.2 C 0 km/h
239 11-12-2008 23:43:21 -0.4 C 4.19 g/m*3 -0.4 C 0 km/h
240 11-12-2008 23:55:21 -0.6 C 4.14 g/m*3 -0.6 C 0 km/h
241 12-12-2008 00:07:21 -0.8 C 4.08 g/m*3 -0.8 C 0 km/h
242 12-12-2008 00:19:21 -0.9 C 4.05 g/m*3 -0.9 C 0 km/h
243 12-12-2008 00:31:21 -0.9 C 4.1 g/m*3 -0.9 C 0 km/h
244 12-12-2008 00:43:21 -0.6 C 4.23 g/m*3 -0.6 C 0 km/h
245 12-12-2008 00:55:21 -0.3 C 4.32 g/m*3 -0.3 C 0 km/h
246 12-12-2008 01:07:21 -0.5 C 4.26 g/m*3 -0.5 C 0 km/h
247 12-12-2008 01:19:21 -0.6 C 4.23 g/m*3 -0.6 C 0 km/h
248 12-12-2008 01:31:21 -0.5 C 4.26 g/m*3 -0.5 C 0 km/h
249 12-12-2008 01:43:21 -0.5 C 4.26 g/m*3 -0.5 C 0 km/h
250 12-12-2008 01:55:21 -0.5 C 4.26 g/m*3 -0.5 C 0 km/h
Sensor: Nr:Datum:Temp:Abs-Feuchte:Windchill:Wind:
Aussen-T/F 251 12-12-2008 02:07:21 -0.6 C 4.23 g/m*3 -0.6 C 0 km/h
252 12-12-2008 02:19:21 -0.7 C 4.2 g/m*3 -0.7 C 0 km/h
253 12-12-2008 02:31:21 -1 C 4.07 g/m*3 -1 C 0 km/h
254 12-12-2008 02:43:21 -0.9 C 4.14 g/m*3 -0.9 C 0 km/h
255 12-12-2008 02:55:21 -0.8 C 4.17 g/m*3 -0.8 C 0 km/h
256 12-12-2008 03:07:22 -0.9 C 4.14 g/m*3 -0.9 C 0 km/h
257 12-12-2008 03:19:22 -1 C 4.07 g/m*3 -1 C 0 km/h
258 12-12-2008 03:31:22 -1 C 4.07 g/m*3 -1 C 0 km/h
259 12-12-2008 03:43:22 -1.2 C 4.01 g/m*3 -1.2 C 0 km/h
260 12-12-2008 03:55:22 -1.4 C 3.96 g/m*3 -1.4 C 0 km/h
261 12-12-2008 04:07:22 -1.3 C 3.98 g/m*3 -1.3 C 0 km/h
262 12-12-2008 04:19:22 -1.5 C 3.93 g/m*3 -1.5 C 0 km/h
263 12-12-2008 04:31:22 -1.6 C 3.9 g/m*3 -1.6 C 0 km/h
264 12-12-2008 04:43:22 -1.4 C 4 g/m*3 -1.4 C 0 km/h
265 12-12-2008 04:55:22 -1.5 C 3.97 g/m*3 -1.5 C 0 km/h
266 12-12-2008 05:07:22 -1.4 C 4 g/m*3 -1.4 C 0 km/h
267 12-12-2008 05:19:22 -1.2 C 4.06 g/m*3 -1.2 C 0 km/h
268 12-12-2008 05:31:22 -1.1 C 4.09 g/m*3 -1.1 C 0 km/h
269 12-12-2008 05:43:22 -1.5 C 3.93 g/m*3 -1.5 C 0 km/h
270 12-12-2008 05:55:22 -1.8 C 3.85 g/m*3 -1.8 C 0 km/h
271 12-12-2008 06:07:22 -1.5 C 3.93 g/m*3 -1.5 C 0 km/h
272 12-12-2008 06:19:22 -1.6 C 3.9 g/m*3 -1.6 C 0 km/h
273 12-12-2008 06:31:22 -1.5 C 3.93 g/m*3 -1.5 C 0 km/h
274 12-12-2008 06:43:22 -1.6 C 3.9 g/m*3 -1.6 C 0 km/h
275 12-12-2008 06:55:22 -1.5 C 3.93 g/m*3 -1.5 C 0 km/h
Sensor: Nr:Datum:Temp:Abs-Feuchte:Windchill:Wind:
Aussen-T/F 276 12-12-2008 07:07:20 -1.6 C 3.9 g/m*3 -1.6 C 0 km/h
277 12-12-2008 07:19:20 -1.7 C 3.83 g/m*3 -1.7 C 0 km/h
278 12-12-2008 07:31:20 -1.5 C 3.89 g/m*3 -1.5 C 0 km/h
279 12-12-2008 07:43:20 -1.3 C 3.94 g/m*3 -1.3 C 0 km/h
280 12-12-2008 07:55:20 -1.1 C 4 g/m*3 -1.1 C 0 km/h
281 12-12-2008 08:07:20 -0.9 C 4.01 g/m*3 -0.9 C 0 km/h
282 12-12-2008 08:19:19 -0.8 C 3.99 g/m*3 -0.8 C 0 km/h
283 12-12-2008 08:31:19 -0.7 C 3.97 g/m*3 -0.7 C 0 km/h
284 12-12-2008 08:43:20 -0.6 C 3.9 g/m*3 -0.6 C 0 km/h
285 12-12-2008 08:55:19 -0.6 C 3.9 g/m*3 -0.6 C 0 km/h
286 12-12-2008 09:07:19 -0.4 C 3.96 g/m*3 -0.4 C 0 km/h
287 12-12-2008 09:19:18 -0.3 C 3.99 g/m*3 -0.3 C 0 km/h
288 12-12-2008 09:31:19 -0.2 C 4.01 g/m*3 -0.2 C 0 km/h
289 12-12-2008 09:43:19 -0.1 C 4.04 g/m*3 -0.1 C 0 km/h
290 12-12-2008 09:55:18 0.1 C 4.1 g/m*3 0.1 C 0 km/h
291 12-12-2008 10:07:18 0.2 C 4.13 g/m*3 0.2 C 0 km/h
292 12-12-2008 10:19:18 0.7 C 4.27 g/m*3 0.7 C 0 km/h
293 12-12-2008 10:31:18 0.6 C 4.24 g/m*3 0.6 C 0 km/h
294 12-12-2008 10:43:18 0.7 C 4.22 g/m*3 0.7 C 0 km/h
295 12-12-2008 10:55:18 0.9 C 4.28 g/m*3 0.9 C 0 km/h
296 12-12-2008 11:07:17 0.9 C 4.12 g/m*3 0.9 C 0 km/h
297 12-12-2008 11:19:18 0.9 C 3.92 g/m*3 0.9 C 0 km/h
298 12-12-2008 11:31:18 0.8 C 3.79 g/m*3 0.8 C 0 km/h
299 12-12-2008 11:43:18 0.8 C 3.79 g/m*3 0.8 C 0 km/h
300 12-12-2008 11:55:17 0.8 C 3.69 g/m*3 0.8 C 0 km/h
Sensor: Nr:Datum:Temp:Abs-Feuchte:Windchill:Wind:
Aussen-T/F 301 12-12-2008 12:07:18 1 C 3.69 g/m*3 1 C 0 km/h
302 12-12-2008 12:19:17 1 C 3.69 g/m*3 1 C 0 km/h
303 12-12-2008 12:31:17 1 C 3.63 g/m*3 1 C 0 km/h
304 12-12-2008 12:43:17 1 C 3.63 g/m*3 1 C 0 km/h
305 12-12-2008 12:55:17 1 C 3.69 g/m*3 1 C 0 km/h
306 12-12-2008 13:07:17 0.8 C 3.69 g/m*3 0.8 C 0 km/h
307 12-12-2008 13:19:16 0.8 C 3.63 g/m*3 0.8 C 0 km/h
308 12-12-2008 13:31:16 0.8 C 3.69 g/m*3 0.8 C 0 km/h
309 12-12-2008 13:43:16 1 C 3.69 g/m*3 1 C 0 km/h
310 12-12-2008 13:55:16 1 C 3.69 g/m*3 1 C 0 km/h
311 12-12-2008 14:07:16 0.8 C 3.63 g/m*3 0.8 C 0 km/h
312 12-12-2008 14:19:16 0.9 C 3.66 g/m*3 0.9 C 0 km/h
313 12-12-2008 14:31:16 1 C 3.63 g/m*3 1 C 0 km/h
314 12-12-2008 14:43:16 1 C 3.69 g/m*3 1 C 0 km/h
315 12-12-2008 14:55:16 0.9 C 3.61 g/m*3 0.9 C 0 km/h
316 12-12-2008 15:07:15 0.9 C 3.66 g/m*3 0.9 C 0 km/h
317 12-12-2008 15:19:16 0.9 C 3.66 g/m*3 0.9 C 0 km/h
318 12-12-2008 15:31:16 0.8 C 3.69 g/m*3 0.8 C 0 km/h
319 12-12-2008 15:43:16 0.8 C 3.69 g/m*3 0.8 C 0 km/h
320 12-12-2008 15:55:15 0.7 C 3.66 g/m*3 0.7 C 0 km/h
321 12-12-2008 16:07:15 0.6 C 3.64 g/m*3 0.6 C 0 km/h
322 12-12-2008 16:19:15 0.6 C 3.64 g/m*3 0.6 C 0 km/h
323 12-12-2008 16:31:15 0.5 C 3.66 g/m*3 0.5 C 0 km/h
324 12-12-2008 16:43:15 0.4 C 3.64 g/m*3 0.4 C 0 km/h
325 12-12-2008 16:55:14 0.4 C 3.64 g/m*3 0.4 C 0 km/h
Sensor: Nr:Datum:Temp:Abs-Feuchte:Windchill:Wind:
Aussen-T/F 326 12-12-2008 17:07:15 0.4 C 3.64 g/m*3 0.4 C 0 km/h
327 12-12-2008 17:19:14 0.4 C 3.69 g/m*3 0.4 C 0 km/h
328 12-12-2008 17:31:14 0.4 C 3.64 g/m*3 0.4 C 0 km/h
329 12-12-2008 17:43:14 0.3 C 3.56 g/m*3 0.3 C 0 km/h
330 12-12-2008 17:55:14 0.3 C 3.56 g/m*3 0.3 C 0 km/h
331 12-12-2008 18:07:15 0.3 C 3.61 g/m*3 0.3 C 0 km/h
332 12-12-2008 18:19:16 0.2 C 3.59 g/m*3 0.2 C 0 km/h
333 12-12-2008 18:31:14 0.1 C 3.51 g/m*3 0.1 C 0 km/h
334 12-12-2008 18:43:14 0.2 C 3.59 g/m*3 0.2 C 0 km/h
335 12-12-2008 18:55:13 0.1 C 3.51 g/m*3 0.1 C 0 km/h
336 12-12-2008 19:07:14 0 C 3.49 g/m*3 0 C 0 km/h
337 12-12-2008 19:19:13 0 C 3.49 g/m*3 0 C 0 km/h
338 12-12-2008 19:31:14 0 C 3.54 g/m*3 0 C 0 km/h
339 12-12-2008 19:43:14 -0.1 C 3.51 g/m*3 -0.1 C 0 km/h
340 12-12-2008 19:55:13 -0.2 C 3.44 g/m*3 -0.2 C 0 km/h
341 12-12-2008 20:07:13 -0.3 C 3.42 g/m*3 -0.3 C 0 km/h
342 12-12-2008 20:19:13 -0.3 C 3.42 g/m*3 -0.3 C 0 km/h
343 12-12-2008 20:31:13 -0.3 C 3.42 g/m*3 -0.3 C 0 km/h
344 12-12-2008 20:43:13 -0.3 C 3.42 g/m*3 -0.3 C 0 km/h
345 12-12-2008 20:55:12 -0.4 C 3.39 g/m*3 -0.4 C 0 km/h
346 12-12-2008 21:07:13 -0.5 C 3.37 g/m*3 -0.5 C 0 km/h
347 12-12-2008 21:19:12 -0.4 C 3.39 g/m*3 -0.4 C 0 km/h
348 12-12-2008 21:31:12 -0.5 C 3.37 g/m*3 -0.5 C 0 km/h
349 12-12-2008 21:43:12 -0.4 C 3.35 g/m*3 -0.4 C 0 km/h
350 12-12-2008 21:55:11 -0.4 C 3.35 g/m*3 -0.4 C 0 km/h
Sensor: Nr:Datum:Temp:Abs-Feuchte:Windchill:Wind:
Aussen-T/F 351 12-12-2008 22:07:12 -0.4 C 3.39 g/m*3 -0.4 C 0 km/h
352 12-12-2008 22:20:38 -0.4 C 3.39 g/m*3 -0.4 C 0 km/h
353 12-12-2008 22:32:38 -0.5 C 3.32 g/m*3 -0.5 C 0 km/h
354 12-12-2008 22:44:38 -0.5 C 3.32 g/m*3 -0.5 C 0 km/h
355 12-12-2008 22:56:38 -0.6 C 3.35 g/m*3 -0.6 C 0 km/h
356 12-12-2008 23:08:38 -0.6 C 3.3 g/m*3 -0.6 C 0 km/h
357 12-12-2008 23:20:38 -0.7 C 3.32 g/m*3 -0.7 C 0 km/h
358 12-12-2008 23:32:38 -0.6 C 3.35 g/m*3 -0.6 C 0 km/h
359 12-12-2008 23:44:38 -0.6 C 3.35 g/m*3 -0.6 C 0 km/h
360 12-12-2008 23:56:38 -0.6 C 3.35 g/m*3 -0.6 C 0 km/h
361 13-12-2008 00:08:38 -0.6 C 3.35 g/m*3 -0.6 C 0 km/h
362 13-12-2008 00:20:38 -0.7 C 3.32 g/m*3 -0.7 C 0 km/h
363 13-12-2008 00:32:38 -0.7 C 3.32 g/m*3 -0.7 C 0 km/h
364 13-12-2008 00:44:38 -0.7 C 3.37 g/m*3 -0.7 C 0 km/h
365 13-12-2008 00:56:38 -0.7 C 3.37 g/m*3 -0.7 C 0 km/h
366 13-12-2008 01:08:38 -0.7 C 3.37 g/m*3 -0.7 C 0 km/h
367 13-12-2008 01:20:38 -0.7 C 3.37 g/m*3 -0.7 C 0 km/h
368 13-12-2008 01:32:39 -0.7 C 3.37 g/m*3 -0.7 C 0 km/h
369 13-12-2008 01:44:39 -0.7 C 3.37 g/m*3 -0.7 C 0 km/h
370 13-12-2008 01:56:39 -0.8 C 3.35 g/m*3 -0.8 C 0 km/h
371 13-12-2008 02:08:39 -0.8 C 3.39 g/m*3 -0.8 C 0 km/h
372 13-12-2008 02:20:39 -0.9 C 3.37 g/m*3 -0.9 C 0 km/h
373 13-12-2008 02:32:39 -0.9 C 3.37 g/m*3 -0.9 C 0 km/h
374 13-12-2008 02:44:39 -1 C 3.35 g/m*3 -1 C 0 km/h
375 13-12-2008 02:56:39 -1.1 C 3.32 g/m*3 -1.1 C 0 km/h
Sensor: Nr:Datum:Temp:Abs-Feuchte:Windchill:Wind:
Aussen-T/F 376 13-12-2008 03:08:39 -1.1 C 3.32 g/m*3 -1.1 C 0 km/h
377 13-12-2008 03:20:39 -1.1 C 3.32 g/m*3 -1.1 C 0 km/h
378 13-12-2008 03:32:39 -1.1 C 3.32 g/m*3 -1.1 C 0 km/h
379 13-12-2008 03:44:39 -1.2 C 3.3 g/m*3 -1.2 C 0 km/h
380 13-12-2008 03:56:39 -1.2 C 3.3 g/m*3 -1.2 C 0 km/h
381 13-12-2008 04:08:39 -1.3 C 3.28 g/m*3 -1.3 C 0 km/h
382 13-12-2008 04:20:39 -1.3 C 3.32 g/m*3 -1.3 C 0 km/h
383 13-12-2008 04:32:39 -1.3 C 3.32 g/m*3 -1.3 C 0 km/h
384 13-12-2008 04:44:39 -1.3 C 3.32 g/m*3 -1.3 C 0 km/h
385 13-12-2008 04:56:39 -1.3 C 3.32 g/m*3 -1.3 C 0 km/h
386 13-12-2008 05:08:39 -1.2 C 3.34 g/m*3 -1.2 C 0 km/h
387 13-12-2008 05:20:40 -1.1 C 3.41 g/m*3 -1.1 C 0 km/h
388 13-12-2008 05:32:40 -1.1 C 3.37 g/m*3 -1.1 C 0 km/h
389 13-12-2008 05:44:40 -1 C 3.39 g/m*3 -1 C 0 km/h
390 13-12-2008 05:56:40 -0.9 C 3.41 g/m*3 -0.9 C 0 km/h
391 13-12-2008 06:08:40 -0.8 C 3.44 g/m*3 -0.8 C 0 km/h
392 13-12-2008 06:20:40 -0.8 C 3.44 g/m*3 -0.8 C 0 km/h
393 13-12-2008 06:32:40 -0.8 C 3.44 g/m*3 -0.8 C 0 km/h
394 13-12-2008 06:44:40 -0.8 C 3.39 g/m*3 -0.8 C 0 km/h
395 13-12-2008 06:56:40 -0.7 C 3.46 g/m*3 -0.7 C 0 km/h
396 13-12-2008 07:08:40 -0.7 C 3.46 g/m*3 -0.7 C 0 km/h
397 13-12-2008 07:20:40 -0.7 C 3.46 g/m*3 -0.7 C 0 km/h
398 13-12-2008 07:32:40 -0.6 C 3.49 g/m*3 -0.6 C 0 km/h
399 13-12-2008 07:44:40 -0.6 C 3.49 g/m*3 -0.6 C 0 km/h
400 13-12-2008 07:56:40 -0.6 C 3.49 g/m*3 -0.6 C 0 km/h
Sensor: Nr:Datum:Temp:Abs-Feuchte:Windchill:Wind:
Aussen-T/F 401 13-12-2008 08:08:37 -0.6 C 3.53 g/m*3 -0.6 C 0 km/h
402 13-12-2008 08:20:37 -0.5 C 3.56 g/m*3 -0.5 C 0 km/h
403 13-12-2008 08:32:37 -0.5 C 3.56 g/m*3 -0.5 C 0 km/h
404 13-12-2008 08:44:37 -0.5 C 3.56 g/m*3 -0.5 C 0 km/h
405 13-12-2008 08:56:37 -0.5 C 3.6 g/m*3 -0.5 C 0 km/h
406 13-12-2008 09:08:37 -0.4 C 3.63 g/m*3 -0.4 C 0 km/h
407 13-12-2008 09:20:37 -0.3 C 3.65 g/m*3 -0.3 C 0 km/h
408 13-12-2008 09:32:37 -0.2 C 3.68 g/m*3 -0.2 C 0 km/h
409 13-12-2008 09:44:37 -0.2 C 3.68 g/m*3 -0.2 C 0 km/h
410 13-12-2008 09:56:37 -0.1 C 3.71 g/m*3 -0.1 C 0 km/h
411 13-12-2008 10:08:36 0.1 C 3.76 g/m*3 0.1 C 0 km/h
412 13-12-2008 10:20:37 0.1 C 3.76 g/m*3 0.1 C 0 km/h
413 13-12-2008 10:32:36 0.2 C 3.78 g/m*3 0.2 C 0 km/h
414 13-12-2008 10:44:36 0.3 C 3.81 g/m*3 0.3 C 0 km/h
415 13-12-2008 10:56:36 0.3 C 3.81 g/m*3 0.3 C 0 km/h
416 13-12-2008 11:08:36 0.3 C 3.81 g/m*3 0.3 C 0 km/h
417 13-12-2008 11:20:36 0.3 C 3.81 g/m*3 0.3 C 0 km/h
418 13-12-2008 11:32:36 0.3 C 3.81 g/m*3 0.3 C 0 km/h
419 13-12-2008 11:44:36 0.3 C 3.86 g/m*3 0.3 C 0 km/h
420 13-12-2008 11:56:36 0.4 C 3.93 g/m*3 0.4 C 0 km/h
421 13-12-2008 12:08:36 0.5 C 3.96 g/m*3 0.5 C 0 km/h
422 13-12-2008 12:20:35 0.5 C 3.96 g/m*3 0.5 C 0 km/h
423 13-12-2008 12:32:35 0.5 C 3.96 g/m*3 0.5 C 0 km/h
424 13-12-2008 12:44:35 0.5 C 3.96 g/m*3 0.5 C 0 km/h
425 13-12-2008 12:56:35 0.7 C 3.97 g/m*3 0.7 C 0 km/h
Sensor: Nr:Datum:Temp:Abs-Feuchte:Windchill:Wind:
Aussen-T/F 426 13-12-2008 13:08:35 0.7 C 3.97 g/m*3 0.7 C 0 km/h
427 13-12-2008 13:20:34 0.8 C 3.94 g/m*3 0.8 C 0 km/h
428 13-12-2008 13:32:35 0.8 C 3.89 g/m*3 0.8 C 0 km/h
429 13-12-2008 13:44:35 0.8 C 3.84 g/m*3 0.8 C 0 km/h
430 13-12-2008 13:56:34 0.9 C 3.76 g/m*3 0.9 C 0 km/h
431 13-12-2008 14:08:36 1 C 3.74 g/m*3 1 C 0 km/h
432 13-12-2008 14:20:35 1 C 3.69 g/m*3 1 C 0 km/h
433 13-12-2008 14:32:35 1 C 3.69 g/m*3 1 C 0 km/h
434 13-12-2008 14:44:35 1 C 3.63 g/m*3 1 C 0 km/h
435 13-12-2008 14:56:35 1 C 3.69 g/m*3 1 C 0 km/h
436 13-12-2008 15:08:34 1 C 3.69 g/m*3 1 C 0 km/h
437 13-12-2008 15:20:34 1 C 3.69 g/m*3 1 C 0 km/h
438 13-12-2008 15:32:33 1 C 3.69 g/m*3 1 C 0 km/h
439 13-12-2008 15:44:33 1 C 3.63 g/m*3 1 C 0 km/h
440 13-12-2008 15:56:33 1 C 3.63 g/m*3 1 C 0 km/h
441 13-12-2008 16:08:33 1 C 3.63 g/m*3 1 C 0 km/h
442 13-12-2008 16:20:33 0.9 C 3.66 g/m*3 0.9 C 0 km/h
443 13-12-2008 16:32:33 0.9 C 3.66 g/m*3 0.9 C 0 km/h
444 13-12-2008 16:44:33 0.9 C 3.71 g/m*3 0.9 C 0 km/h
445 13-12-2008 16:56:33 0.8 C 3.69 g/m*3 0.8 C 0 km/h
446 13-12-2008 17:08:32 0.8 C 3.63 g/m*3 0.8 C 0 km/h
447 13-12-2008 17:20:33 0.8 C 3.63 g/m*3 0.8 C 0 km/h
448 13-12-2008 17:32:33 0.8 C 3.63 g/m*3 0.8 C 0 km/h
449 13-12-2008 17:44:33 0.7 C 3.61 g/m*3 0.7 C 0 km/h
450 13-12-2008 17:56:32 0.7 C 3.61 g/m*3 0.7 C 0 km/h
Sensor: Nr:Datum:Temp:Abs-Feuchte:Windchill:Wind:
Aussen-T/F 451 13-12-2008 18:08:33 0.8 C 3.63 g/m*3 0.8 C 0 km/h
452 13-12-2008 18:20:32 0.6 C 3.53 g/m*3 0.6 C 0 km/h
453 13-12-2008 18:32:32 0.5 C 3.56 g/m*3 0.5 C 0 km/h
454 13-12-2008 18:44:32 0.3 C 3.51 g/m*3 0.3 C 0 km/h
455 13-12-2008 18:56:32 -0.1 C 3.46 g/m*3 -0.1 C 0 km/h
456 13-12-2008 19:08:32 -0.2 C 3.49 g/m*3 -0.2 C 0 km/h
457 13-12-2008 19:20:31 -0.2 C 3.49 g/m*3 -0.2 C 0 km/h
458 13-12-2008 19:32:31 -0.2 C 3.44 g/m*3 -0.2 C 0 km/h
459 13-12-2008 19:44:31 -0.6 C 3.39 g/m*3 -0.6 C 0 km/h
460 13-12-2008 19:56:31 -1 C 3.35 g/m*3 -1 C 0 km/h
461 13-12-2008 20:08:31 -1.2 C 3.34 g/m*3 -1.2 C 0 km/h
462 13-12-2008 20:20:31 -1.4 C 3.39 g/m*3 -1.4 C 0 km/h
463 13-12-2008 20:32:31 -0.5 C 3.51 g/m*3 -0.5 C 0 km/h
464 13-12-2008 20:44:31 -0.7 C 3.46 g/m*3 -0.7 C 0 km/h
465 13-12-2008 20:56:31 -1 C 3.44 g/m*3 -1 C 0 km/h
466 13-12-2008 21:08:31 -1 C 3.48 g/m*3 -1 C 0 km/h
467 13-12-2008 21:20:30 -1.1 C 3.5 g/m*3 -1.1 C 0 km/h
468 13-12-2008 21:32:30 -1.3 C 3.5 g/m*3 -1.3 C 0 km/h
469 13-12-2008 21:44:31 -1.4 C 3.52 g/m*3 -1.4 C 0 km/h
470 13-12-2008 21:56:30 -1.3 C 3.59 g/m*3 -1.3 C 0 km/h
471 13-12-2008 22:08:30 -1.1 C 3.64 g/m*3 -1.1 C 0 km/h
472 13-12-2008 22:20:29 -0.9 C 3.69 g/m*3 -0.9 C 0 km/h
473 13-12-2008 22:32:30 -0.5 C 3.7 g/m*3 -0.5 C 0 km/h
474 13-12-2008 22:44:30 -0.6 C 3.63 g/m*3 -0.6 C 0 km/h
475 13-12-2008 22:57:30 -0.8 C 3.58 g/m*3 -0.8 C 0 km/h
Sensor: Nr:Datum:Temp:Abs-Feuchte:Windchill:Wind:
Aussen-T/F 476 13-12-2008 23:09:30 -0.9 C 3.6 g/m*3 -0.9 C 0 km/h
477 13-12-2008 23:21:30 -0.8 C 3.62 g/m*3 -0.8 C 0 km/h
478 13-12-2008 23:33:30 -0.6 C 3.67 g/m*3 -0.6 C 0 km/h
479 13-12-2008 23:45:30 -0.7 C 3.65 g/m*3 -0.7 C 0 km/h
480 13-12-2008 23:57:30 -1 C 3.57 g/m*3 -1 C 0 km/h
481 14-12-2008 00:09:30 -1 C 3.57 g/m*3 -1 C 0 km/h
482 14-12-2008 00:21:30 -1.3 C 3.54 g/m*3 -1.3 C 0 km/h
483 14-12-2008 00:33:30 -1.4 C 3.56 g/m*3 -1.4 C 0 km/h
484 14-12-2008 00:45:30 -1.2 C 3.7 g/m*3 -1.2 C 0 km/h
485 14-12-2008 00:57:30 -1 C 3.75 g/m*3 -1 C 0 km/h
486 14-12-2008 01:09:30 -1.2 C 3.7 g/m*3 -1.2 C 0 km/h
487 14-12-2008 01:21:30 -1.4 C 3.65 g/m*3 -1.4 C 0 km/h
488 14-12-2008 01:33:30 -1.4 C 3.65 g/m*3 -1.4 C 0 km/h
489 14-12-2008 01:45:31 -1.2 C 3.74 g/m*3 -1.2 C 0 km/h
490 14-12-2008 01:57:31 -1 C 3.8 g/m*3 -1 C 0 km/h
491 14-12-2008 02:09:31 -1.1 C 3.73 g/m*3 -1.1 C 0 km/h
492 14-12-2008 02:21:31 -1.2 C 3.7 g/m*3 -1.2 C 0 km/h
493 14-12-2008 02:33:31 -0.8 C 3.8 g/m*3 -0.8 C 0 km/h
494 14-12-2008 02:45:31 -0.5 C 3.88 g/m*3 -0.5 C 0 km/h
495 14-12-2008 02:57:31 -0.4 C 3.86 g/m*3 -0.4 C 0 km/h
496 14-12-2008 03:09:31 -0.5 C 3.84 g/m*3 -0.5 C 0 km/h
497 14-12-2008 03:21:31 -0.4 C 3.86 g/m*3 -0.4 C 0 km/h
498 14-12-2008 03:33:31 -0.5 C 3.84 g/m*3 -0.5 C 0 km/h
499 14-12-2008 03:45:31 -0.5 C 3.84 g/m*3 -0.5 C 0 km/h
500 14-12-2008 03:57:31 -0.6 C 3.81 g/m*3 -0.6 C 0 km/h
Sensor: Nr:Datum:Temp:Abs-Feuchte:Windchill:Wind:
Aussen-T/F 501 14-12-2008 04:09:31 -0.8 C 3.76 g/m*3 -0.8 C 0 km/h
502 14-12-2008 04:21:31 -0.9 C 3.73 g/m*3 -0.9 C 0 km/h
503 14-12-2008 04:33:31 -0.8 C 3.8 g/m*3 -0.8 C 0 km/h
504 14-12-2008 04:45:31 -0.8 C 3.8 g/m*3 -0.8 C 0 km/h
505 14-12-2008 04:57:31 -0.9 C 3.78 g/m*3 -0.9 C 0 km/h
506 14-12-2008 05:09:31 -0.9 C 3.73 g/m*3 -0.9 C 0 km/h
507 14-12-2008 05:21:31 -1 C 3.71 g/m*3 -1 C 0 km/h
508 14-12-2008 05:33:31 -1.1 C 3.73 g/m*3 -1.1 C 0 km/h
509 14-12-2008 05:45:32 -1.1 C 3.73 g/m*3 -1.1 C 0 km/h
510 14-12-2008 05:57:32 -1.1 C 3.73 g/m*3 -1.1 C 0 km/h
511 14-12-2008 06:09:32 -1.1 C 3.73 g/m*3 -1.1 C 0 km/h
512 14-12-2008 06:21:32 -1.1 C 3.77 g/m*3 -1.1 C 0 km/h
513 14-12-2008 06:33:32 -1.1 C 3.77 g/m*3 -1.1 C 0 km/h
514 14-12-2008 06:45:32 -1 C 3.8 g/m*3 -1 C 0 km/h
515 14-12-2008 06:57:32 -1.1 C 3.77 g/m*3 -1.1 C 0 km/h
516 14-12-2008 07:09:32 -1.1 C 3.77 g/m*3 -1.1 C 0 km/h
517 14-12-2008 07:21:32 -1.3 C 3.67 g/m*3 -1.3 C 0 km/h
518 14-12-2008 07:33:32 -1.3 C 3.72 g/m*3 -1.3 C 0 km/h
519 14-12-2008 07:45:32 -1.4 C 3.69 g/m*3 -1.4 C 0 km/h
520 14-12-2008 07:57:32 -1.4 C 3.69 g/m*3 -1.4 C 0 km/h
521 14-12-2008 08:09:31 -1.4 C 3.69 g/m*3 -1.4 C 0 km/h
522 14-12-2008 08:21:30 -1.5 C 3.71 g/m*3 -1.5 C 0 km/h
523 14-12-2008 08:33:31 -1.4 C 3.74 g/m*3 -1.4 C 0 km/h
524 14-12-2008 08:45:30 -1.5 C 3.71 g/m*3 -1.5 C 0 km/h
525 14-12-2008 08:57:30 -1.5 C 3.71 g/m*3 -1.5 C 0 km/h
Sensor: Nr:Datum:Temp:Abs-Feuchte:Windchill:Wind:
Aussen-T/F 526 14-12-2008 09:09:30 -1.3 C 3.76 g/m*3 -1.3 C 0 km/h
527 14-12-2008 09:21:30 -1 C 3.89 g/m*3 -1 C 0 km/h
528 14-12-2008 09:33:30 -0.9 C 3.91 g/m*3 -0.9 C 0 km/h
529 14-12-2008 09:45:29 -0.8 C 3.9 g/m*3 -0.8 C 0 km/h
530 14-12-2008 09:57:29 -0.7 C 3.92 g/m*3 -0.7 C 0 km/h
531 14-12-2008 10:09:30 -0.7 C 3.92 g/m*3 -0.7 C 0 km/h
532 14-12-2008 10:21:30 -0.4 C 4.05 g/m*3 -0.4 C 0 km/h
533 14-12-2008 10:33:29 0 C 4.12 g/m*3 0 C 0 km/h
534 14-12-2008 10:45:30 0.2 C 4.18 g/m*3 0.2 C 0 km/h
535 14-12-2008 10:57:30 0.7 C 4.37 g/m*3 0.7 C 0 km/h
536 14-12-2008 11:09:29 1 C 4.41 g/m*3 1 C 0 km/h
537 14-12-2008 11:21:29 1.2 C 4.42 g/m*3 1.2 C 0 km/h
538 14-12-2008 11:33:28 1.2 C 4.42 g/m*3 1.2 C 0 km/h
539 14-12-2008 11:45:29 1.1 C 4.39 g/m*3 1.1 C 0 km/h
540 14-12-2008 11:57:29 1.1 C 4.44 g/m*3 1.1 C 0 km/h
541 14-12-2008 12:09:29 1.2 C 4.47 g/m*3 1.2 C 0 km/h
542 14-12-2008 12:21:28 1 C 4.41 g/m*3 1 C 0 km/h
543 14-12-2008 12:33:29 1 C 4.46 g/m*3 1 C 0 km/h
544 14-12-2008 12:45:28 1.1 C 4.49 g/m*3 1.1 C 0 km/h
545 14-12-2008 12:57:28 1.4 C 4.64 g/m*3 1.4 C 0 km/h
546 14-12-2008 13:09:28 1.8 C 4.77 g/m*3 1.8 C 0 km/h
547 14-12-2008 13:21:28 2.2 C 4.79 g/m*3 2.2 C 0 km/h
548 14-12-2008 13:33:28 2.4 C 4.8 g/m*3 2.4 C 0 km/h
549 14-12-2008 13:45:27 2.3 C 4.71 g/m*3 2.3 C 0 km/h
550 14-12-2008 13:57:27 2.6 C 4.8 g/m*3 2.6 C 0 km/h
Sensor: Nr:Datum:Temp:Abs-Feuchte:Windchill:Wind:
Aussen-T/F 551 14-12-2008 14:09:28 2.8 C 4.81 g/m*3 2.8 C 0 km/h
552 14-12-2008 14:21:28 2.5 C 4.66 g/m*3 2.5 C 0 km/h
553 14-12-2008 14:33:27 2.5 C 4.66 g/m*3 2.5 C 0 km/h
554 14-12-2008 14:45:27 2.4 C 4.62 g/m*3 2.4 C 0 km/h
555 14-12-2008 14:57:27 2.3 C 4.65 g/m*3 2.3 C 0 km/h
556 14-12-2008 15:09:27 2.4 C 4.68 g/m*3 2.4 C 0 km/h
557 14-12-2008 15:21:27 2.3 C 4.65 g/m*3 2.3 C 0 km/h
558 14-12-2008 15:33:26 2.1 C 4.64 g/m*3 2.1 C 0 km/h
559 14-12-2008 15:45:27 2.1 C 4.64 g/m*3 2.1 C 0 km/h
560 14-12-2008 15:57:28 2.1 C 4.7 g/m*3 2.1 C 0 km/h
561 14-12-2008 16:09:26 2.2 C 4.73 g/m*3 2.2 C 0 km/h
562 14-12-2008 16:21:26 1.7 C 4.57 g/m*3 1.7 C 0 km/h
563 14-12-2008 16:33:27 1.5 C 4.57 g/m*3 1.5 C 0 km/h
564 14-12-2008 16:45:26 1.4 C 4.59 g/m*3 1.4 C 0 km/h
565 14-12-2008 16:57:26 1.2 C 4.53 g/m*3 1.2 C 0 km/h
566 14-12-2008 17:09:26 1.3 C 4.61 g/m*3 1.3 C 0 km/h
567 14-12-2008 17:21:25 1.3 C 4.66 g/m*3 1.3 C 0 km/h
568 14-12-2008 17:33:26 1.2 C 4.63 g/m*3 1.2 C 0 km/h
569 14-12-2008 17:45:25 1.2 C 4.63 g/m*3 1.2 C 0 km/h
570 14-12-2008 17:57:25 1 C 4.62 g/m*3 1 C 0 km/h
571 14-12-2008 18:09:25 1 C 4.62 g/m*3 1 C 0 km/h
572 14-12-2008 18:21:25 0.9 C 4.64 g/m*3 0.9 C 0 km/h
573 14-12-2008 18:33:25 0.9 C 4.64 g/m*3 0.9 C 0 km/h
574 14-12-2008 18:45:25 0.9 C 4.69 g/m*3 0.9 C 0 km/h
575 14-12-2008 18:57:25 0.7 C 4.63 g/m*3 0.7 C 0 km/h
Sensor: Nr:Datum:Temp:Abs-Feuchte:Windchill:Wind:
Aussen-T/F 576 14-12-2008 19:09:25 0.5 C 4.51 g/m*3 0.5 C 0 km/h
577 14-12-2008 19:21:25 0.7 C 4.63 g/m*3 0.7 C 0 km/h
578 14-12-2008 19:33:24 0.8 C 4.71 g/m*3 0.8 C 0 km/h
579 14-12-2008 19:45:25 0.7 C 4.68 g/m*3 0.7 C 0 km/h
580 14-12-2008 19:57:25 0.7 C 4.68 g/m*3 0.7 C 0 km/h
581 14-12-2008 20:09:24 0.9 C 4.74 g/m*3 0.9 C 0 km/h
582 14-12-2008 20:21:24 1 C 4.78 g/m*3 1 C 0 km/h
583 14-12-2008 20:33:24 1.2 C 4.84 g/m*3 1.2 C 0 km/h
584 14-12-2008 20:45:23 1.1 C 4.81 g/m*3 1.1 C 0 km/h
585 14-12-2008 20:57:23 1.2 C 4.84 g/m*3 1.2 C 0 km/h
586 14-12-2008 21:09:24 1 C 4.72 g/m*3 1 C 0 km/h
587 14-12-2008 21:21:23 1 C 4.72 g/m*3 1 C 0 km/h
588 14-12-2008 21:33:24 0.8 C 4.71 g/m*3 0.8 C 0 km/h
589 14-12-2008 21:45:24 0.8 C 4.71 g/m*3 0.8 C 0 km/h
590 14-12-2008 21:57:24 0.8 C 4.71 g/m*3 0.8 C 0 km/h
591 14-12-2008 22:09:23 0.7 C 4.68 g/m*3 0.7 C 0 km/h
592 14-12-2008 22:21:23 0.6 C 4.65 g/m*3 0.6 C 0 km/h
593 14-12-2008 22:34:24 0.5 C 4.61 g/m*3 0.5 C 0 km/h
594 14-12-2008 22:46:24 0.6 C 4.65 g/m*3 0.6 C 0 km/h
595 14-12-2008 22:58:24 0.7 C 4.73 g/m*3 0.7 C 0 km/h
596 14-12-2008 23:10:24 0.6 C 4.65 g/m*3 0.6 C 0 km/h
597 14-12-2008 23:22:24 0.7 C 4.68 g/m*3 0.7 C 0 km/h
598 14-12-2008 23:34:24 0.9 C 4.79 g/m*3 0.9 C 0 km/h
599 14-12-2008 23:46:24 1.3 C 4.87 g/m*3 1.3 C 0 km/h
600 14-12-2008 23:58:25 1.5 C 4.89 g/m*3 1.5 C 0 km/h
Sensor: Nr:Datum:Temp:Abs-Feuchte:Windchill:Wind:
Aussen-T/F 601 15-12-2008 00:10:25 1.4 C 4.8 g/m*3 1.4 C 0 km/h
602 15-12-2008 00:22:25 1.2 C 4.68 g/m*3 1.2 C 0 km/h
603 15-12-2008 00:34:25 0.8 C 4.56 g/m*3 0.8 C 0 km/h
604 15-12-2008 00:46:25 0.6 C 4.54 g/m*3 0.6 C 0 km/h
605 15-12-2008 00:58:25 0.5 C 4.51 g/m*3 0.5 C 0 km/h
606 15-12-2008 01:10:25 0.2 C 4.42 g/m*3 0.2 C 0 km/h
607 15-12-2008 01:22:25 0.2 C 4.47 g/m*3 0.2 C 0 km/h
608 15-12-2008 01:34:25 0.2 C 4.47 g/m*3 0.2 C 0 km/h
609 15-12-2008 01:46:25 0.4 C 4.58 g/m*3 0.4 C 0 km/h
610 15-12-2008 01:58:25 0.3 C 4.55 g/m*3 0.3 C 0 km/h
611 15-12-2008 02:10:25 0.3 C 4.55 g/m*3 0.3 C 0 km/h
612 15-12-2008 02:22:25 0.1 C 4.49 g/m*3 0.1 C 0 km/h
613 15-12-2008 02:34:25 0 C 4.46 g/m*3 0 C 0 km/h
614 15-12-2008 02:46:25 -0.1 C 4.43 g/m*3 -0.1 C 0 km/h
615 15-12-2008 02:58:25 -0.1 C 4.43 g/m*3 -0.1 C 0 km/h
616 15-12-2008 03:10:25 -0.2 C 4.4 g/m*3 -0.2 C 0 km/h
617 15-12-2008 03:22:25 -0.3 C 4.41 g/m*3 -0.3 C 0 km/h
618 15-12-2008 03:34:25 -0.4 C 4.38 g/m*3 -0.4 C 0 km/h
619 15-12-2008 03:46:25 -0.3 C 4.41 g/m*3 -0.3 C 0 km/h
620 15-12-2008 03:58:26 -0.4 C 4.38 g/m*3 -0.4 C 0 km/h
621 15-12-2008 04:10:26 -0.4 C 4.38 g/m*3 -0.4 C 0 km/h
622 15-12-2008 04:22:26 -0.3 C 4.46 g/m*3 -0.3 C 0 km/h
623 15-12-2008 04:34:26 -0.3 C 4.46 g/m*3 -0.3 C 0 km/h
624 15-12-2008 04:46:26 -0.3 C 4.46 g/m*3 -0.3 C 0 km/h
625 15-12-2008 04:58:26 -0.3 C 4.46 g/m*3 -0.3 C 0 km/h
Sensor: Nr:Datum:Temp:Abs-Feuchte:Windchill:Wind:
Aussen-T/F 626 15-12-2008 05:10:26 -0.5 C 4.4 g/m*3 -0.5 C 0 km/h
627 15-12-2008 05:22:26 -0.4 C 4.43 g/m*3 -0.4 C 0 km/h
628 15-12-2008 05:34:26 -0.5 C 4.4 g/m*3 -0.5 C 0 km/h
629 15-12-2008 05:46:26 -0.6 C 4.37 g/m*3 -0.6 C 0 km/h
630 15-12-2008 05:58:26 -0.9 C 4.28 g/m*3 -0.9 C 0 km/h
631 15-12-2008 06:10:26 -1 C 4.25 g/m*3 -1 C 0 km/h
632 15-12-2008 06:22:26 -1 C 4.25 g/m*3 -1 C 0 km/h
633 15-12-2008 06:34:24 -1.1 C 4.26 g/m*3 -1.1 C 0 km/h
634 15-12-2008 06:46:23 -1.3 C 4.16 g/m*3 -1.3 C 0 km/h
635 15-12-2008 06:58:23 -1.6 C 4.07 g/m*3 -1.6 C 0 km/h
636 15-12-2008 07:10:24 -1.4 C 4.18 g/m*3 -1.4 C 0 km/h
637 15-12-2008 07:22:23 -1.5 C 4.15 g/m*3 -1.5 C 0 km/h
638 15-12-2008 07:34:23 -1.4 C 4.18 g/m*3 -1.4 C 0 km/h
639 15-12-2008 07:46:22 -1.4 C 4.18 g/m*3 -1.4 C 0 km/h
640 15-12-2008 07:58:22 -1.6 C 4.12 g/m*3 -1.6 C 0 km/h
641 15-12-2008 08:10:23 -1.7 C 4.09 g/m*3 -1.7 C 0 km/h
642 15-12-2008 08:22:23 -1.9 C 4.03 g/m*3 -1.9 C 0 km/h
643 15-12-2008 08:34:22 -2 C 4 g/m*3 -2 C 0 km/h
644 15-12-2008 08:46:23 -2 C 4 g/m*3 -2 C 0 km/h
645 15-12-2008 08:58:23 -2.1 C 3.98 g/m*3 -2.1 C 0 km/h
646 15-12-2008 09:10:22 -2.1 C 3.98 g/m*3 -2.1 C 0 km/h
647 15-12-2008 09:22:22 -1.8 C 4.06 g/m*3 -1.8 C 0 km/h
648 15-12-2008 09:34:22 -1.8 C 4.06 g/m*3 -1.8 C 0 km/h
649 15-12-2008 09:46:22 -1.8 C 4.06 g/m*3 -1.8 C 0 km/h
650 15-12-2008 09:58:22 -1.7 C 4.09 g/m*3 -1.7 C 0 km/h
Sensor: Nr:Datum:Temp:Abs-Feuchte:Windchill:Wind:
Aussen-T/F 651 15-12-2008 10:10:22 -1.6 C 4.12 g/m*3 -1.6 C 0 km/h
652 15-12-2008 10:22:21 -1.5 C 4.15 g/m*3 -1.5 C 0 km/h
653 15-12-2008 10:34:22 -1.4 C 4.18 g/m*3 -1.4 C 0 km/h
654 15-12-2008 10:46:21 -1.1 C 4.26 g/m*3 -1.1 C 0 km/h
655 15-12-2008 10:58:21 -0.9 C 4.32 g/m*3 -0.9 C 0 km/h
656 15-12-2008 11:10:21 -0.7 C 4.39 g/m*3 -0.7 C 0 km/h
657 15-12-2008 11:22:21 -0.8 C 4.35 g/m*3 -0.8 C 0 km/h
658 15-12-2008 11:34:21 -0.7 C 4.39 g/m*3 -0.7 C 0 km/h
659 15-12-2008 11:46:20 -0.6 C 4.42 g/m*3 -0.6 C 0 km/h
660 15-12-2008 11:58:20 -0.4 C 4.48 g/m*3 -0.4 C 0 km/h
661 15-12-2008 12:10:21 -0.2 C 4.54 g/m*3 -0.2 C 0 km/h
662 15-12-2008 12:22:21 -0.2 C 4.54 g/m*3 -0.2 C 0 km/h
663 15-12-2008 12:34:20 0.1 C 4.63 g/m*3 0.1 C 0 km/h
664 15-12-2008 12:46:21 0.2 C 4.67 g/m*3 0.2 C 0 km/h
665 15-12-2008 12:58:21 0.3 C 4.7 g/m*3 0.3 C 0 km/h
666 15-12-2008 13:10:20 0.5 C 4.76 g/m*3 0.5 C 0 km/h
667 15-12-2008 13:22:20 0.5 C 4.76 g/m*3 0.5 C 0 km/h
668 15-12-2008 13:34:19 0.5 C 4.76 g/m*3 0.5 C 0 km/h
669 15-12-2008 13:46:20 0.7 C 4.83 g/m*3 0.7 C 0 km/h
670 15-12-2008 13:58:20 0.7 C 4.83 g/m*3 0.7 C 0 km/h
671 15-12-2008 14:10:19 0.8 C 4.86 g/m*3 0.8 C 0 km/h
672 15-12-2008 14:22:19 1 C 4.93 g/m*3 1 C 0 km/h
673 15-12-2008 14:34:20 1 C 4.93 g/m*3 1 C 0 km/h
674 15-12-2008 14:46:19 1.1 C 4.96 g/m*3 1.1 C 0 km/h
675 15-12-2008 14:58:19 1.1 C 4.96 g/m*3 1.1 C 0 km/h
Sensor: Nr:Datum:Temp:Abs-Feuchte:Windchill:Wind:
Aussen-T/F 676 15-12-2008 15:10:19 1.1 C 4.96 g/m*3 1.1 C 0 km/h
677 15-12-2008 15:22:19 1 C 4.93 g/m*3 1 C 0 km/h
678 15-12-2008 15:34:19 1 C 4.93 g/m*3 1 C 0 km/h
679 15-12-2008 15:46:18 0.9 C 4.9 g/m*3 0.9 C 0 km/h
680 15-12-2008 15:58:18 0.7 C 4.83 g/m*3 0.7 C 0 km/h
681 15-12-2008 16:10:19 0.7 C 4.83 g/m*3 0.7 C 0 km/h
682 15-12-2008 16:22:19 0.5 C 4.76 g/m*3 0.5 C 0 km/h
683 15-12-2008 16:34:18 0.2 C 4.67 g/m*3 0.2 C 0 km/h
684 15-12-2008 16:46:18 0.2 C 4.67 g/m*3 0.2 C 0 km/h
685 15-12-2008 16:58:18 0 C 4.6 g/m*3 0 C 0 km/h
686 15-12-2008 17:10:18 -0.1 C 4.57 g/m*3 -0.1 C 0 km/h
687 15-12-2008 17:22:18 0 C 4.6 g/m*3 0 C 0 km/h
688 15-12-2008 17:34:17 0.3 C 4.7 g/m*3 0.3 C 0 km/h
689 15-12-2008 17:46:18 0.3 C 4.7 g/m*3 0.3 C 0 km/h
690 15-12-2008 17:58:18 0.2 C 4.67 g/m*3 0.2 C 0 km/h
691 15-12-2008 18:10:17 0.1 C 4.63 g/m*3 0.1 C 0 km/h
692 15-12-2008 18:22:17 0.1 C 4.63 g/m*3 0.1 C 0 km/h
693 15-12-2008 18:34:18 0.1 C 4.63 g/m*3 0.1 C 0 km/h
694 15-12-2008 18:46:17 0.2 C 4.67 g/m*3 0.2 C 0 km/h
695 15-12-2008 18:58:17 0.2 C 4.67 g/m*3 0.2 C 0 km/h
696 15-12-2008 19:10:17 0.3 C 4.7 g/m*3 0.3 C 0 km/h
697 15-12-2008 19:22:17 0.3 C 4.7 g/m*3 0.3 C 0 km/h
698 15-12-2008 19:34:16 0.4 C 4.73 g/m*3 0.4 C 0 km/h
699 15-12-2008 19:46:17 0.4 C 4.73 g/m*3 0.4 C 0 km/h
700 15-12-2008 19:58:17 0.4 C 4.73 g/m*3 0.4 C 0 km/h
Sensor: Nr:Datum:Temp:Abs-Feuchte:Windchill:Wind:
Aussen-T/F 701 15-12-2008 20:10:16 0.4 C 4.73 g/m*3 0.4 C 0 km/h
702 15-12-2008 20:22:16 0.4 C 4.73 g/m*3 0.4 C 0 km/h
703 15-12-2008 20:34:16 0.6 C 4.8 g/m*3 0.6 C 0 km/h
704 15-12-2008 20:46:16 0.6 C 4.8 g/m*3 0.6 C 0 km/h
705 15-12-2008 20:58:16 0.6 C 4.8 g/m*3 0.6 C 0 km/h
706 15-12-2008 21:10:15 0.6 C 4.8 g/m*3 0.6 C 0 km/h
707 15-12-2008 21:22:16 0.6 C 4.8 g/m*3 0.6 C 0 km/h
708 15-12-2008 21:34:16 0.5 C 4.76 g/m*3 0.5 C 0 km/h
709 15-12-2008 21:46:15 0.6 C 4.8 g/m*3 0.6 C 0 km/h
710 15-12-2008 21:58:15 0.6 C 4.8 g/m*3 0.6 C 0 km/h
711 15-12-2008 22:10:16 0.6 C 4.8 g/m*3 0.6 C 0 km/h
712 15-12-2008 22:23:15 0.6 C 4.8 g/m*3 0.6 C 0 km/h
713 15-12-2008 22:35:15 0.6 C 4.8 g/m*3 0.6 C 0 km/h
714 15-12-2008 22:47:15 0.6 C 4.8 g/m*3 0.6 C 0 km/h
715 15-12-2008 22:59:15 0.6 C 4.8 g/m*3 0.6 C 0 km/h
716 15-12-2008 23:11:15 0.6 C 4.8 g/m*3 0.6 C 0 km/h
717 15-12-2008 23:23:15 0.6 C 4.8 g/m*3 0.6 C 0 km/h
718 15-12-2008 23:35:15 0.6 C 4.8 g/m*3 0.6 C 0 km/h
719 15-12-2008 23:47:15 0.6 C 4.8 g/m*3 0.6 C 0 km/h
720 15-12-2008 23:59:15 0.6 C 4.8 g/m*3 0.6 C 0 km/h
721 16-12-2008 00:11:16 0.7 C 4.83 g/m*3 0.7 C 0 km/h
722 16-12-2008 00:23:16 0.7 C 4.83 g/m*3 0.7 C 0 km/h
723 16-12-2008 00:35:16 0.7 C 4.83 g/m*3 0.7 C 0 km/h
724 16-12-2008 00:47:16 0.6 C 4.8 g/m*3 0.6 C 0 km/h
725 16-12-2008 00:59:16 0.6 C 4.8 g/m*3 0.6 C 0 km/h
Sensor: Nr:Datum:Temp:Abs-Feuchte:Windchill:Wind:
Aussen-T/F 726 16-12-2008 01:11:16 0.6 C 4.8 g/m*3 0.6 C 0 km/h
727 16-12-2008 01:23:16 0.6 C 4.8 g/m*3 0.6 C 0 km/h
728 16-12-2008 01:35:16 0.6 C 4.8 g/m*3 0.6 C 0 km/h
729 16-12-2008 01:47:16 0.6 C 4.8 g/m*3 0.6 C 0 km/h
730 16-12-2008 01:59:16 0.6 C 4.8 g/m*3 0.6 C 0 km/h
731 16-12-2008 02:11:16 0.6 C 4.8 g/m*3 0.6 C 0 km/h
732 16-12-2008 02:23:16 0.6 C 4.8 g/m*3 0.6 C 0 km/h
733 16-12-2008 02:35:16 0.5 C 4.76 g/m*3 0.5 C 0 km/h
734 16-12-2008 02:47:16 0.5 C 4.76 g/m*3 0.5 C 0 km/h
735 16-12-2008 02:59:16 0.5 C 4.76 g/m*3 0.5 C 0 km/h
736 16-12-2008 03:11:16 0.4 C 4.73 g/m*3 0.4 C 0 km/h
737 16-12-2008 03:23:16 0.4 C 4.73 g/m*3 0.4 C 0 km/h
738 16-12-2008 03:35:16 0.3 C 4.7 g/m*3 0.3 C 0 km/h
739 16-12-2008 03:47:16 0.3 C 4.7 g/m*3 0.3 C 0 km/h
740 16-12-2008 03:59:17 0.3 C 4.7 g/m*3 0.3 C 0 km/h
741 16-12-2008 04:11:17 0.3 C 4.65 g/m*3 0.3 C 0 km/h
742 16-12-2008 04:23:17 0.3 C 4.65 g/m*3 0.3 C 0 km/h
743 16-12-2008 04:35:17 0.3 C 4.65 g/m*3 0.3 C 0 km/h
744 16-12-2008 04:47:17 0.2 C 4.62 g/m*3 0.2 C 0 km/h
745 16-12-2008 04:59:17 0.1 C 4.59 g/m*3 0.1 C 0 km/h
746 16-12-2008 05:11:17 0.2 C 4.62 g/m*3 0.2 C 0 km/h
747 16-12-2008 05:23:17 0.2 C 4.62 g/m*3 0.2 C 0 km/h
748 16-12-2008 05:35:17 0.2 C 4.62 g/m*3 0.2 C 0 km/h
749 16-12-2008 05:47:17 0.2 C 4.57 g/m*3 0.2 C 0 km/h
750 16-12-2008 05:59:17 0 C 4.51 g/m*3 0 C 0 km/h
Sensor: Nr:Datum:Temp:Abs-Feuchte:Windchill:Wind:
Aussen-T/F 751 16-12-2008 06:11:17 0 C 4.51 g/m*3 0 C 0 km/h
752 16-12-2008 06:23:17 0 C 4.51 g/m*3 0 C 0 km/h
753 16-12-2008 06:35:16 -0.1 C 4.47 g/m*3 -0.1 C 0 km/h
754 16-12-2008 06:47:15 -0.2 C 4.4 g/m*3 -0.2 C 0 km/h
755 16-12-2008 06:59:15 -0.2 C 4.4 g/m*3 -0.2 C 0 km/h
756 16-12-2008 07:11:16 -0.2 C 4.4 g/m*3 -0.2 C 0 km/h
757 16-12-2008 07:23:15 -0.2 C 4.4 g/m*3 -0.2 C 0 km/h
758 16-12-2008 07:35:15 -0.1 C 4.43 g/m*3 -0.1 C 0 km/h
759 16-12-2008 07:47:14 -0.1 C 4.43 g/m*3 -0.1 C 0 km/h
760 16-12-2008 07:59:14 -0.1 C 4.43 g/m*3 -0.1 C 0 km/h
761 16-12-2008 08:11:15 -0.1 C 4.43 g/m*3 -0.1 C 0 km/h
762 16-12-2008 08:23:15 -0.2 C 4.4 g/m*3 -0.2 C 0 km/h
763 16-12-2008 08:35:14 -0.3 C 4.37 g/m*3 -0.3 C 0 km/h
764 16-12-2008 08:47:15 -0.3 C 4.32 g/m*3 -0.3 C 0 km/h
765 16-12-2008 08:59:15 -0.3 C 4.32 g/m*3 -0.3 C 0 km/h
766 16-12-2008 09:11:14 -0.2 C 4.35 g/m*3 -0.2 C 0 km/h
767 16-12-2008 09:23:14 -0.2 C 4.35 g/m*3 -0.2 C 0 km/h
768 16-12-2008 09:35:14 0 C 4.41 g/m*3 0 C 0 km/h
769 16-12-2008 09:47:14 0 C 4.41 g/m*3 0 C 0 km/h
770 16-12-2008 09:59:14 0.1 C 4.44 g/m*3 0.1 C 0 km/h
771 16-12-2008 10:11:14 0 C 4.41 g/m*3 0 C 0 km/h
772 16-12-2008 10:23:13 0 C 4.36 g/m*3 0 C 0 km/h
773 16-12-2008 10:35:14 0 C 4.36 g/m*3 0 C 0 km/h
774 16-12-2008 10:47:13 0 C 4.36 g/m*3 0 C 0 km/h
775 16-12-2008 10:59:13 0 C 4.36 g/m*3 0 C 0 km/h
Sensor: Nr:Datum:Temp:Abs-Feuchte:Windchill:Wind:
Aussen-T/F 776 16-12-2008 11:11:13 0 C 4.31 g/m*3 0 C 0 km/h
777 16-12-2008 11:23:13 0.2 C 4.37 g/m*3 0.2 C 0 km/h
778 16-12-2008 11:35:13 0.2 C 4.37 g/m*3 0.2 C 0 km/h
779 16-12-2008 11:47:12 0.4 C 4.43 g/m*3 0.4 C 0 km/h
780 16-12-2008 11:59:12 0.6 C 4.49 g/m*3 0.6 C 0 km/h
781 16-12-2008 12:11:13 0.7 C 4.53 g/m*3 0.7 C 0 km/h
782 16-12-2008 12:23:13 0.7 C 4.53 g/m*3 0.7 C 0 km/h
783 16-12-2008 12:35:12 0.6 C 4.49 g/m*3 0.6 C 0 km/h
784 16-12-2008 12:47:12 0.6 C 4.49 g/m*3 0.6 C 0 km/h
785 16-12-2008 12:59:12 0.7 C 4.53 g/m*3 0.7 C 0 km/h
786 16-12-2008 13:11:12 0.7 C 4.53 g/m*3 0.7 C 0 km/h
787 16-12-2008 13:23:12 0.8 C 4.56 g/m*3 0.8 C 0 km/h
788 16-12-2008 13:35:11 0.8 C 4.56 g/m*3 0.8 C 0 km/h
789 16-12-2008 13:47:12 0.9 C 4.59 g/m*3 0.9 C 0 km/h
790 16-12-2008 13:59:12 0.8 C 4.56 g/m*3 0.8 C 0 km/h
791 16-12-2008 14:11:11 0.9 C 4.64 g/m*3 0.9 C 0 km/h
792 16-12-2008 14:23:11 1 C 4.62 g/m*3 1 C 0 km/h
793 16-12-2008 14:35:12 1 C 4.67 g/m*3 1 C 0 km/h
794 16-12-2008 14:47:11 1 C 4.62 g/m*3 1 C 0 km/h
795 16-12-2008 14:59:11 1 C 4.62 g/m*3 1 C 0 km/h
796 16-12-2008 15:11:11 0.9 C 4.64 g/m*3 0.9 C 0 km/h
797 16-12-2008 15:23:11 0.8 C 4.61 g/m*3 0.8 C 0 km/h
798 16-12-2008 15:35:11 0.8 C 4.61 g/m*3 0.8 C 0 km/h
799 16-12-2008 15:47:10 0.9 C 4.69 g/m*3 0.9 C 0 km/h
800 16-12-2008 15:59:10 0.8 C 4.66 g/m*3 0.8 C 0 km/h
Sensor: Nr:Datum:Temp:Abs-Feuchte:Windchill:Wind:
Aussen-T/F 801 16-12-2008 16:11:10 0.8 C 4.66 g/m*3 0.8 C 0 km/h
802 16-12-2008 16:23:11 0.7 C 4.63 g/m*3 0.7 C 0 km/h
803 16-12-2008 16:35:10 0.6 C 4.6 g/m*3 0.6 C 0 km/h
804 16-12-2008 16:47:10 0.7 C 4.63 g/m*3 0.7 C 0 km/h
805 16-12-2008 16:59:10 0.7 C 4.63 g/m*3 0.7 C 0 km/h
806 16-12-2008 17:11:10 0.7 C 4.63 g/m*3 0.7 C 0 km/h
807 16-12-2008 17:23:10 0.6 C 4.6 g/m*3 0.6 C 0 km/h
808 16-12-2008 17:35:10 0.7 C 4.68 g/m*3 0.7 C 0 km/h
809 16-12-2008 17:47:10 0.7 C 4.68 g/m*3 0.7 C 0 km/h
810 16-12-2008 17:59:10 0.6 C 4.65 g/m*3 0.6 C 0 km/h
811 16-12-2008 18:11:09 0.6 C 4.65 g/m*3 0.6 C 0 km/h
812 16-12-2008 18:23:09 0.5 C 4.61 g/m*3 0.5 C 0 km/h
813 16-12-2008 18:35:10 0.6 C 4.65 g/m*3 0.6 C 0 km/h
814 16-12-2008 18:47:09 0.6 C 4.65 g/m*3 0.6 C 0 km/h
815 16-12-2008 18:59:09 0.6 C 4.65 g/m*3 0.6 C 0 km/h
816 16-12-2008 19:11:09 0.5 C 4.61 g/m*3 0.5 C 0 km/h
817 16-12-2008 19:23:09 0.6 C 4.65 g/m*3 0.6 C 0 km/h
818 16-12-2008 19:35:08 0.6 C 4.65 g/m*3 0.6 C 0 km/h
819 16-12-2008 19:47:09 0.6 C 4.65 g/m*3 0.6 C 0 km/h
820 16-12-2008 19:59:10 0.6 C 4.65 g/m*3 0.6 C 0 km/h
821 16-12-2008 20:11:08 0.5 C 4.61 g/m*3 0.5 C 0 km/h
822 16-12-2008 20:23:08 0.6 C 4.65 g/m*3 0.6 C 0 km/h
823 16-12-2008 20:35:08 0.6 C 4.65 g/m*3 0.6 C 0 km/h
824 16-12-2008 20:47:08 0.5 C 4.61 g/m*3 0.5 C 0 km/h
825 16-12-2008 20:59:08 0.6 C 4.65 g/m*3 0.6 C 0 km/h
Sensor: Nr:Datum:Temp:Abs-Feuchte:Windchill:Wind:
Aussen-T/F 826 16-12-2008 21:11:08 0.6 C 4.65 g/m*3 0.6 C 0 km/h
827 16-12-2008 21:23:08 0.6 C 4.65 g/m*3 0.6 C 0 km/h
828 16-12-2008 21:35:07 0.6 C 4.65 g/m*3 0.6 C 0 km/h
829 16-12-2008 21:48:08 0.6 C 4.65 g/m*3 0.6 C 0 km/h
830 16-12-2008 22:00:08 0.5 C 4.61 g/m*3 0.5 C 0 km/h
831 16-12-2008 22:12:08 0.5 C 4.61 g/m*3 0.5 C 0 km/h
832 16-12-2008 22:24:08 0.5 C 4.61 g/m*3 0.5 C 0 km/h
833 16-12-2008 22:36:08 0.5 C 4.61 g/m*3 0.5 C 0 km/h
834 16-12-2008 22:48:08 0.5 C 4.61 g/m*3 0.5 C 0 km/h
835 16-12-2008 23:00:08 0.5 C 4.61 g/m*3 0.5 C 0 km/h
836 16-12-2008 23:12:08 0.5 C 4.61 g/m*3 0.5 C 0 km/h
837 16-12-2008 23:24:08 0.5 C 4.61 g/m*3 0.5 C 0 km/h
838 16-12-2008 23:36:08 0.5 C 4.61 g/m*3 0.5 C 0 km/h
839 16-12-2008 23:48:08 0.5 C 4.61 g/m*3 0.5 C 0 km/h
840 17-12-2008 00:00:09 0.5 C 4.61 g/m*3 0.5 C 0 km/h
841 17-12-2008 00:12:09 0.3 C 4.55 g/m*3 0.3 C 0 km/h
842 17-12-2008 00:24:09 0.4 C 4.58 g/m*3 0.4 C 0 km/h
843 17-12-2008 00:36:09 0.5 C 4.61 g/m*3 0.5 C 0 km/h
844 17-12-2008 00:48:09 0.3 C 4.55 g/m*3 0.3 C 0 km/h
845 17-12-2008 01:00:09 0.3 C 4.55 g/m*3 0.3 C 0 km/h
846 17-12-2008 01:12:09 0.3 C 4.55 g/m*3 0.3 C 0 km/h
847 17-12-2008 01:24:09 0.2 C 4.52 g/m*3 0.2 C 0 km/h
848 17-12-2008 01:36:09 0.1 C 4.49 g/m*3 0.1 C 0 km/h
849 17-12-2008 01:48:09 0.1 C 4.49 g/m*3 0.1 C 0 km/h
850 17-12-2008 02:00:09 0 C 4.46 g/m*3 0 C 0 km/h
Sensor: Nr:Datum:Temp:Abs-Feuchte:Windchill:Wind:
Aussen-T/F 851 17-12-2008 02:12:09 0 C 4.46 g/m*3 0 C 0 km/h
852 17-12-2008 02:24:09 -0.1 C 4.43 g/m*3 -0.1 C 0 km/h
853 17-12-2008 02:36:09 -0.1 C 4.43 g/m*3 -0.1 C 0 km/h
854 17-12-2008 02:48:09 -0.2 C 4.4 g/m*3 -0.2 C 0 km/h
855 17-12-2008 03:00:09 -0.2 C 4.35 g/m*3 -0.2 C 0 km/h
856 17-12-2008 03:12:09 -0.3 C 4.32 g/m*3 -0.3 C 0 km/h
857 17-12-2008 03:24:09 -0.2 C 4.35 g/m*3 -0.2 C 0 km/h
858 17-12-2008 03:36:09 -0.3 C 4.32 g/m*3 -0.3 C 0 km/h
859 17-12-2008 03:48:09 -0.4 C 4.29 g/m*3 -0.4 C 0 km/h
860 17-12-2008 04:00:10 -0.4 C 4.29 g/m*3 -0.4 C 0 km/h
861 17-12-2008 04:12:10 -0.4 C 4.29 g/m*3 -0.4 C 0 km/h
862 17-12-2008 04:24:10 -0.5 C 4.26 g/m*3 -0.5 C 0 km/h
863 17-12-2008 04:36:10 -0.5 C 4.21 g/m*3 -0.5 C 0 km/h
864 17-12-2008 04:48:10 -0.6 C 4.18 g/m*3 -0.6 C 0 km/h
865 17-12-2008 05:00:10 -0.6 C 4.18 g/m*3 -0.6 C 0 km/h
866 17-12-2008 05:12:10 -0.6 C 4.18 g/m*3 -0.6 C 0 km/h
867 17-12-2008 05:24:10 -0.7 C 4.15 g/m*3 -0.7 C 0 km/h
868 17-12-2008 05:36:10 -0.8 C 4.13 g/m*3 -0.8 C 0 km/h
869 17-12-2008 05:48:10 -1 C 4.07 g/m*3 -1 C 0 km/h
870 17-12-2008 06:00:10 -1.1 C 4 g/m*3 -1.1 C 0 km/h
871 17-12-2008 06:12:10 -1.2 C 3.97 g/m*3 -1.2 C 0 km/h
872 17-12-2008 06:24:10 -1.2 C 3.97 g/m*3 -1.2 C 0 km/h
873 17-12-2008 06:36:10 -1.2 C 3.97 g/m*3 -1.2 C 0 km/h
874 17-12-2008 06:48:10 -1.2 C 3.92 g/m*3 -1.2 C 0 km/h
875 17-12-2008 07:00:10 -1.2 C 3.92 g/m*3 -1.2 C 0 km/h
Sensor: Nr:Datum:Temp:Abs-Feuchte:Windchill:Wind:
Aussen-T/F 876 17-12-2008 07:12:09 -1.2 C 3.92 g/m*3 -1.2 C 0 km/h
877 17-12-2008 07:24:08 -1.2 C 3.88 g/m*3 -1.2 C 0 km/h
878 17-12-2008 07:36:08 -1.2 C 3.88 g/m*3 -1.2 C 0 km/h
879 17-12-2008 07:48:08 -1.1 C 3.86 g/m*3 -1.1 C 0 km/h
880 17-12-2008 08:00:08 -1 C 3.89 g/m*3 -1 C 0 km/h
881 17-12-2008 08:12:08 -1 C 3.89 g/m*3 -1 C 0 km/h
882 17-12-2008 08:24:08 -1.1 C 3.82 g/m*3 -1.1 C 0 km/h
883 17-12-2008 08:36:08 -1.2 C 3.74 g/m*3 -1.2 C 0 km/h
884 17-12-2008 08:48:08 -1.2 C 3.74 g/m*3 -1.2 C 0 km/h
885 17-12-2008 09:00:08 -1.1 C 3.82 g/m*3 -1.1 C 0 km/h
886 17-12-2008 09:12:08 -1.1 C 3.77 g/m*3 -1.1 C 0 km/h
887 17-12-2008 09:24:07 -0.9 C 3.82 g/m*3 -0.9 C 0 km/h
888 17-12-2008 09:36:07 -1 C 3.8 g/m*3 -1 C 0 km/h
889 17-12-2008 09:48:07 -0.9 C 3.78 g/m*3 -0.9 C 0 km/h
890 17-12-2008 10:00:07 -0.9 C 3.78 g/m*3 -0.9 C 0 km/h
891 17-12-2008 10:12:07 -0.7 C 3.78 g/m*3 -0.7 C 0 km/h
892 17-12-2008 10:24:06 -0.7 C 3.78 g/m*3 -0.7 C 0 km/h
893 17-12-2008 10:36:07 -0.6 C 3.76 g/m*3 -0.6 C 0 km/h
894 17-12-2008 10:48:06 -0.4 C 3.82 g/m*3 -0.4 C 0 km/h
895 17-12-2008 11:00:06 -0.3 C 3.8 g/m*3 -0.3 C 0 km/h
896 17-12-2008 11:12:06 -0.1 C 3.85 g/m*3 -0.1 C 0 km/h
897 17-12-2008 11:24:07 0.1 C 3.85 g/m*3 0.1 C 0 km/h
898 17-12-2008 11:36:06 0.1 C 3.81 g/m*3 0.1 C 0 km/h
899 17-12-2008 11:48:06 0 C 3.73 g/m*3 0 C 0 km/h
900 17-12-2008 12:00:06 0.1 C 3.76 g/m*3 0.1 C 0 km/h
Sensor: Nr:Datum:Temp:Abs-Feuchte:Windchill:Wind:
Aussen-T/F 901 17-12-2008 12:12:06 0.1 C 3.76 g/m*3 0.1 C 0 km/h
902 17-12-2008 12:24:06 0.2 C 3.78 g/m*3 0.2 C 0 km/h
903 17-12-2008 12:36:05 0.2 C 3.78 g/m*3 0.2 C 0 km/h
904 17-12-2008 12:48:06 0.3 C 3.81 g/m*3 0.3 C 0 km/h
905 17-12-2008 13:00:07 0.4 C 3.88 g/m*3 0.4 C 0 km/h
906 17-12-2008 13:12:05 0.5 C 3.86 g/m*3 0.5 C 0 km/h
907 17-12-2008 13:24:05 0.5 C 3.91 g/m*3 0.5 C 0 km/h
908 17-12-2008 13:36:05 0.6 C 3.94 g/m*3 0.6 C 0 km/h
909 17-12-2008 13:48:05 0.6 C 3.94 g/m*3 0.6 C 0 km/h
910 17-12-2008 14:00:05 0.6 C 3.99 g/m*3 0.6 C 0 km/h
911 17-12-2008 14:12:05 0.4 C 4.03 g/m*3 0.4 C 0 km/h
912 17-12-2008 14:24:04 0.3 C 4.16 g/m*3 0.3 C 0 km/h
913 17-12-2008 14:36:05 0.2 C 4.22 g/m*3 0.2 C 0 km/h
914 17-12-2008 14:48:04 0.1 C 4.29 g/m*3 0.1 C 0 km/h
915 17-12-2008 15:00:04 0.1 C 4.34 g/m*3 0.1 C 0 km/h
916 17-12-2008 15:12:05 0.1 C 4.39 g/m*3 0.1 C 0 km/h
917 17-12-2008 15:24:04 0.1 C 4.44 g/m*3 0.1 C 0 km/h
918 17-12-2008 15:36:04 0.1 C 4.44 g/m*3 0.1 C 0 km/h
919 17-12-2008 15:48:04 0.2 C 4.47 g/m*3 0.2 C 0 km/h
920 17-12-2008 16:00:04 0.2 C 4.52 g/m*3 0.2 C 0 km/h
921 17-12-2008 16:12:04 0.2 C 4.52 g/m*3 0.2 C 0 km/h
922 17-12-2008 16:24:03 0.1 C 4.49 g/m*3 0.1 C 0 km/h
923 17-12-2008 16:36:03 0 C 4.51 g/m*3 0 C 0 km/h
924 17-12-2008 16:48:03 0 C 4.51 g/m*3 0 C 0 km/h
925 17-12-2008 17:00:03 0 C 4.55 g/m*3 0 C 0 km/h
Sensor: Nr:Datum:Temp:Abs-Feuchte:Windchill:Wind:
Aussen-T/F 926 17-12-2008 17:12:03 0.1 C 4.59 g/m*3 0.1 C 0 km/h
927 17-12-2008 17:24:03 0.1 C 4.59 g/m*3 0.1 C 0 km/h
928 17-12-2008 17:36:03 0.1 C 4.59 g/m*3 0.1 C 0 km/h
929 17-12-2008 17:48:03 0.1 C 4.59 g/m*3 0.1 C 0 km/h
930 17-12-2008 18:00:03 0.2 C 4.67 g/m*3 0.2 C 0 km/h
931 17-12-2008 18:12:02 0.2 C 4.67 g/m*3 0.2 C 0 km/h
932 17-12-2008 18:24:03 0.3 C 4.7 g/m*3 0.3 C 0 km/h
933 17-12-2008 18:36:02 0.3 C 4.7 g/m*3 0.3 C 0 km/h
934 17-12-2008 18:48:02 0.4 C 4.73 g/m*3 0.4 C 0 km/h
935 17-12-2008 19:00:02 0.5 C 4.76 g/m*3 0.5 C 0 km/h
936 17-12-2008 19:12:02 0.5 C 4.76 g/m*3 0.5 C 0 km/h
937 17-12-2008 19:24:02 0.5 C 4.76 g/m*3 0.5 C 0 km/h
938 17-12-2008 19:36:02 0.5 C 4.76 g/m*3 0.5 C 0 km/h
939 17-12-2008 19:48:02 0.5 C 4.76 g/m*3 0.5 C 0 km/h
940 17-12-2008 20:00:02 0.5 C 4.76 g/m*3 0.5 C 0 km/h
941 17-12-2008 20:12:01 0.6 C 4.8 g/m*3 0.6 C 0 km/h
942 17-12-2008 20:24:01 0.6 C 4.8 g/m*3 0.6 C 0 km/h
943 17-12-2008 20:36:01 0.6 C 4.8 g/m*3 0.6 C 0 km/h
944 17-12-2008 20:48:02 0.6 C 4.8 g/m*3 0.6 C 0 km/h
945 17-12-2008 21:00:02 0.7 C 4.83 g/m*3 0.7 C 0 km/h
946 17-12-2008 21:12:01 0.7 C 4.83 g/m*3 0.7 C 0 km/h
947 17-12-2008 21:24:00 0.7 C 4.83 g/m*3 0.7 C 0 km/h
948 17-12-2008 21:36:01 0.7 C 4.83 g/m*3 0.7 C 0 km/h
949 17-12-2008 21:49:03 0.8 C 4.86 g/m*3 0.8 C 0 km/h
950 17-12-2008 22:01:03 0.8 C 4.86 g/m*3 0.8 C 0 km/h
Sensor: Nr:Datum:Temp:Abs-Feuchte:Windchill:Wind:
Aussen-T/F 951 17-12-2008 22:13:03 0.8 C 4.86 g/m*3 0.8 C 0 km/h
952 17-12-2008 22:25:03 0.8 C 4.86 g/m*3 0.8 C 0 km/h
953 17-12-2008 22:37:03 0.9 C 4.9 g/m*3 0.9 C 0 km/h
954 17-12-2008 22:49:03 0.9 C 4.9 g/m*3 0.9 C 0 km/h
955 17-12-2008 23:01:03 1 C 4.93 g/m*3 1 C 0 km/h
956 17-12-2008 23:13:03 1 C 4.93 g/m*3 1 C 0 km/h
957 17-12-2008 23:25:03 1 C 4.93 g/m*3 1 C 0 km/h
958 17-12-2008 23:37:03 1 C 4.93 g/m*3 1 C 0 km/h
959 17-12-2008 23:49:03 1 C 4.93 g/m*3 1 C 0 km/h
960 18-12-2008 00:01:03 1 C 4.93 g/m*3 1 C 0 km/h
961 18-12-2008 00:13:03 1 C 4.93 g/m*3 1 C 0 km/h
962 18-12-2008 00:25:03 1.1 C 4.96 g/m*3 1.1 C 0 km/h
963 18-12-2008 00:37:03 1.1 C 4.96 g/m*3 1.1 C 0 km/h
964 18-12-2008 00:49:03 1.1 C 4.96 g/m*3 1.1 C 0 km/h
965 18-12-2008 01:01:03 1.2 C 5 g/m*3 1.2 C 0 km/h
966 18-12-2008 01:13:03 1.2 C 5 g/m*3 1.2 C 0 km/h
967 18-12-2008 01:25:03 1.2 C 5 g/m*3 1.2 C 0 km/h
968 18-12-2008 01:37:04 1.2 C 5 g/m*3 1.2 C 0 km/h
969 18-12-2008 01:49:04 1.2 C 5 g/m*3 1.2 C 0 km/h
970 18-12-2008 02:01:04 1.2 C 5 g/m*3 1.2 C 0 km/h
971 18-12-2008 02:13:04 1.3 C 5.03 g/m*3 1.3 C 0 km/h
972 18-12-2008 02:25:04 1.3 C 5.03 g/m*3 1.3 C 0 km/h
973 18-12-2008 02:37:04 1.3 C 5.03 g/m*3 1.3 C 0 km/h
974 18-12-2008 02:49:04 1.3 C 5.03 g/m*3 1.3 C 0 km/h
975 18-12-2008 03:01:04 1.3 C 5.03 g/m*3 1.3 C 0 km/h
Sensor: Nr:Datum:Temp:Abs-Feuchte:Windchill:Wind:
Aussen-T/F 976 18-12-2008 03:13:04 1.4 C 5.07 g/m*3 1.4 C 0 km/h
977 18-12-2008 03:25:04 1.4 C 5.07 g/m*3 1.4 C 0 km/h
978 18-12-2008 03:37:04 1.4 C 5.07 g/m*3 1.4 C 0 km/h
979 18-12-2008 03:49:04 1.4 C 5.07 g/m*3 1.4 C 0 km/h
980 18-12-2008 04:01:04 1.5 C 5.1 g/m*3 1.5 C 0 km/h
981 18-12-2008 04:13:04 1.5 C 5.1 g/m*3 1.5 C 0 km/h
982 18-12-2008 04:25:04 1.5 C 5.1 g/m*3 1.5 C 0 km/h
983 18-12-2008 04:37:04 1.5 C 5.1 g/m*3 1.5 C 0 km/h
984 18-12-2008 04:49:04 1.5 C 5.1 g/m*3 1.5 C 0 km/h
985 18-12-2008 05:01:04 1.5 C 5.1 g/m*3 1.5 C 0 km/h
986 18-12-2008 05:13:04 1.5 C 5.1 g/m*3 1.5 C 0 km/h
987 18-12-2008 05:25:05 1.6 C 5.14 g/m*3 1.6 C 0 km/h
988 18-12-2008 05:37:05 1.6 C 5.14 g/m*3 1.6 C 0 km/h
989 18-12-2008 05:49:05 1.6 C 5.14 g/m*3 1.6 C 0 km/h
990 18-12-2008 06:01:02 1.6 C 5.14 g/m*3 1.6 C 0 km/h
991 18-12-2008 06:13:02 1.6 C 5.14 g/m*3 1.6 C 0 km/h
992 18-12-2008 06:25:03 1.6 C 5.14 g/m*3 1.6 C 0 km/h
993 18-12-2008 06:37:02 1.6 C 5.14 g/m*3 1.6 C 0 km/h
994 18-12-2008 06:49:02 1.6 C 5.14 g/m*3 1.6 C 0 km/h
995 18-12-2008 07:01:02 1.6 C 5.14 g/m*3 1.6 C 0 km/h
996 18-12-2008 07:13:02 1.6 C 5.14 g/m*3 1.6 C 0 km/h
997 18-12-2008 07:25:02 1.6 C 5.14 g/m*3 1.6 C 0 km/h
998 18-12-2008 07:37:02 1.6 C 5.14 g/m*3 1.6 C 0 km/h
999 18-12-2008 07:49:02 1.7 C 5.17 g/m*3 1.7 C 0 km/h
1000 18-12-2008 08:01:02 1.7 C 5.17 g/m*3 1.7 C 0 km/h
Sensor: Nr:Datum:Temp:Abs-Feuchte:Windchill:Wind:
Aussen-T/F 1001 18-12-2008 08:13:02 1.7 C 5.17 g/m*3 1.7 C 0 km/h
1002 18-12-2008 08:25:01 1.7 C 5.17 g/m*3 1.7 C 0 km/h
1003 18-12-2008 08:37:02 1.7 C 5.17 g/m*3 1.7 C 0 km/h
1004 18-12-2008 08:49:01 1.7 C 5.17 g/m*3 1.7 C 0 km/h
1005 18-12-2008 09:01:01 1.8 C 5.21 g/m*3 1.8 C 0 km/h
1006 18-12-2008 09:13:01 1.8 C 5.21 g/m*3 1.8 C 0 km/h
1007 18-12-2008 09:25:01 1.9 C 5.24 g/m*3 1.9 C 0 km/h
1008 18-12-2008 09:37:01 1.9 C 5.24 g/m*3 1.9 C 0 km/h
1009 18-12-2008 09:49:00 2 C 5.22 g/m*3 2 C 0 km/h
1010 18-12-2008 10:01:01 2.1 C 5.26 g/m*3 2.1 C 0 km/h
1011 18-12-2008 10:13:01 2 C 5.17 g/m*3 2 C 0 km/h
1012 18-12-2008 10:25:00 2.2 C 5.24 g/m*3 2.2 C 0 km/h
1013 18-12-2008 10:37:00 2.4 C 5.31 g/m*3 2.4 C 0 km/h
1014 18-12-2008 10:49:00 2.5 C 5.29 g/m*3 2.5 C 0 km/h
1015 18-12-2008 11:01:00 2.5 C 5.23 g/m*3 2.5 C 0 km/h
1016 18-12-2008 11:13:00 2.6 C 5.21 g/m*3 2.6 C 0 km/h
1017 18-12-2008 11:25:00 2.7 C 5.13 g/m*3 2.7 C 0 km/h
1018 18-12-2008 11:36:59 2.7 C 5.07 g/m*3 2.7 C 0 km/h
1019 18-12-2008 11:49:00 2.7 C 5.01 g/m*3 2.7 C 0 km/h
1020 18-12-2008 12:01:59 2.6 C 4.92 g/m*3 2.6 C 0 km/h
1021 18-12-2008 12:13:59 2.5 C 4.89 g/m*3 2.5 C 0 km/h
1022 18-12-2008 12:25:00 2.6 C 4.92 g/m*3 2.6 C 0 km/h
1023 18-12-2008 12:37:59 2.6 C 4.86 g/m*3 2.6 C 0 km/h
1024 18-12-2008 12:49:59 2.7 C 4.84 g/m*3 2.7 C 0 km/h
1025 18-12-2008 13:01:59 2.7 C 4.72 g/m*3 2.7 C 0 km/h
Sensor: Nr:Datum:Temp:Abs-Feuchte:Windchill:Wind:
Aussen-T/F 1026 18-12-2008 13:13:59 2.5 C 4.6 g/m*3 2.5 C 0 km/h
1027 18-12-2008 13:25:59 2.5 C 4.66 g/m*3 2.5 C 0 km/h
1028 18-12-2008 13:37:58 2.6 C 4.63 g/m*3 2.6 C 0 km/h
1029 18-12-2008 13:49:59 2.8 C 4.63 g/m*3 2.8 C 0 km/h
1030 18-12-2008 14:01:58 3 C 4.58 g/m*3 3 C 0 km/h
1031 18-12-2008 14:13:58 3.1 C 4.55 g/m*3 3.1 C 0 km/h
1032 18-12-2008 14:25:58 3.1 C 4.55 g/m*3 3.1 C 0 km/h
1033 18-12-2008 14:37:58 3.1 C 4.61 g/m*3 3.1 C 0 km/h
1034 18-12-2008 14:49:58 3.1 C 4.61 g/m*3 3.1 C 0 km/h
1035 18-12-2008 15:01:58 3 C 4.52 g/m*3 3 C 0 km/h
1036 18-12-2008 15:13:58 2.9 C 4.55 g/m*3 2.9 C 0 km/h
1037 18-12-2008 15:25:57 2.9 C 4.61 g/m*3 2.9 C 0 km/h
1038 18-12-2008 15:37:58 3 C 4.64 g/m*3 3 C 0 km/h
1039 18-12-2008 15:49:57 3 C 4.64 g/m*3 3 C 0 km/h
1040 18-12-2008 16:01:57 2.9 C 4.72 g/m*3 2.9 C 0 km/h
1041 18-12-2008 16:13:57 2.9 C 4.72 g/m*3 2.9 C 0 km/h
1042 18-12-2008 16:25:57 2.8 C 4.69 g/m*3 2.8 C 0 km/h
1043 18-12-2008 16:37:57 2.7 C 4.72 g/m*3 2.7 C 0 km/h
1044 18-12-2008 16:49:57 2.7 C 4.78 g/m*3 2.7 C 0 km/h
1045 18-12-2008 17:01:56 2.6 C 4.75 g/m*3 2.6 C 0 km/h
1046 18-12-2008 17:13:56 2.5 C 4.77 g/m*3 2.5 C 0 km/h
1047 18-12-2008 17:25:57 2.4 C 4.85 g/m*3 2.4 C 0 km/h
1048 18-12-2008 17:37:56 2.3 C 4.88 g/m*3 2.3 C 0 km/h
1049 18-12-2008 17:49:57 2.3 C 4.93 g/m*3 2.3 C 0 km/h
1050 18-12-2008 18:01:56 2.3 C 4.93 g/m*3 2.3 C 0 km/h
Sensor: Nr:Datum:Temp:Abs-Feuchte:Windchill:Wind:
Aussen-T/F 1051 18-12-2008 18:13:56 2.3 C 4.99 g/m*3 2.3 C 0 km/h
1052 18-12-2008 18:25:56 2.3 C 4.99 g/m*3 2.3 C 0 km/h
1053 18-12-2008 18:37:55 2.3 C 4.99 g/m*3 2.3 C 0 km/h
1054 18-12-2008 18:49:56 2.4 C 5.02 g/m*3 2.4 C 0 km/h
1055 18-12-2008 19:01:55 2.5 C 5.06 g/m*3 2.5 C 0 km/h
1056 18-12-2008 19:13:55 2.5 C 5.06 g/m*3 2.5 C 0 km/h
1057 18-12-2008 19:25:55 2.5 C 5.06 g/m*3 2.5 C 0 km/h
1058 18-12-2008 19:37:56 2.6 C 5.09 g/m*3 2.6 C 0 km/h
1059 18-12-2008 19:49:55 2.7 C 5.13 g/m*3 2.7 C 0 km/h
1060 18-12-2008 20:01:55 2.6 C 5.09 g/m*3 2.6 C 0 km/h
1061 18-12-2008 20:13:55 2.6 C 5.09 g/m*3 2.6 C 0 km/h
1062 18-12-2008 20:25:55 2.5 C 5.12 g/m*3 2.5 C 0 km/h
1063 18-12-2008 20:37:55 2.5 C 5.12 g/m*3 2.5 C 0 km/h
1064 18-12-2008 20:49:54 2.5 C 5.12 g/m*3 2.5 C 0 km/h
1065 18-12-2008 21:01:54 2.6 C 5.15 g/m*3 2.6 C 0 km/h
1066 18-12-2008 21:13:54 2.6 C 5.15 g/m*3 2.6 C 0 km/h
1067 18-12-2008 21:25:55 2.6 C 5.15 g/m*3 2.6 C 0 km/h
1068 18-12-2008 21:37:54 2.7 C 5.13 g/m*3 2.7 C 0 km/h
1069 18-12-2008 21:49:54 2.8 C 5.1 g/m*3 2.8 C 0 km/h
1070 18-12-2008 22:01:54 2.8 C 5.04 g/m*3 2.8 C 0 km/h
1071 18-12-2008 22:13:54 2.9 C 5.02 g/m*3 2.9 C 0 km/h
1072 18-12-2008 22:26:55 2.8 C 4.99 g/m*3 2.8 C 0 km/h
1073 18-12-2008 22:38:55 2.8 C 4.99 g/m*3 2.8 C 0 km/h
1074 18-12-2008 22:50:55 2.7 C 5.01 g/m*3 2.7 C 0 km/h
1075 18-12-2008 23:02:55 2.7 C 5.07 g/m*3 2.7 C 0 km/h
Sensor: Nr:Datum:Temp:Abs-Feuchte:Windchill:Wind:
Aussen-T/F 1076 18-12-2008 23:14:55 2.5 C 5.12 g/m*3 2.5 C 0 km/h
1077 18-12-2008 23:26:55 2.6 C 5.21 g/m*3 2.6 C 0 km/h
1078 18-12-2008 23:38:55 2.6 C 5.21 g/m*3 2.6 C 0 km/h
1079 18-12-2008 23:50:55 2.6 C 5.21 g/m*3 2.6 C 0 km/h
1080 19-12-2008 00:02:55 2.7 C 5.24 g/m*3 2.7 C 0 km/h
1081 19-12-2008 00:14:55 2.8 C 5.28 g/m*3 2.8 C 0 km/h
1082 19-12-2008 00:26:55 2.9 C 5.26 g/m*3 2.9 C 0 km/h
1083 19-12-2008 00:38:55 2.9 C 5.26 g/m*3 2.9 C 0 km/h
1084 19-12-2008 00:50:55 2.8 C 5.22 g/m*3 2.8 C 0 km/h
1085 19-12-2008 01:02:55 2.8 C 5.22 g/m*3 2.8 C 0 km/h
1086 19-12-2008 01:14:55 2.9 C 5.26 g/m*3 2.9 C 0 km/h
1087 19-12-2008 01:26:55 3 C 5.23 g/m*3 3 C 0 km/h
1088 19-12-2008 01:38:55 3.1 C 5.27 g/m*3 3.1 C 0 km/h
1089 19-12-2008 01:50:56 3.2 C 5.3 g/m*3 3.2 C 0 km/h
1090 19-12-2008 02:02:56 3.3 C 5.34 g/m*3 3.3 C 0 km/h
1091 19-12-2008 02:14:56 3.3 C 5.28 g/m*3 3.3 C 0 km/h
1092 19-12-2008 02:26:56 3.5 C 5.35 g/m*3 3.5 C 0 km/h
1093 19-12-2008 02:38:56 3.5 C 5.35 g/m*3 3.5 C 0 km/h
1094 19-12-2008 02:50:56 3.6 C 5.39 g/m*3 3.6 C 0 km/h
1095 19-12-2008 03:02:56 3.5 C 5.35 g/m*3 3.5 C 0 km/h
1096 19-12-2008 03:14:56 3.6 C 5.32 g/m*3 3.6 C 0 km/h
1097 19-12-2008 03:26:56 3.6 C 5.32 g/m*3 3.6 C 0 km/h
1098 19-12-2008 03:38:56 3.5 C 5.29 g/m*3 3.5 C 0 km/h
1099 19-12-2008 03:50:56 3.4 C 5.25 g/m*3 3.4 C 0 km/h
1100 19-12-2008 04:02:56 3.4 C 5.31 g/m*3 3.4 C 0 km/h
Sensor: Nr:Datum:Temp:Abs-Feuchte:Windchill:Wind:
Aussen-T/F 1101 19-12-2008 04:14:56 3.4 C 5.31 g/m*3 3.4 C 0 km/h
1102 19-12-2008 04:26:56 3.5 C 5.35 g/m*3 3.5 C 0 km/h
1103 19-12-2008 04:38:56 3.4 C 5.37 g/m*3 3.4 C 0 km/h
1104 19-12-2008 04:50:56 3.2 C 5.36 g/m*3 3.2 C 0 km/h
1105 19-12-2008 05:02:56 3.2 C 5.42 g/m*3 3.2 C 0 km/h
1106 19-12-2008 05:14:56 3.3 C 5.52 g/m*3 3.3 C 0 km/h
1107 19-12-2008 05:26:56 3.3 C 5.58 g/m*3 3.3 C 0 km/h
1108 19-12-2008 05:38:57 3.3 C 5.64 g/m*3 3.3 C 0 km/h
1109 19-12-2008 05:50:57 3.4 C 5.68 g/m*3 3.4 C 0 km/h
1110 19-12-2008 06:02:57 3.4 C 5.68 g/m*3 3.4 C 0 km/h
1111 19-12-2008 06:14:57 3.4 C 5.68 g/m*3 3.4 C 0 km/h
1112 19-12-2008 06:26:57 3.4 C 5.68 g/m*3 3.4 C 0 km/h
1113 19-12-2008 06:38:57 3.5 C 5.78 g/m*3 3.5 C 0 km/h
1114 19-12-2008 06:50:55 3.5 C 5.78 g/m*3 3.5 C 0 km/h
1115 19-12-2008 07:02:55 3.6 C 5.82 g/m*3 3.6 C 0 km/h
1116 19-12-2008 07:14:54 3.6 C 5.88 g/m*3 3.6 C 0 km/h
1117 19-12-2008 07:26:54 3.7 C 5.92 g/m*3 3.7 C 0 km/h
1118 19-12-2008 07:38:54 3.8 C 5.96 g/m*3 3.8 C 0 km/h
1119 19-12-2008 07:50:54 3.9 C 6 g/m*3 3.9 C 0 km/h
1120 19-12-2008 08:02:53 3.8 C 5.96 g/m*3 3.8 C 0 km/h
1121 19-12-2008 08:14:54 4 C 6.04 g/m*3 4 C 0 km/h
1122 19-12-2008 08:26:54 4.2 C 6.06 g/m*3 4.2 C 0 km/h
1123 19-12-2008 08:38:54 4.3 C 6.1 g/m*3 4.3 C 0 km/h
1124 19-12-2008 08:50:53 4.3 C 6.1 g/m*3 4.3 C 0 km/h
1125 19-12-2008 09:02:54 4.3 C 6.1 g/m*3 4.3 C 0 km/h
Sensor: Nr:Datum:Temp:Abs-Feuchte:Windchill:Wind:
Aussen-T/F 1126 19-12-2008 09:14:53 4.4 C 6.14 g/m*3 4.4 C 0 km/h
1127 19-12-2008 09:26:53 4.5 C 6.18 g/m*3 4.5 C 0 km/h
1128 19-12-2008 09:38:53 4.6 C 6.22 g/m*3 4.6 C 0 km/h
1129 19-12-2008 09:50:53 4.7 C 6.19 g/m*3 4.7 C 0 km/h
1130 19-12-2008 10:02:53 4.8 C 6.24 g/m*3 4.8 C 0 km/h
1131 19-12-2008 10:14:52 5 C 6.25 g/m*3 5 C 0 km/h
1132 19-12-2008 10:26:52 5 C 6.18 g/m*3 5 C 0 km/h
1133 19-12-2008 10:38:52 5.2 C 6.27 g/m*3 5.2 C 0 km/h
1134 19-12-2008 10:50:52 5.4 C 6.28 g/m*3 5.4 C 0 km/h
1135 19-12-2008 11:02:52 5.3 C 6.17 g/m*3 5.3 C 0 km/h
1136 19-12-2008 11:14:53 5.4 C 6.21 g/m*3 5.4 C 0 km/h
1137 19-12-2008 11:26:53 5.6 C 6.29 g/m*3 5.6 C 0 km/h
1138 19-12-2008 11:38:52 5.8 C 6.02 g/m*3 5.8 C 0 km/h
1139 19-12-2008 11:50:52 5.9 C 5.91 g/m*3 5.9 C 0 km/h
1140 19-12-2008 12:02:52 6.1 C 5.7 g/m*3 6.1 C 0 km/h
1141 19-12-2008 12:14:52 6.5 C 5.77 g/m*3 6.5 C 0 km/h
1142 19-12-2008 12:26:52 6.7 C 5.24 g/m*3 6.7 C 0 km/h
1143 19-12-2008 12:38:51 6.8 C 5.05 g/m*3 6.8 C 0 km/h
1144 19-12-2008 12:50:51 6.8 C 5.2 g/m*3 6.8 C 0 km/h
1145 19-12-2008 13:02:51 6.5 C 5.1 g/m*3 6.5 C 0 km/h
1146 19-12-2008 13:14:51 6.6 C 5.21 g/m*3 6.6 C 0 km/h
1147 19-12-2008 13:26:51 6.9 C 5.16 g/m*3 6.9 C 0 km/h
1148 19-12-2008 13:38:51 7 C 5.11 g/m*3 7 C 0 km/h
1149 19-12-2008 13:50:51 6.5 C 5.02 g/m*3 6.5 C 0 km/h
1150 19-12-2008 14:02:51 6.1 C 4.89 g/m*3 6.1 C 0 km/h
Sensor: Nr:Datum:Temp:Abs-Feuchte:Windchill:Wind:
Aussen-T/F 1151 19-12-2008 14:14:50 5.8 C 4.87 g/m*3 5.8 C 0 km/h
1152 19-12-2008 14:26:50 6.3 C 4.96 g/m*3 6.3 C 0 km/h
1153 19-12-2008 14:38:51 6.1 C 4.82 g/m*3 6.1 C 0 km/h
1154 19-12-2008 14:50:50 6.2 C 4.78 g/m*3 6.2 C 0 km/h
1155 19-12-2008 15:02:50 6.6 C 4.76 g/m*3 6.6 C 0 km/h
1156 19-12-2008 15:14:50 6.6 C 4.6 g/m*3 6.6 C 0 km/h
1157 19-12-2008 15:26:50 6.5 C 4.72 g/m*3 6.5 C 0 km/h
1158 19-12-2008 15:38:50 6.4 C 4.77 g/m*3 6.4 C 0 km/h
1159 19-12-2008 15:50:49 6.5 C 4.8 g/m*3 6.5 C 0 km/h
1160 19-12-2008 16:02:49 6.4 C 4.62 g/m*3 6.4 C 0 km/h
1161 19-12-2008 16:14:50 6.2 C 4.41 g/m*3 6.2 C 0 km/h
1162 19-12-2008 16:26:50 6 C 4.43 g/m*3 6 C 0 km/h
1163 19-12-2008 16:38:49 6 C 4.35 g/m*3 6 C 0 km/h
1164 19-12-2008 16:50:49 5.8 C 4.37 g/m*3 5.8 C 0 km/h
1165 19-12-2008 17:02:49 5.6 C 4.45 g/m*3 5.6 C 0 km/h
1166 19-12-2008 17:14:49 5.5 C 4.49 g/m*3 5.5 C 0 km/h
1167 19-12-2008 17:26:49 5.2 C 4.54 g/m*3 5.2 C 0 km/h
1168 19-12-2008 17:38:48 5.1 C 4.45 g/m*3 5.1 C 0 km/h
1169 19-12-2008 17:50:49 4.9 C 4.52 g/m*3 4.9 C 0 km/h
1170 19-12-2008 18:02:48 4.5 C 4.47 g/m*3 4.5 C 0 km/h
1171 19-12-2008 18:14:48 4.1 C 4.42 g/m*3 4.1 C 0 km/h
1172 19-12-2008 18:26:48 3.8 C 4.52 g/m*3 3.8 C 0 km/h
1173 19-12-2008 18:38:49 3.5 C 4.49 g/m*3 3.5 C 0 km/h
1174 19-12-2008 18:50:48 3.4 C 4.52 g/m*3 3.4 C 0 km/h
1175 19-12-2008 19:02:48 3.4 C 4.58 g/m*3 3.4 C 0 km/h
Sensor: Nr:Datum:Temp:Abs-Feuchte:Windchill:Wind:
Aussen-T/F 1176 19-12-2008 19:14:48 3.1 C 4.49 g/m*3 3.1 C 0 km/h
1177 19-12-2008 19:26:48 3.1 C 4.55 g/m*3 3.1 C 0 km/h
1178 19-12-2008 19:38:48 2.8 C 4.52 g/m*3 2.8 C 0 km/h
1179 19-12-2008 19:50:47 2.7 C 4.54 g/m*3 2.7 C 0 km/h
1180 19-12-2008 20:02:48 2.7 C 4.6 g/m*3 2.7 C 0 km/h
1181 19-12-2008 20:14:47 2.6 C 4.57 g/m*3 2.6 C 0 km/h
1182 19-12-2008 20:26:47 2.4 C 4.51 g/m*3 2.4 C 0 km/h
1183 19-12-2008 20:38:47 2.4 C 4.51 g/m*3 2.4 C 0 km/h
1184 19-12-2008 20:50:47 2.3 C 4.48 g/m*3 2.3 C 0 km/h
1185 19-12-2008 21:02:47 2.1 C 4.48 g/m*3 2.1 C 0 km/h
1186 19-12-2008 21:14:47 2.2 C 4.56 g/m*3 2.2 C 0 km/h
1187 19-12-2008 21:26:47 2.3 C 4.59 g/m*3 2.3 C 0 km/h
1188 19-12-2008 21:38:47 2.5 C 4.66 g/m*3 2.5 C 0 km/h
1189 19-12-2008 21:50:46 2.8 C 4.75 g/m*3 2.8 C 0 km/h
1190 19-12-2008 22:02:47 2.8 C 4.69 g/m*3 2.8 C 0 km/h
1191 19-12-2008 22:14:46 3.2 C 4.76 g/m*3 3.2 C 0 km/h
1192 19-12-2008 22:26:46 3.1 C 4.67 g/m*3 3.1 C 0 km/h
1193 19-12-2008 22:38:46 3 C 4.7 g/m*3 3 C 0 km/h
1194 19-12-2008 22:51:46 3.1 C 4.73 g/m*3 3.1 C 0 km/h
1195 19-12-2008 23:03:46 3.2 C 4.76 g/m*3 3.2 C 0 km/h
1196 19-12-2008 23:15:46 3.2 C 4.76 g/m*3 3.2 C 0 km/h
1197 19-12-2008 23:27:46 3.3 C 4.79 g/m*3 3.3 C 0 km/h
1198 19-12-2008 23:39:46 3.7 C 4.86 g/m*3 3.7 C 0 km/h
1199 19-12-2008 23:51:46 3.7 C 4.8 g/m*3 3.7 C 0 km/h
1200 20-12-2008 00:03:46 3.7 C 4.8 g/m*3 3.7 C 0 km/h
Sensor: Nr:Datum:Temp:Abs-Feuchte:Windchill:Wind:
Aussen-T/F 1201 20-12-2008 00:15:46 3.8 C 4.77 g/m*3 3.8 C 0 km/h
1202 20-12-2008 00:27:46 3.7 C 4.86 g/m*3 3.7 C 0 km/h
1203 20-12-2008 00:39:46 3.4 C 4.95 g/m*3 3.4 C 0 km/h
1204 20-12-2008 00:51:47 3.2 C 5.12 g/m*3 3.2 C 0 km/h
1205 20-12-2008 01:03:47 3.1 C 5.21 g/m*3 3.1 C 0 km/h
1206 20-12-2008 01:15:47 3.1 C 5.27 g/m*3 3.1 C 0 km/h
1207 20-12-2008 01:27:47 3 C 5.29 g/m*3 3 C 0 km/h
1208 20-12-2008 01:39:47 3 C 5.29 g/m*3 3 C 0 km/h
1209 20-12-2008 01:51:47 3 C 5.35 g/m*3 3 C 0 km/h
1210 20-12-2008 02:03:47 3.1 C 5.45 g/m*3 3.1 C 0 km/h
1211 20-12-2008 02:15:47 3.4 C 5.62 g/m*3 3.4 C 0 km/h
1212 20-12-2008 02:27:47 3.7 C 5.73 g/m*3 3.7 C 0 km/h
1213 20-12-2008 02:39:47 3.8 C 5.71 g/m*3 3.8 C 0 km/h
1214 20-12-2008 02:51:47 3.8 C 5.65 g/m*3 3.8 C 0 km/h
1215 20-12-2008 03:03:47 3.9 C 5.68 g/m*3 3.9 C 0 km/h
1216 20-12-2008 03:15:47 3.9 C 5.68 g/m*3 3.9 C 0 km/h
1217 20-12-2008 03:27:47 4.1 C 5.7 g/m*3 4.1 C 0 km/h
1218 20-12-2008 03:39:47 4.2 C 5.73 g/m*3 4.2 C 0 km/h
1219 20-12-2008 03:51:47 4.3 C 5.77 g/m*3 4.3 C 0 km/h
1220 20-12-2008 04:03:47 4.3 C 5.77 g/m*3 4.3 C 0 km/h
1221 20-12-2008 04:15:47 4.4 C 5.81 g/m*3 4.4 C 0 km/h
1222 20-12-2008 04:27:47 4.4 C 5.81 g/m*3 4.4 C 0 km/h
1223 20-12-2008 04:39:48 4.4 C 5.88 g/m*3 4.4 C 0 km/h
1224 20-12-2008 04:51:48 4.4 C 5.88 g/m*3 4.4 C 0 km/h
1225 20-12-2008 05:03:48 4.5 C 5.98 g/m*3 4.5 C 0 km/h
Sensor: Nr:Datum:Temp:Abs-Feuchte:Windchill:Wind:
Aussen-T/F 1226 20-12-2008 05:15:48 4.5 C 5.98 g/m*3 4.5 C 0 km/h
1227 20-12-2008 05:27:48 4.5 C 5.98 g/m*3 4.5 C 0 km/h
1228 20-12-2008 05:39:48 4.6 C 6.02 g/m*3 4.6 C 0 km/h
1229 20-12-2008 05:51:48 4.7 C 6.06 g/m*3 4.7 C 0 km/h
1230 20-12-2008 06:03:48 4.8 C 6.1 g/m*3 4.8 C 0 km/h
1231 20-12-2008 06:15:48 4.9 C 6.14 g/m*3 4.9 C 0 km/h
1232 20-12-2008 06:27:48 5 C 6.12 g/m*3 5 C 0 km/h
1233 20-12-2008 06:39:48 5.2 C 6.13 g/m*3 5.2 C 0 km/h
1234 20-12-2008 06:51:48 5.3 C 6.1 g/m*3 5.3 C 0 km/h
1235 20-12-2008 07:03:48 5.3 C 6.1 g/m*3 5.3 C 0 km/h
1236 20-12-2008 07:15:48 5.4 C 6.14 g/m*3 5.4 C 0 km/h
1237 20-12-2008 07:27:48 5.4 C 6.07 g/m*3 5.4 C 0 km/h
1238 20-12-2008 07:39:48 5.6 C 6.15 g/m*3 5.6 C 0 km/h
1239 20-12-2008 07:51:48 5.6 C 6.15 g/m*3 5.6 C 0 km/h
1240 20-12-2008 08:03:48 5.9 C 6.2 g/m*3 5.9 C 0 km/h
1241 20-12-2008 08:15:48 6 C 6.1 g/m*3 6 C 0 km/h
1242 20-12-2008 08:27:49 6 C 6.1 g/m*3 6 C 0 km/h
1243 20-12-2008 08:39:49 6 C 6.1 g/m*3 6 C 0 km/h
1244 20-12-2008 08:51:49 6 C 6.17 g/m*3 6 C 0 km/h
1245 20-12-2008 09:03:47 6 C 6.17 g/m*3 6 C 0 km/h
1246 20-12-2008 09:15:46 5.9 C 6.27 g/m*3 5.9 C 0 km/h
1247 20-12-2008 09:27:46 6 C 6.24 g/m*3 6 C 0 km/h
1248 20-12-2008 09:39:46 6 C 6.31 g/m*3 6 C 0 km/h
1249 20-12-2008 09:51:46 6.2 C 6.4 g/m*3 6.2 C 0 km/h
1250 20-12-2008 10:03:46 6.3 C 6.44 g/m*3 6.3 C 0 km/h
Sensor: Nr:Datum:Temp:Abs-Feuchte:Windchill:Wind:
Aussen-T/F 1251 20-12-2008 10:15:45 6.5 C 6.52 g/m*3 6.5 C 0 km/h
1252 20-12-2008 10:27:45 6.7 C 6.53 g/m*3 6.7 C 0 km/h
1253 20-12-2008 10:39:46 6.8 C 6.5 g/m*3 6.8 C 0 km/h
1254 20-12-2008 10:51:45 6.9 C 6.54 g/m*3 6.9 C 0 km/h
1255 20-12-2008 11:03:45 7 C 6.43 g/m*3 7 C 0 km/h
1256 20-12-2008 11:15:46 7 C 6.51 g/m*3 7 C 0 km/h
1257 20-12-2008 11:27:46 7.2 C 6.59 g/m*3 7.2 C 0 km/h
1258 20-12-2008 11:39:45 7.4 C 6.68 g/m*3 7.4 C 0 km/h
1259 20-12-2008 11:51:45 7.5 C 6.72 g/m*3 7.5 C 0 km/h
1260 20-12-2008 12:03:45 7.7 C 6.81 g/m*3 7.7 C 0 km/h
1261 20-12-2008 12:15:45 7.8 C 6.69 g/m*3 7.8 C 0 km/h
1262 20-12-2008 12:27:45 8.1 C 6.66 g/m*3 8.1 C 0 km/h
1263 20-12-2008 12:39:44 8.5 C 6.66 g/m*3 8.5 C 0 km/h
1264 20-12-2008 12:51:45 8.7 C 6.66 g/m*3 8.7 C 0 km/h
1265 20-12-2008 13:03:44 8.8 C 6.7 g/m*3 8.8 C 0 km/h
1266 20-12-2008 13:15:44 8.9 C 6.75 g/m*3 8.9 C 0 km/h
1267 20-12-2008 13:27:44 9.1 C 6.65 g/m*3 9.1 C 0 km/h
1268 20-12-2008 13:39:44 9 C 6.7 g/m*3 9 C 0 km/h
1269 20-12-2008 13:51:44 9 C 6.7 g/m*3 9 C 0 km/h
1270 20-12-2008 14:03:44 8.9 C 6.83 g/m*3 8.9 C 0 km/h
1271 20-12-2008 14:15:43 8.8 C 6.88 g/m*3 8.8 C 0 km/h
1272 20-12-2008 14:27:43 8.7 C 7.01 g/m*3 8.7 C 0 km/h
1273 20-12-2008 14:39:44 8.4 C 7.13 g/m*3 8.4 C 0 km/h
1274 20-12-2008 14:51:43 8.3 C 7.25 g/m*3 8.3 C 0 km/h
1275 20-12-2008 15:03:43 8.4 C 7.3 g/m*3 8.4 C 0 km/h
Sensor: Nr:Datum:Temp:Abs-Feuchte:Windchill:Wind:
Aussen-T/F 1276 20-12-2008 15:15:43 8.5 C 7.17 g/m*3 8.5 C 0 km/h
1277 20-12-2008 15:27:43 8.7 C 7.18 g/m*3 8.7 C 0 km/h
1278 20-12-2008 15:39:43 9 C 7.14 g/m*3 9 C 0 km/h
1279 20-12-2008 15:51:42 8.9 C 7.1 g/m*3 8.9 C 0 km/h
1280 20-12-2008 16:03:43 8.9 C 7.1 g/m*3 8.9 C 0 km/h
1281 20-12-2008 16:15:43 8.8 C 6.96 g/m*3 8.8 C 0 km/h
1282 20-12-2008 16:27:43 8.8 C 6.96 g/m*3 8.8 C 0 km/h
1283 20-12-2008 16:39:42 8.8 C 6.96 g/m*3 8.8 C 0 km/h
1284 20-12-2008 16:51:42 8.8 C 6.96 g/m*3 8.8 C 0 km/h
1285 20-12-2008 17:03:43 8.8 C 6.96 g/m*3 8.8 C 0 km/h
1286 20-12-2008 17:15:42 8.8 C 7.05 g/m*3 8.8 C 0 km/h
1287 20-12-2008 17:27:42 8.9 C 7.1 g/m*3 8.9 C 0 km/h
1288 20-12-2008 17:39:42 8.9 C 7.1 g/m*3 8.9 C 0 km/h
1289 20-12-2008 17:51:42 8.8 C 7.14 g/m*3 8.8 C 0 km/h
1290 20-12-2008 18:03:41 8.7 C 7.18 g/m*3 8.7 C 0 km/h
1291 20-12-2008 18:15:42 8.5 C 7.34 g/m*3 8.5 C 0 km/h
1292 20-12-2008 18:27:42 8.5 C 7.43 g/m*3 8.5 C 0 km/h
1293 20-12-2008 18:39:41 8.4 C 7.47 g/m*3 8.4 C 0 km/h
1294 20-12-2008 18:51:41 8.4 C 7.55 g/m*3 8.4 C 0 km/h
1295 20-12-2008 19:03:42 8.3 C 7.59 g/m*3 8.3 C 0 km/h
1296 20-12-2008 19:15:41 8.5 C 7.85 g/m*3 8.5 C 0 km/h
1297 20-12-2008 19:27:41 8.4 C 7.8 g/m*3 8.4 C 0 km/h
1298 20-12-2008 19:39:41 8.4 C 7.8 g/m*3 8.4 C 0 km/h
1299 20-12-2008 19:51:41 8.3 C 7.75 g/m*3 8.3 C 0 km/h
1300 20-12-2008 20:03:41 8 C 7.61 g/m*3 8 C 0 km/h
Sensor: Nr:Datum:Temp:Abs-Feuchte:Windchill:Wind:
Aussen-T/F 1301 20-12-2008 20:15:40 7.8 C 7.59 g/m*3 7.8 C 0 km/h
1302 20-12-2008 20:27:40 7.8 C 7.59 g/m*3 7.8 C 0 km/h
1303 20-12-2008 20:39:40 7.5 C 7.44 g/m*3 7.5 C 0 km/h
1304 20-12-2008 20:51:40 7.2 C 7.3 g/m*3 7.2 C 0 km/h
1305 20-12-2008 21:03:40 7 C 7.21 g/m*3 7 C 0 km/h
1306 20-12-2008 21:15:40 7 C 7.21 g/m*3 7 C 0 km/h
1307 20-12-2008 21:27:40 6.7 C 7.07 g/m*3 6.7 C 0 km/h
1308 20-12-2008 21:39:40 6.5 C 6.97 g/m*3 6.5 C 0 km/h
1309 20-12-2008 21:51:40 6.4 C 6.93 g/m*3 6.4 C 0 km/h
1310 20-12-2008 22:03:40 6.2 C 6.84 g/m*3 6.2 C 0 km/h
1311 20-12-2008 22:15:39 6 C 6.75 g/m*3 6 C 0 km/h
1312 20-12-2008 22:27:39 6 C 6.75 g/m*3 6 C 0 km/h
1313 20-12-2008 22:39:39 6.1 C 6.79 g/m*3 6.1 C 0 km/h
1314 20-12-2008 22:51:39 6.1 C 6.79 g/m*3 6.1 C 0 km/h
1315 20-12-2008 23:03:39 6.1 C 6.79 g/m*3 6.1 C 0 km/h
1316 20-12-2008 23:15:38 6 C 6.75 g/m*3 6 C 0 km/h
1317 20-12-2008 23:27:38 6 C 6.82 g/m*3 6 C 0 km/h
1318 20-12-2008 23:39:39 5.9 C 6.78 g/m*3 5.9 C 0 km/h
1319 20-12-2008 23:51:38 5.9 C 6.78 g/m*3 5.9 C 0 km/h
1320 21-12-2008 00:03:38 5.9 C 6.78 g/m*3 5.9 C 0 km/h
1321 21-12-2008 00:15:38 5.9 C 6.71 g/m*3 5.9 C 0 km/h
1322 21-12-2008 00:27:38 5.9 C 6.71 g/m*3 5.9 C 0 km/h
1323 21-12-2008 00:39:38 5.9 C 6.71 g/m*3 5.9 C 0 km/h
1324 21-12-2008 00:51:38 5.9 C 6.71 g/m*3 5.9 C 0 km/h
1325 21-12-2008 01:03:38 5.9 C 6.71 g/m*3 5.9 C 0 km/h
Sensor: Nr:Datum:Temp:Abs-Feuchte:Windchill:Wind:
Aussen-T/F 1326 21-12-2008 01:15:37 5.9 C 6.71 g/m*3 5.9 C 0 km/h
1327 21-12-2008 01:27:37 5.9 C 6.63 g/m*3 5.9 C 0 km/h
1328 21-12-2008 01:39:38 5.9 C 6.63 g/m*3 5.9 C 0 km/h
1329 21-12-2008 01:51:37 5.9 C 6.63 g/m*3 5.9 C 0 km/h
1330 21-12-2008 02:03:37 5.9 C 6.63 g/m*3 5.9 C 0 km/h
1331 21-12-2008 02:15:37 6 C 6.6 g/m*3 6 C 0 km/h
1332 21-12-2008 02:27:37 6.1 C 6.65 g/m*3 6.1 C 0 km/h
1333 21-12-2008 02:39:37 6.1 C 6.65 g/m*3 6.1 C 0 km/h
1334 21-12-2008 02:52:01 6.1 C 6.65 g/m*3 6.1 C 0 km/h
1335 21-12-2008 03:04:01 6.1 C 6.65 g/m*3 6.1 C 0 km/h
1336 21-12-2008 03:16:01 6.2 C 6.69 g/m*3 6.2 C 0 km/h
1337 21-12-2008 03:28:01 6.2 C 6.69 g/m*3 6.2 C 0 km/h
1338 21-12-2008 03:40:01 6.2 C 6.69 g/m*3 6.2 C 0 km/h
1339 21-12-2008 03:52:02 6.1 C 6.65 g/m*3 6.1 C 0 km/h
1340 21-12-2008 04:04:01 6.1 C 6.65 g/m*3 6.1 C 0 km/h
1341 21-12-2008 04:16:01 6.1 C 6.65 g/m*3 6.1 C 0 km/h
1342 21-12-2008 04:28:01 6.1 C 6.65 g/m*3 6.1 C 0 km/h
1343 21-12-2008 04:40:02 6.1 C 6.65 g/m*3 6.1 C 0 km/h
1344 21-12-2008 04:52:01 6.1 C 6.65 g/m*3 6.1 C 0 km/h
1345 21-12-2008 05:04:01 6.1 C 6.65 g/m*3 6.1 C 0 km/h
1346 21-12-2008 05:16:02 6.1 C 6.72 g/m*3 6.1 C 0 km/h
1347 21-12-2008 05:28:02 6.1 C 6.72 g/m*3 6.1 C 0 km/h
1348 21-12-2008 05:40:01 6.1 C 6.72 g/m*3 6.1 C 0 km/h
1349 21-12-2008 05:52:01 6.1 C 6.72 g/m*3 6.1 C 0 km/h
1350 21-12-2008 06:04:01 6.2 C 6.77 g/m*3 6.2 C 0 km/h
Sensor: Nr:Datum:Temp:Abs-Feuchte:Windchill:Wind:
Aussen-T/F 1351 21-12-2008 06:16:01 6.2 C 6.77 g/m*3 6.2 C 0 km/h
1352 21-12-2008 06:28:01 6.2 C 6.77 g/m*3 6.2 C 0 km/h
1353 21-12-2008 06:40:01 6.2 C 6.84 g/m*3 6.2 C 0 km/h
1354 21-12-2008 06:52:01 6.4 C 6.93 g/m*3 6.4 C 0 km/h
1355 21-12-2008 07:04:01 6.9 C 7.24 g/m*3 6.9 C 0 km/h
1356 21-12-2008 07:16:02 7.3 C 7.51 g/m*3 7.3 C 0 km/h
1357 21-12-2008 07:28:02 7.5 C 7.6 g/m*3 7.5 C 0 km/h
1358 21-12-2008 07:40:01 7.1 C 7.41 g/m*3 7.1 C 0 km/h
1359 21-12-2008 07:52:02 6.7 C 7.22 g/m*3 6.7 C 0 km/h
1360 21-12-2008 08:04:01 6.6 C 7.17 g/m*3 6.6 C 0 km/h
1361 21-12-2008 08:16:02 6.6 C 7.17 g/m*3 6.6 C 0 km/h
1362 21-12-2008 08:28:02 7.1 C 7.41 g/m*3 7.1 C 0 km/h
1363 21-12-2008 08:40:01 7.7 C 7.7 g/m*3 7.7 C 0 km/h
1364 21-12-2008 08:52:02 7.8 C 7.75 g/m*3 7.8 C 0 km/h
1365 21-12-2008 09:04:01 7.9 C 7.8 g/m*3 7.9 C 0 km/h
1366 21-12-2008 09:16:01 7.8 C 7.75 g/m*3 7.8 C 0 km/h
1367 21-12-2008 09:28:01 7.7 C 7.7 g/m*3 7.7 C 0 km/h
1368 21-12-2008 09:40:02 7.4 C 7.55 g/m*3 7.4 C 0 km/h
1369 21-12-2008 09:52:01 7.1 C 7.41 g/m*3 7.1 C 0 km/h
1370 21-12-2008 10:04:02 7.2 C 7.46 g/m*3 7.2 C 0 km/h
1371 21-12-2008 10:16:01 7.3 C 7.51 g/m*3 7.3 C 0 km/h
1372 21-12-2008 10:28:01 7.4 C 7.55 g/m*3 7.4 C 0 km/h
1373 21-12-2008 10:40:02 7.5 C 7.6 g/m*3 7.5 C 0 km/h
1374 21-12-2008 10:52:01 7.5 C 7.6 g/m*3 7.5 C 0 km/h
1375 21-12-2008 11:04:02 7.6 C 7.65 g/m*3 7.6 C 0 km/h
Sensor: Nr:Datum:Temp:Abs-Feuchte:Windchill:Wind:
Aussen-T/F 1376 21-12-2008 11:16:01 7.9 C 7.8 g/m*3 7.9 C 0 km/h
1377 21-12-2008 11:28:01 7.9 C 7.8 g/m*3 7.9 C 0 km/h
1378 21-12-2008 11:40:01 8.1 C 7.9 g/m*3 8.1 C 0 km/h
1379 21-12-2008 11:52:01 8.7 C 8.22 g/m*3 8.7 C 0 km/h
1380 21-12-2008 12:04:01 9.1 C 8.43 g/m*3 9.1 C 0 km/h
1381 21-12-2008 12:16:01 9.4 C 8.41 g/m*3 9.4 C 0 km/h
1382 21-12-2008 12:28:01 9.7 C 8.11 g/m*3 9.7 C 0 km/h
1383 21-12-2008 12:40:01 9.8 C 7.61 g/m*3 9.8 C 0 km/h
1384 21-12-2008 12:52:01 9.8 C 7.42 g/m*3 9.8 C 0 km/h
1385 21-12-2008 13:04:01 10 C 7.14 g/m*3 10 C 0 km/h
1386 21-12-2008 13:16:02 10.2 C 7.23 g/m*3 10.2 C 0 km/h
1387 21-12-2008 13:28:02 10.7 C 7.07 g/m*3 10.7 C 0 km/h
1388 21-12-2008 13:40:01 10.7 C 6.97 g/m*3 10.7 C 0 km/h
1389 21-12-2008 13:52:02 10.7 C 6.68 g/m*3 10.7 C 0 km/h
1390 21-12-2008 14:04:01 10.5 C 6.6 g/m*3 10.5 C 0 km/h
1391 21-12-2008 14:16:01 10.4 C 6.65 g/m*3 10.4 C 0 km/h
1392 21-12-2008 14:28:02 10.2 C 6.66 g/m*3 10.2 C 0 km/h
1393 21-12-2008 14:40:01 10.1 C 6.71 g/m*3 10.1 C 0 km/h
1394 21-12-2008 14:52:01 10.1 C 6.52 g/m*3 10.1 C 0 km/h
1395 21-12-2008 15:04:01 10 C 6.48 g/m*3 10 C 0 km/h
1396 21-12-2008 15:16:01 9.9 C 6.54 g/m*3 9.9 C 0 km/h
1397 21-12-2008 15:28:01 9.8 C 6.59 g/m*3 9.8 C 0 km/h
1398 21-12-2008 15:40:02 9.7 C 6.64 g/m*3 9.7 C 0 km/h
1399 21-12-2008 15:52:01 9.6 C 6.6 g/m*3 9.6 C 0 km/h
1400 21-12-2008 16:04:02 9.6 C 6.5 g/m*3 9.6 C 0 km/h
Sensor: Nr:Datum:Temp:Abs-Feuchte:Windchill:Wind:
Aussen-T/F 1401 21-12-2008 16:16:01 9.5 C 6.28 g/m*3 9.5 C 0 km/h
1402 21-12-2008 16:28:01 9.5 C 6.28 g/m*3 9.5 C 0 km/h
1403 21-12-2008 16:40:02 9.4 C 6.24 g/m*3 9.4 C 0 km/h
1404 21-12-2008 16:52:01 9.2 C 6.25 g/m*3 9.2 C 0 km/h
1405 21-12-2008 17:04:02 9.2 C 6.16 g/m*3 9.2 C 0 km/h
1406 21-12-2008 17:16:01 9.1 C 6.12 g/m*3 9.1 C 0 km/h
1407 21-12-2008 17:28:01 9.1 C 6.12 g/m*3 9.1 C 0 km/h
1408 21-12-2008 17:40:01 9 C 6.08 g/m*3 9 C 0 km/h
1409 21-12-2008 17:52:01 9 C 6.08 g/m*3 9 C 0 km/h
1410 21-12-2008 18:04:01 9 C 6.08 g/m*3 9 C 0 km/h
1411 21-12-2008 18:16:02 9.1 C 6.03 g/m*3 9.1 C 0 km/h
1412 21-12-2008 18:28:02 9.1 C 6.03 g/m*3 9.1 C 0 km/h
1413 21-12-2008 18:40:01 9 C 5.99 g/m*3 9 C 0 km/h
1414 21-12-2008 18:52:02 8.9 C 6.04 g/m*3 8.9 C 0 km/h
1415 21-12-2008 19:04:01 8.9 C 6.04 g/m*3 8.9 C 0 km/h
1416 21-12-2008 19:16:02 8.8 C 6.09 g/m*3 8.8 C 0 km/h
1417 21-12-2008 19:28:02 8.7 C 6.14 g/m*3 8.7 C 0 km/h
1418 21-12-2008 19:40:01 8.7 C 6.31 g/m*3 8.7 C 0 km/h
1419 21-12-2008 19:52:02 8.7 C 6.31 g/m*3 8.7 C 0 km/h
1420 21-12-2008 20:04:01 8.7 C 6.31 g/m*3 8.7 C 0 km/h
1421 21-12-2008 20:16:01 8.7 C 6.23 g/m*3 8.7 C 0 km/h
1422 21-12-2008 20:28:01 8.7 C 6.23 g/m*3 8.7 C 0 km/h
1423 21-12-2008 20:40:02 8.8 C 6.18 g/m*3 8.8 C 0 km/h
1424 21-12-2008 20:52:01 8.9 C 6.13 g/m*3 8.9 C 0 km/h
1425 21-12-2008 21:04:01 8.9 C 6.13 g/m*3 8.9 C 0 km/h
Sensor: Nr:Datum:Temp:Abs-Feuchte:Windchill:Wind:
Aussen-T/F 1426 21-12-2008 21:16:01 8.9 C 6.04 g/m*3 8.9 C 0 km/h
1427 21-12-2008 21:28:01 8.9 C 6.13 g/m*3 8.9 C 0 km/h
1428 21-12-2008 21:40:02 8.8 C 6.18 g/m*3 8.8 C 0 km/h
1429 21-12-2008 21:52:01 8.7 C 6.14 g/m*3 8.7 C 0 km/h
1430 21-12-2008 22:04:02 8.7 C 6.23 g/m*3 8.7 C 0 km/h
1431 21-12-2008 22:16:01 8.6 C 6.19 g/m*3 8.6 C 0 km/h
1432 21-12-2008 22:28:01 8.6 C 6.19 g/m*3 8.6 C 0 km/h
1433 21-12-2008 22:40:02 8.6 C 6.19 g/m*3 8.6 C 0 km/h
1434 21-12-2008 22:52:01 8.5 C 6.23 g/m*3 8.5 C 0 km/h
1435 21-12-2008 23:04:01 8.5 C 6.23 g/m*3 8.5 C 0 km/h
1436 21-12-2008 23:16:01 8.5 C 6.23 g/m*3 8.5 C 0 km/h
1437 21-12-2008 23:28:01 8.5 C 6.23 g/m*3 8.5 C 0 km/h
1438 21-12-2008 23:40:01 8.5 C 6.32 g/m*3 8.5 C 0 km/h
1439 21-12-2008 23:52:01 8.5 C 6.32 g/m*3 8.5 C 0 km/h
1440 22-12-2008 00:04:01 8.6 C 6.36 g/m*3 8.6 C 0 km/h
1441 22-12-2008 00:16:02 8.6 C 6.36 g/m*3 8.6 C 0 km/h
1442 22-12-2008 00:28:02 8.6 C 6.36 g/m*3 8.6 C 0 km/h
1443 22-12-2008 00:40:01 8.6 C 6.44 g/m*3 8.6 C 0 km/h
1444 22-12-2008 00:52:02 8.6 C 6.44 g/m*3 8.6 C 0 km/h
1445 22-12-2008 01:04:01 8.8 C 6.44 g/m*3 8.8 C 0 km/h
1446 22-12-2008 01:16:02 8.8 C 6.44 g/m*3 8.8 C 0 km/h
1447 22-12-2008 01:28:02 8.8 C 6.44 g/m*3 8.8 C 0 km/h
1448 22-12-2008 01:40:01 8.9 C 6.39 g/m*3 8.9 C 0 km/h
1449 22-12-2008 01:52:02 8.9 C 6.39 g/m*3 8.9 C 0 km/h
1450 22-12-2008 02:04:01 8.9 C 6.48 g/m*3 8.9 C 0 km/h
Sensor: Nr:Datum:Temp:Abs-Feuchte:Windchill:Wind:
Aussen-T/F 1451 22-12-2008 02:16:01 8.7 C 6.49 g/m*3 8.7 C 0 km/h
1452 22-12-2008 02:28:01 8.7 C 6.57 g/m*3 8.7 C 0 km/h
1453 22-12-2008 02:40:01 8.8 C 6.61 g/m*3 8.8 C 0 km/h
1454 22-12-2008 02:52:27 8.9 C 6.57 g/m*3 8.9 C 0 km/h
1455 22-12-2008 03:04:27 8.9 C 6.57 g/m*3 8.9 C 0 km/h
1456 22-12-2008 03:16:27 8.9 C 6.57 g/m*3 8.9 C 0 km/h
1457 22-12-2008 03:28:27 8.7 C 6.57 g/m*3 8.7 C 0 km/h
1458 22-12-2008 03:40:27 8.6 C 6.7 g/m*3 8.6 C 0 km/h
1459 22-12-2008 03:52:27 8.2 C 6.95 g/m*3 8.2 C 0 km/h
1460 22-12-2008 04:04:26 8.1 C 7.16 g/m*3 8.1 C 0 km/h
1461 22-12-2008 04:16:27 8.1 C 7.24 g/m*3 8.1 C 0 km/h
1462 22-12-2008 04:28:27 8.1 C 7.32 g/m*3 8.1 C 0 km/h
1463 22-12-2008 04:40:26 8.1 C 7.32 g/m*3 8.1 C 0 km/h
1464 22-12-2008 04:52:26 8.3 C 7.25 g/m*3 8.3 C 0 km/h
1465 22-12-2008 05:04:26 8.3 C 7.16 g/m*3 8.3 C 0 km/h
1466 22-12-2008 05:16:26 8.3 C 7.16 g/m*3 8.3 C 0 km/h
1467 22-12-2008 05:28:26 8.2 C 7.2 g/m*3 8.2 C 0 km/h
1468 22-12-2008 05:40:26 8.1 C 7.16 g/m*3 8.1 C 0 km/h
1469 22-12-2008 05:52:25 8.1 C 7.24 g/m*3 8.1 C 0 km/h
1470 22-12-2008 06:04:26 8.1 C 7.24 g/m*3 8.1 C 0 km/h
1471 22-12-2008 06:16:26 8.1 C 7.24 g/m*3 8.1 C 0 km/h
1472 22-12-2008 06:28:26 8.1 C 7.16 g/m*3 8.1 C 0 km/h
1473 22-12-2008 06:40:25 8.3 C 7.16 g/m*3 8.3 C 0 km/h
1474 22-12-2008 06:52:26 8.6 C 7.05 g/m*3 8.6 C 0 km/h
1475 22-12-2008 07:04:25 8.6 C 6.96 g/m*3 8.6 C 0 km/h
Sensor: Nr:Datum:Temp:Abs-Feuchte:Windchill:Wind:
Aussen-T/F 1476 22-12-2008 07:16:25 8.8 C 6.88 g/m*3 8.8 C 0 km/h
1477 22-12-2008 07:28:25 8.9 C 6.83 g/m*3 8.9 C 0 km/h
1478 22-12-2008 07:40:24 8.9 C 6.83 g/m*3 8.9 C 0 km/h
1479 22-12-2008 07:52:25 8.9 C 6.83 g/m*3 8.9 C 0 km/h
1480 22-12-2008 08:04:24 8.9 C 6.83 g/m*3 8.9 C 0 km/h
1481 22-12-2008 08:16:24 9 C 6.7 g/m*3 9 C 0 km/h
1482 22-12-2008 08:28:24 9 C 6.61 g/m*3 9 C 0 km/h
1483 22-12-2008 08:40:25 9.1 C 6.65 g/m*3 9.1 C 0 km/h
1484 22-12-2008 08:52:24 9 C 6.61 g/m*3 9 C 0 km/h
1485 22-12-2008 09:04:24 9.1 C 6.65 g/m*3 9.1 C 0 km/h
1486 22-12-2008 09:16:24 9 C 6.61 g/m*3 9 C 0 km/h
1487 22-12-2008 09:28:24 9.1 C 6.65 g/m*3 9.1 C 0 km/h
1488 22-12-2008 09:40:24 9 C 6.7 g/m*3 9 C 0 km/h
1489 22-12-2008 09:52:23 9.1 C 6.74 g/m*3 9.1 C 0 km/h
1490 22-12-2008 10:04:24 9.2 C 6.79 g/m*3 9.2 C 0 km/h
1491 22-12-2008 10:16:23 9.3 C 6.74 g/m*3 9.3 C 0 km/h
1492 22-12-2008 10:28:23 9.2 C 6.79 g/m*3 9.2 C 0 km/h
1493 22-12-2008 10:40:23 9.2 C 6.97 g/m*3 9.2 C 0 km/h
1494 22-12-2008 10:52:23 9.3 C 7.01 g/m*3 9.3 C 0 km/h
1495 22-12-2008 11:04:23 9.3 C 7.1 g/m*3 9.3 C 0 km/h
1496 22-12-2008 11:16:23 9.4 C 7.24 g/m*3 9.4 C 0 km/h
1497 22-12-2008 11:28:23 9.5 C 7.19 g/m*3 9.5 C 0 km/h
1498 22-12-2008 11:40:23 9.6 C 7.24 g/m*3 9.6 C 0 km/h
1499 22-12-2008 11:52:23 9.6 C 7.24 g/m*3 9.6 C 0 km/h
1500 22-12-2008 12:04:22 9.9 C 7.28 g/m*3 9.9 C 0 km/h
Sensor: Nr:Datum:Temp:Abs-Feuchte:Windchill:Wind:
Aussen-T/F 1501 22-12-2008 12:16:22 10 C 7.14 g/m*3 10 C 0 km/h
1502 22-12-2008 12:28:22 10 C 7.14 g/m*3 10 C 0 km/h
1503 22-12-2008 12:40:22 9.9 C 7.38 g/m*3 9.9 C 0 km/h
1504 22-12-2008 12:52:22 9.9 C 7.66 g/m*3 9.9 C 0 km/h
1505 22-12-2008 13:04:22 9.9 C 7.56 g/m*3 9.9 C 0 km/h
1506 22-12-2008 13:16:22 10 C 7.42 g/m*3 10 C 0 km/h
1507 22-12-2008 13:28:22 10 C 7.42 g/m*3 10 C 0 km/h
1508 22-12-2008 13:40:22 9.9 C 7.47 g/m*3 9.9 C 0 km/h
1509 22-12-2008 13:52:21 10 C 7.33 g/m*3 10 C 0 km/h
1510 22-12-2008 14:04:21 10.1 C 7.19 g/m*3 10.1 C 0 km/h
1511 22-12-2008 14:16:21 10.3 C 6.99 g/m*3 10.3 C 0 km/h
1512 22-12-2008 14:28:21 10.3 C 6.9 g/m*3 10.3 C 0 km/h
1513 22-12-2008 14:40:22 9.7 C 7.01 g/m*3 9.7 C 0 km/h
1514 22-12-2008 14:52:21 9.6 C 7.05 g/m*3 9.6 C 0 km/h
1515 22-12-2008 15:04:21 9.6 C 7.05 g/m*3 9.6 C 0 km/h
1516 22-12-2008 15:16:21 9.7 C 6.91 g/m*3 9.7 C 0 km/h
1517 22-12-2008 15:28:21 9.7 C 6.82 g/m*3 9.7 C 0 km/h
1518 22-12-2008 15:40:21 9.7 C 6.45 g/m*3 9.7 C 0 km/h
1519 22-12-2008 15:52:20 9.6 C 6.32 g/m*3 9.6 C 0 km/h
1520 22-12-2008 16:04:21 9.6 C 6.23 g/m*3 9.6 C 0 km/h
1521 22-12-2008 16:16:20 9.5 C 6.19 g/m*3 9.5 C 0 km/h
1522 22-12-2008 16:28:20 9.6 C 6.05 g/m*3 9.6 C 0 km/h
1523 22-12-2008 16:40:20 9.5 C 6.01 g/m*3 9.5 C 0 km/h
1524 22-12-2008 16:52:02 9.5 C 5.92 g/m*3 9.5 C 0 km/h
1525 22-12-2008 17:04:02 9.5 C 6.01 g/m*3 9.5 C 0 km/h
Sensor: Nr:Datum:Temp:Abs-Feuchte:Windchill:Wind:
Aussen-T/F 1526 22-12-2008 17:16:02 9.3 C 5.93 g/m*3 9.3 C 0 km/h
1527 22-12-2008 17:28:02 9.1 C 6.03 g/m*3 9.1 C 0 km/h
1528 22-12-2008 17:40:02 8.8 C 6.18 g/m*3 8.8 C 0 km/h
1529 22-12-2008 17:52:02 8.5 C 6.15 g/m*3 8.5 C 0 km/h
1530 22-12-2008 18:04:01 8 C 6.12 g/m*3 8 C 0 km/h
1531 22-12-2008 18:16:02 7.6 C 6.28 g/m*3 7.6 C 0 km/h
1532 22-12-2008 18:28:02 7.3 C 6.32 g/m*3 7.3 C 0 km/h
1533 22-12-2008 18:40:02 7.1 C 6.32 g/m*3 7.1 C 0 km/h
1534 22-12-2008 18:52:02 6.9 C 6.39 g/m*3 6.9 C 0 km/h
1535 22-12-2008 19:04:02 6.9 C 6.47 g/m*3 6.9 C 0 km/h
1536 22-12-2008 19:16:02 6.7 C 6.38 g/m*3 6.7 C 0 km/h
1537 22-12-2008 19:28:02 6.3 C 6.22 g/m*3 6.3 C 0 km/h
1538 22-12-2008 19:40:01 6.2 C 6.25 g/m*3 6.2 C 0 km/h
1539 22-12-2008 19:52:02 5.9 C 6.2 g/m*3 5.9 C 0 km/h
1540 22-12-2008 20:04:01 5.8 C 6.16 g/m*3 5.8 C 0 km/h
1541 22-12-2008 20:16:01 6.1 C 6.28 g/m*3 6.1 C 0 km/h
1542 22-12-2008 20:28:01 6.1 C 6.28 g/m*3 6.1 C 0 km/h
1543 22-12-2008 20:40:00 6.2 C 6.25 g/m*3 6.2 C 0 km/h
1544 22-12-2008 20:52:01 6.3 C 6.29 g/m*3 6.3 C 0 km/h
1545 22-12-2008 21:04:01 6.3 C 6.22 g/m*3 6.3 C 0 km/h
1546 22-12-2008 21:16:00 6.5 C 6.3 g/m*3 6.5 C 0 km/h
1547 22-12-2008 21:28:00 6.4 C 6.18 g/m*3 6.4 C 0 km/h
1548 22-12-2008 21:40:00 6.4 C 6.18 g/m*3 6.4 C 0 km/h
1549 22-12-2008 21:52:00 6.5 C 6.3 g/m*3 6.5 C 0 km/h
1550 22-12-2008 22:05:02 6.5 C 6.22 g/m*3 6.5 C 0 km/h
Sensor: Nr:Datum:Temp:Abs-Feuchte:Windchill:Wind:
Aussen-T/F 1551 22-12-2008 22:17:02 6.5 C 6.3 g/m*3 6.5 C 0 km/h
1552 22-12-2008 22:29:02 7 C 6.51 g/m*3 7 C 0 km/h
1553 22-12-2008 22:41:03 7.2 C 6.52 g/m*3 7.2 C 0 km/h
1554 22-12-2008 22:53:03 7.1 C 6.47 g/m*3 7.1 C 0 km/h
1555 22-12-2008 23:05:03 7.1 C 6.47 g/m*3 7.1 C 0 km/h
1556 22-12-2008 23:17:03 7 C 6.43 g/m*3 7 C 0 km/h
1557 22-12-2008 23:29:03 6.8 C 6.42 g/m*3 6.8 C 0 km/h
1558 22-12-2008 23:41:03 6.9 C 6.54 g/m*3 6.9 C 0 km/h
1559 22-12-2008 23:53:03 6.9 C 6.54 g/m*3 6.9 C 0 km/h
1560 23-12-2008 00:05:03 6.8 C 6.5 g/m*3 6.8 C 0 km/h
1561 23-12-2008 00:17:03 6.4 C 6.26 g/m*3 6.4 C 0 km/h
1562 23-12-2008 00:29:03 6.8 C 6.5 g/m*3 6.8 C 0 km/h
1563 23-12-2008 00:41:03 7.1 C 6.4 g/m*3 7.1 C 0 km/h
1564 23-12-2008 00:53:03 7.2 C 6.36 g/m*3 7.2 C 0 km/h
1565 23-12-2008 01:05:03 7.2 C 6.28 g/m*3 7.2 C 0 km/h
1566 23-12-2008 01:17:03 7.2 C 6.2 g/m*3 7.2 C 0 km/h
1567 23-12-2008 01:29:03 7.2 C 6.2 g/m*3 7.2 C 0 km/h
1568 23-12-2008 01:41:03 7.1 C 6.16 g/m*3 7.1 C 0 km/h
1569 23-12-2008 01:53:03 6.9 C 6.24 g/m*3 6.9 C 0 km/h
1570 23-12-2008 02:05:03 6.9 C 6.24 g/m*3 6.9 C 0 km/h
1571 23-12-2008 02:17:03 6.7 C 6.23 g/m*3 6.7 C 0 km/h
1572 23-12-2008 02:29:03 6.7 C 6.31 g/m*3 6.7 C 0 km/h
1573 23-12-2008 02:41:04 6.7 C 6.31 g/m*3 6.7 C 0 km/h
1574 23-12-2008 02:53:04 6.4 C 6.18 g/m*3 6.4 C 0 km/h
1575 23-12-2008 03:05:04 6.3 C 6.22 g/m*3 6.3 C 0 km/h
Sensor: Nr:Datum:Temp:Abs-Feuchte:Windchill:Wind:
Aussen-T/F 1576 23-12-2008 03:17:04 6.3 C 6.29 g/m*3 6.3 C 0 km/h
1577 23-12-2008 03:29:04 6.2 C 6.25 g/m*3 6.2 C 0 km/h
1578 23-12-2008 03:41:04 6.1 C 6.21 g/m*3 6.1 C 0 km/h
1579 23-12-2008 03:53:04 6.1 C 6.21 g/m*3 6.1 C 0 km/h
1580 23-12-2008 04:05:04 6 C 6.17 g/m*3 6 C 0 km/h
1581 23-12-2008 04:17:04 5.7 C 6.12 g/m*3 5.7 C 0 km/h
1582 23-12-2008 04:29:04 5.6 C 6.15 g/m*3 5.6 C 0 km/h
1583 23-12-2008 04:41:04 5.6 C 6.15 g/m*3 5.6 C 0 km/h
1584 23-12-2008 04:53:04 5.4 C 6.14 g/m*3 5.4 C 0 km/h
1585 23-12-2008 05:05:04 5.3 C 6.1 g/m*3 5.3 C 0 km/h
1586 23-12-2008 05:17:04 5.2 C 6.06 g/m*3 5.2 C 0 km/h
1587 23-12-2008 05:29:04 5.1 C 6.02 g/m*3 5.1 C 0 km/h
1588 23-12-2008 05:41:04 4.7 C 5.86 g/m*3 4.7 C 0 km/h
1589 23-12-2008 05:53:04 4.4 C 5.81 g/m*3 4.4 C 0 km/h
1590 23-12-2008 06:05:04 4.2 C 5.73 g/m*3 4.2 C 0 km/h
1591 23-12-2008 06:17:04 4.6 C 5.96 g/m*3 4.6 C 0 km/h
1592 23-12-2008 06:29:04 4.9 C 6.14 g/m*3 4.9 C 0 km/h
1593 23-12-2008 06:41:04 4.8 C 6.04 g/m*3 4.8 C 0 km/h
1594 23-12-2008 06:53:05 4.7 C 6 g/m*3 4.7 C 0 km/h
1595 23-12-2008 07:05:05 5 C 6.12 g/m*3 5 C 0 km/h
1596 23-12-2008 07:17:02 5 C 6.12 g/m*3 5 C 0 km/h
1597 23-12-2008 07:29:02 4.9 C 6.08 g/m*3 4.9 C 0 km/h
1598 23-12-2008 07:41:01 5.4 C 6.28 g/m*3 5.4 C 0 km/h
1599 23-12-2008 07:53:01 5.3 C 6.17 g/m*3 5.3 C 0 km/h
1600 23-12-2008 08:05:01 5.3 C 6.1 g/m*3 5.3 C 0 km/h
Sensor: Nr:Datum:Temp:Abs-Feuchte:Windchill:Wind:
Aussen-T/F 1601 23-12-2008 08:17:01 5.1 C 5.95 g/m*3 5.1 C 0 km/h
1602 23-12-2008 08:29:01 4.9 C 5.94 g/m*3 4.9 C 0 km/h
1603 23-12-2008 08:41:01 5 C 5.91 g/m*3 5 C 0 km/h
1604 23-12-2008 08:53:01 5 C 5.91 g/m*3 5 C 0 km/h
1605 23-12-2008 09:05:01 5 C 5.91 g/m*3 5 C 0 km/h
1606 23-12-2008 09:17:00 4.9 C 5.94 g/m*3 4.9 C 0 km/h
1607 23-12-2008 09:29:00 4.9 C 5.94 g/m*3 4.9 C 0 km/h
1608 23-12-2008 09:41:01 4.9 C 5.94 g/m*3 4.9 C 0 km/h
1609 23-12-2008 09:53:00 4.7 C 5.8 g/m*3 4.7 C 0 km/h
1610 23-12-2008 10:05:00 4.9 C 5.94 g/m*3 4.9 C 0 km/h
1611 23-12-2008 10:16:59 4.9 C 5.94 g/m*3 4.9 C 0 km/h
1612 23-12-2008 10:28:59 5 C 5.84 g/m*3 5 C 0 km/h
1613 23-12-2008 10:41:00 5.2 C 5.92 g/m*3 5.2 C 0 km/h
1614 23-12-2008 10:53:59 5.5 C 5.97 g/m*3 5.5 C 0 km/h
1615 23-12-2008 11:05:59 5.6 C 5.94 g/m*3 5.6 C 0 km/h
1616 23-12-2008 11:17:00 5.7 C 5.91 g/m*3 5.7 C 0 km/h
1617 23-12-2008 11:29:00 5.9 C 5.98 g/m*3 5.9 C 0 km/h
1618 23-12-2008 11:41:59 6.1 C 5.92 g/m*3 6.1 C 0 km/h
1619 23-12-2008 11:53:59 6.2 C 5.88 g/m*3 6.2 C 0 km/h
1620 23-12-2008 12:05:59 6.3 C 5.85 g/m*3 6.3 C 0 km/h
1621 23-12-2008 12:17:59 6.5 C 5.85 g/m*3 6.5 C 0 km/h
1622 23-12-2008 12:29:59 6.7 C 5.85 g/m*3 6.7 C 0 km/h
1623 23-12-2008 12:41:59 6.9 C 5.85 g/m*3 6.9 C 0 km/h
1624 23-12-2008 12:53:59 7.1 C 5.85 g/m*3 7.1 C 0 km/h
1625 23-12-2008 13:05:59 7.4 C 5.88 g/m*3 7.4 C 0 km/h
Sensor: Nr:Datum:Temp:Abs-Feuchte:Windchill:Wind:
Aussen-T/F 1626 23-12-2008 13:17:58 7.4 C 5.88 g/m*3 7.4 C 0 km/h
1627 23-12-2008 13:29:58 7.4 C 5.81 g/m*3 7.4 C 0 km/h
1628 23-12-2008 13:41:58 7.5 C 5.84 g/m*3 7.5 C 0 km/h
1629 23-12-2008 13:53:58 7.6 C 5.88 g/m*3 7.6 C 0 km/h
1630 23-12-2008 14:05:58 7.7 C 5.84 g/m*3 7.7 C 0 km/h
1631 23-12-2008 14:17:57 7.6 C 5.72 g/m*3 7.6 C 0 km/h
1632 23-12-2008 14:29:57 7.6 C 5.64 g/m*3 7.6 C 0 km/h
1633 23-12-2008 14:41:58 7.4 C 5.49 g/m*3 7.4 C 0 km/h
1634 23-12-2008 14:53:57 7.3 C 5.45 g/m*3 7.3 C 0 km/h
1635 23-12-2008 15:05:57 7.4 C 5.49 g/m*3 7.4 C 0 km/h
1636 23-12-2008 15:17:58 7.5 C 5.44 g/m*3 7.5 C 0 km/h
1637 23-12-2008 15:29:58 7.5 C 5.44 g/m*3 7.5 C 0 km/h
1638 23-12-2008 15:41:57 7.5 C 5.28 g/m*3 7.5 C 0 km/h
1639 23-12-2008 15:53:57 7.3 C 5.21 g/m*3 7.3 C 0 km/h
1640 23-12-2008 16:05:57 7.1 C 5.3 g/m*3 7.1 C 0 km/h
1641 23-12-2008 16:17:57 7.1 C 5.38 g/m*3 7.1 C 0 km/h
1642 23-12-2008 16:29:57 7 C 5.42 g/m*3 7 C 0 km/h
1643 23-12-2008 16:41:57 6.9 C 5.47 g/m*3 6.9 C 0 km/h
1644 23-12-2008 16:53:56 6.9 C 5.39 g/m*3 6.9 C 0 km/h
1645 23-12-2008 17:05:56 6.8 C 5.43 g/m*3 6.8 C 0 km/h
1646 23-12-2008 17:17:56 6.8 C 5.43 g/m*3 6.8 C 0 km/h
1647 23-12-2008 17:29:56 6.7 C 5.47 g/m*3 6.7 C 0 km/h
1648 23-12-2008 17:41:56 6.6 C 5.44 g/m*3 6.6 C 0 km/h
1649 23-12-2008 17:53:55 6.5 C 5.47 g/m*3 6.5 C 0 km/h
1650 23-12-2008 18:05:56 6.5 C 5.47 g/m*3 6.5 C 0 km/h
Sensor: Nr:Datum:Temp:Abs-Feuchte:Windchill:Wind:
Aussen-T/F 1651 23-12-2008 18:17:56 6.6 C 5.51 g/m*3 6.6 C 0 km/h
1652 23-12-2008 18:29:56 6.6 C 5.59 g/m*3 6.6 C 0 km/h
1653 23-12-2008 18:41:55 6.5 C 5.55 g/m*3 6.5 C 0 km/h
1654 23-12-2008 18:53:56 6.6 C 5.59 g/m*3 6.6 C 0 km/h
1655 23-12-2008 19:05:55 6.5 C 5.55 g/m*3 6.5 C 0 km/h
1656 23-12-2008 19:17:55 6.5 C 5.55 g/m*3 6.5 C 0 km/h
1657 23-12-2008 19:29:55 6.5 C 5.62 g/m*3 6.5 C 0 km/h
1658 23-12-2008 19:41:54 6.5 C 5.62 g/m*3 6.5 C 0 km/h
1659 23-12-2008 19:53:55 6.5 C 5.62 g/m*3 6.5 C 0 km/h
1660 23-12-2008 20:05:55 6.5 C 5.7 g/m*3 6.5 C 0 km/h
1661 23-12-2008 20:17:54 6.5 C 5.7 g/m*3 6.5 C 0 km/h
1662 23-12-2008 20:29:54 6.5 C 5.7 g/m*3 6.5 C 0 km/h
1663 23-12-2008 20:41:55 6.4 C 5.74 g/m*3 6.4 C 0 km/h
1664 23-12-2008 20:53:54 6.5 C 5.77 g/m*3 6.5 C 0 km/h
1665 23-12-2008 21:05:54 6.4 C 5.74 g/m*3 6.4 C 0 km/h
1666 23-12-2008 21:17:54 6.4 C 5.74 g/m*3 6.4 C 0 km/h
1667 23-12-2008 21:29:54 6.3 C 5.77 g/m*3 6.3 C 0 km/h
1668 23-12-2008 21:41:54 6.3 C 5.77 g/m*3 6.3 C 0 km/h
1669 23-12-2008 21:53:53 6.1 C 5.7 g/m*3 6.1 C 0 km/h
1670 23-12-2008 22:05:54 6.1 C 5.7 g/m*3 6.1 C 0 km/h
1671 23-12-2008 22:17:54 6.2 C 5.66 g/m*3 6.2 C 0 km/h
1672 23-12-2008 22:29:54 6.2 C 5.59 g/m*3 6.2 C 0 km/h
1673 23-12-2008 22:41:53 6.2 C 5.59 g/m*3 6.2 C 0 km/h
1674 23-12-2008 22:53:53 6.2 C 5.59 g/m*3 6.2 C 0 km/h
1675 23-12-2008 23:05:53 6.1 C 5.55 g/m*3 6.1 C 0 km/h
Sensor: Nr:Datum:Temp:Abs-Feuchte:Windchill:Wind:
Aussen-T/F 1676 23-12-2008 23:17:53 6.2 C 5.44 g/m*3 6.2 C 0 km/h
1677 23-12-2008 23:29:53 6.2 C 5.44 g/m*3 6.2 C 0 km/h
1678 23-12-2008 23:41:52 6.2 C 5.44 g/m*3 6.2 C 0 km/h
1679 23-12-2008 23:53:53 6.1 C 5.41 g/m*3 6.1 C 0 km/h
1680 24-12-2008 00:05:53 6.1 C 5.41 g/m*3 6.1 C 0 km/h
1681 24-12-2008 00:17:53 6 C 5.37 g/m*3 6 C 0 km/h
1682 24-12-2008 00:29:53 6.1 C 5.41 g/m*3 6.1 C 0 km/h
1683 24-12-2008 00:41:52 6.1 C 5.33 g/m*3 6.1 C 0 km/h
1684 24-12-2008 00:53:53 6 C 5.37 g/m*3 6 C 0 km/h
1685 24-12-2008 01:05:52 6 C 5.37 g/m*3 6 C 0 km/h
1686 24-12-2008 01:17:52 5.8 C 5.37 g/m*3 5.8 C 0 km/h
1687 24-12-2008 01:29:53 5.5 C 5.34 g/m*3 5.5 C 0 km/h
1688 24-12-2008 01:41:51 5.3 C 5.34 g/m*3 5.3 C 0 km/h
1689 24-12-2008 01:53:52 5.2 C 5.3 g/m*3 5.2 C 0 km/h
1690 24-12-2008 02:05:51 5.3 C 5.41 g/m*3 5.3 C 0 km/h
1691 24-12-2008 02:17:51 5.2 C 5.44 g/m*3 5.2 C 0 km/h
1692 24-12-2008 02:29:51 5.3 C 5.48 g/m*3 5.3 C 0 km/h
1693 24-12-2008 02:41:52 5.1 C 5.4 g/m*3 5.1 C 0 km/h
1694 24-12-2008 02:54:52 4.9 C 5.47 g/m*3 4.9 C 0 km/h
1695 24-12-2008 03:06:52 4.7 C 5.4 g/m*3 4.7 C 0 km/h
1696 24-12-2008 03:18:53 4.5 C 5.39 g/m*3 4.5 C 0 km/h
1697 24-12-2008 03:30:52 4.1 C 5.18 g/m*3 4.1 C 0 km/h
1698 24-12-2008 03:42:52 3.7 C 5.17 g/m*3 3.7 C 0 km/h
1699 24-12-2008 03:54:52 3.5 C 5.1 g/m*3 3.5 C 0 km/h
1700 24-12-2008 04:06:52 3.3 C 5.1 g/m*3 3.3 C 0 km/h
Sensor: Nr:Datum:Temp:Abs-Feuchte:Windchill:Wind:
Aussen-T/F 1701 24-12-2008 04:18:52 3 C 4.99 g/m*3 3 C 0 km/h
1702 24-12-2008 04:30:52 2.9 C 5.08 g/m*3 2.9 C 0 km/h
1703 24-12-2008 04:42:52 2.7 C 5.01 g/m*3 2.7 C 0 km/h
1704 24-12-2008 04:54:52 2.5 C 4.94 g/m*3 2.5 C 0 km/h
1705 24-12-2008 05:06:51 2.3 C 4.93 g/m*3 2.3 C 0 km/h
1706 24-12-2008 05:18:51 2.3 C 4.93 g/m*3 2.3 C 0 km/h
1707 24-12-2008 05:30:51 2.1 C 4.92 g/m*3 2.1 C 0 km/h
1708 24-12-2008 05:42:51 2 C 4.89 g/m*3 2 C 0 km/h
1709 24-12-2008 05:54:50 2.3 C 5.05 g/m*3 2.3 C 0 km/h
1710 24-12-2008 06:06:51 2.8 C 5.34 g/m*3 2.8 C 0 km/h
1711 24-12-2008 06:18:51 2.9 C 5.37 g/m*3 2.9 C 0 km/h
1712 24-12-2008 06:30:50 2.8 C 5.28 g/m*3 2.8 C 0 km/h
1713 24-12-2008 06:42:50 2.7 C 5.24 g/m*3 2.7 C 0 km/h
1714 24-12-2008 06:54:51 2.8 C 5.22 g/m*3 2.8 C 0 km/h
1715 24-12-2008 07:06:50 2.9 C 5.26 g/m*3 2.9 C 0 km/h
1716 24-12-2008 07:18:50 3 C 5.29 g/m*3 3 C 0 km/h
1717 24-12-2008 07:30:50 3.3 C 5.4 g/m*3 3.3 C 0 km/h
1718 24-12-2008 07:42:50 3.3 C 5.4 g/m*3 3.3 C 0 km/h
1719 24-12-2008 07:54:50 3.2 C 5.36 g/m*3 3.2 C 0 km/h
1720 24-12-2008 08:06:50 3.2 C 5.36 g/m*3 3.2 C 0 km/h
1721 24-12-2008 08:18:49 3.3 C 5.4 g/m*3 3.3 C 0 km/h
1722 24-12-2008 08:30:50 3.5 C 5.47 g/m*3 3.5 C 0 km/h
1723 24-12-2008 08:42:50 3.6 C 5.51 g/m*3 3.6 C 0 km/h
1724 24-12-2008 08:54:49 3.5 C 5.47 g/m*3 3.5 C 0 km/h
1725 24-12-2008 09:06:49 3.5 C 5.47 g/m*3 3.5 C 0 km/h
Sensor: Nr:Datum:Temp:Abs-Feuchte:Windchill:Wind:
Aussen-T/F 1726 24-12-2008 09:18:49 3.4 C 5.44 g/m*3 3.4 C 0 km/h
1727 24-12-2008 09:30:49 3.4 C 5.44 g/m*3 3.4 C 0 km/h
1728 24-12-2008 09:42:49 3.5 C 5.53 g/m*3 3.5 C 0 km/h
1729 24-12-2008 09:54:48 3.6 C 5.51 g/m*3 3.6 C 0 km/h
1730 24-12-2008 10:06:49 3.6 C 5.51 g/m*3 3.6 C 0 km/h
1731 24-12-2008 10:18:49 3.7 C 5.55 g/m*3 3.7 C 0 km/h
1732 24-12-2008 10:30:48 3.9 C 5.68 g/m*3 3.9 C 0 km/h
1733 24-12-2008 10:42:48 4 C 5.66 g/m*3 4 C 0 km/h
1734 24-12-2008 10:54:49 4 C 5.66 g/m*3 4 C 0 km/h
1735 24-12-2008 11:06:48 4.1 C 5.76 g/m*3 4.1 C 0 km/h
1736 24-12-2008 11:18:48 4.1 C 5.76 g/m*3 4.1 C 0 km/h
1737 24-12-2008 11:30:47 4.2 C 5.8 g/m*3 4.2 C 0 km/h
1738 24-12-2008 11:42:47 4.3 C 5.77 g/m*3 4.3 C 0 km/h
1739 24-12-2008 11:54:48 4.3 C 5.77 g/m*3 4.3 C 0 km/h
1740 24-12-2008 12:06:47 4.4 C 5.75 g/m*3 4.4 C 0 km/h
1741 24-12-2008 12:18:47 4.5 C 5.72 g/m*3 4.5 C 0 km/h
1742 24-12-2008 12:30:48 4.8 C 5.77 g/m*3 4.8 C 0 km/h
1743 24-12-2008 12:42:48 5 C 5.71 g/m*3 5 C 0 km/h
1744 24-12-2008 12:54:47 5.3 C 5.68 g/m*3 5.3 C 0 km/h
1745 24-12-2008 13:06:47 5.6 C 5.66 g/m*3 5.6 C 0 km/h
1746 24-12-2008 13:18:47 5.5 C 5.55 g/m*3 5.5 C 0 km/h
1747 24-12-2008 13:30:47 5.3 C 5.48 g/m*3 5.3 C 0 km/h
1748 24-12-2008 13:42:47 5.3 C 5.48 g/m*3 5.3 C 0 km/h
1749 24-12-2008 13:54:46 5.2 C 5.44 g/m*3 5.2 C 0 km/h
1750 24-12-2008 14:06:47 5.2 C 5.44 g/m*3 5.2 C 0 km/h
Sensor: Nr:Datum:Temp:Abs-Feuchte:Windchill:Wind:
Aussen-T/F 1751 24-12-2008 14:18:47 5.2 C 5.44 g/m*3 5.2 C 0 km/h
1752 24-12-2008 14:30:46 5.3 C 5.48 g/m*3 5.3 C 0 km/h
1753 24-12-2008 14:42:46 5.3 C 5.48 g/m*3 5.3 C 0 km/h
1754 24-12-2008 14:54:46 5.2 C 5.44 g/m*3 5.2 C 0 km/h
1755 24-12-2008 15:06:46 5.2 C 5.44 g/m*3 5.2 C 0 km/h
1756 24-12-2008 15:18:46 5.1 C 5.47 g/m*3 5.1 C 0 km/h
1757 24-12-2008 15:30:45 4.9 C 5.6 g/m*3 4.9 C 0 km/h
1758 24-12-2008 15:42:45 4.9 C 5.74 g/m*3 4.9 C 0 km/h
1759 24-12-2008 15:54:46 5.1 C 5.88 g/m*3 5.1 C 0 km/h
1760 24-12-2008 16:06:45 5.3 C 6.1 g/m*3 5.3 C 0 km/h
1761 24-12-2008 16:18:45 5.3 C 6.17 g/m*3 5.3 C 0 km/h
1762 24-12-2008 16:30:45 5.4 C 6.21 g/m*3 5.4 C 0 km/h
1763 24-12-2008 16:42:45 5.4 C 6.21 g/m*3 5.4 C 0 km/h
1764 24-12-2008 16:54:45 5.3 C 6.17 g/m*3 5.3 C 0 km/h
1765 24-12-2008 17:06:45 5.2 C 6.13 g/m*3 5.2 C 0 km/h
1766 24-12-2008 17:18:44 5.2 C 6.13 g/m*3 5.2 C 0 km/h
1767 24-12-2008 17:30:45 5.1 C 6.02 g/m*3 5.1 C 0 km/h
1768 24-12-2008 17:42:45 5.2 C 5.99 g/m*3 5.2 C 0 km/h
1769 24-12-2008 17:54:44 5.2 C 5.85 g/m*3 5.2 C 0 km/h
1770 24-12-2008 18:06:44 5.3 C 5.82 g/m*3 5.3 C 0 km/h
1771 24-12-2008 18:18:45 5.3 C 5.82 g/m*3 5.3 C 0 km/h
1772 24-12-2008 18:30:44 5.3 C 5.82 g/m*3 5.3 C 0 km/h
1773 24-12-2008 18:42:44 5.3 C 5.82 g/m*3 5.3 C 0 km/h
1774 24-12-2008 18:54:44 5.3 C 5.82 g/m*3 5.3 C 0 km/h
1775 24-12-2008 19:06:44 5.2 C 5.85 g/m*3 5.2 C 0 km/h
Sensor: Nr:Datum:Temp:Abs-Feuchte:Windchill:Wind:
Aussen-T/F 1776 24-12-2008 19:18:44 5.2 C 5.92 g/m*3 5.2 C 0 km/h
1777 24-12-2008 19:30:43 5.2 C 5.92 g/m*3 5.2 C 0 km/h
1778 24-12-2008 19:42:43 5.2 C 5.92 g/m*3 5.2 C 0 km/h
1779 24-12-2008 19:54:44 5.2 C 5.92 g/m*3 5.2 C 0 km/h
1780 24-12-2008 20:06:43 5.3 C 5.96 g/m*3 5.3 C 0 km/h
1781 24-12-2008 20:18:43 5.2 C 5.92 g/m*3 5.2 C 0 km/h
1782 24-12-2008 20:30:43 5.2 C 5.99 g/m*3 5.2 C 0 km/h
1783 24-12-2008 20:42:43 5.2 C 6.06 g/m*3 5.2 C 0 km/h
1784 24-12-2008 20:54:43 5.2 C 6.06 g/m*3 5.2 C 0 km/h
1785 24-12-2008 21:06:43 5.2 C 6.13 g/m*3 5.2 C 0 km/h
1786 24-12-2008 21:18:42 5.2 C 6.13 g/m*3 5.2 C 0 km/h
1787 24-12-2008 21:30:42 5.2 C 6.13 g/m*3 5.2 C 0 km/h
1788 24-12-2008 21:42:42 5.2 C 6.13 g/m*3 5.2 C 0 km/h
1789 24-12-2008 21:54:43 5.3 C 6.17 g/m*3 5.3 C 0 km/h
1790 24-12-2008 22:06:42 5.3 C 6.17 g/m*3 5.3 C 0 km/h
1791 24-12-2008 22:18:42 5.3 C 6.17 g/m*3 5.3 C 0 km/h
1792 24-12-2008 22:30:42 5.3 C 6.17 g/m*3 5.3 C 0 km/h
1793 24-12-2008 22:42:42 5.3 C 6.17 g/m*3 5.3 C 0 km/h
1794 24-12-2008 22:54:42 5.3 C 6.17 g/m*3 5.3 C 0 km/h
1795 24-12-2008 23:06:41 5.3 C 6.1 g/m*3 5.3 C 0 km/h
1796 24-12-2008 23:18:42 5.3 C 6.1 g/m*3 5.3 C 0 km/h
1797 24-12-2008 23:30:42 5.3 C 6.1 g/m*3 5.3 C 0 km/h
1798 24-12-2008 23:42:42 5.4 C 6.07 g/m*3 5.4 C 0 km/h
1799 24-12-2008 23:54:41 5.4 C 6 g/m*3 5.4 C 0 km/h
1800 25-12-2008 00:06:42 5.4 C 5.86 g/m*3 5.4 C 0 km/h
Sensor: Nr:Datum:Temp:Abs-Feuchte:Windchill:Wind:
Aussen-T/F 1801 25-12-2008 00:18:41 5.3 C 5.82 g/m*3 5.3 C 0 km/h
1802 25-12-2008 00:30:41 5.2 C 5.78 g/m*3 5.2 C 0 km/h
1803 25-12-2008 00:42:41 5.2 C 5.78 g/m*3 5.2 C 0 km/h
1804 25-12-2008 00:54:41 5.2 C 5.78 g/m*3 5.2 C 0 km/h
1805 25-12-2008 01:06:40 5.1 C 5.75 g/m*3 5.1 C 0 km/h
1806 25-12-2008 01:18:41 5 C 5.71 g/m*3 5 C 0 km/h
1807 25-12-2008 01:30:40 5 C 5.64 g/m*3 5 C 0 km/h
1808 25-12-2008 01:42:40 5.1 C 5.47 g/m*3 5.1 C 0 km/h
1809 25-12-2008 01:54:40 5.2 C 5.37 g/m*3 5.2 C 0 km/h
1810 25-12-2008 02:06:40 5.3 C 5.41 g/m*3 5.3 C 0 km/h
1811 25-12-2008 02:18:40 4.7 C 5.26 g/m*3 4.7 C 0 km/h
1812 25-12-2008 02:30:40 4.8 C 5.43 g/m*3 4.8 C 0 km/h
1813 25-12-2008 02:42:40 4.9 C 5.54 g/m*3 4.9 C 0 km/h
1814 25-12-2008 02:55:41 5 C 5.5 g/m*3 5 C 0 km/h
1815 25-12-2008 03:07:41 5 C 5.57 g/m*3 5 C 0 km/h
1816 25-12-2008 03:19:41 4.8 C 5.5 g/m*3 4.8 C 0 km/h
1817 25-12-2008 03:31:41 4.5 C 5.46 g/m*3 4.5 C 0 km/h
1818 25-12-2008 03:43:41 4.3 C 5.38 g/m*3 4.3 C 0 km/h
1819 25-12-2008 03:55:41 4.2 C 5.41 g/m*3 4.2 C 0 km/h
1820 25-12-2008 04:07:40 4.4 C 5.55 g/m*3 4.4 C 0 km/h
1821 25-12-2008 04:19:40 4.5 C 5.59 g/m*3 4.5 C 0 km/h
1822 25-12-2008 04:31:41 4.6 C 5.62 g/m*3 4.6 C 0 km/h
1823 25-12-2008 04:43:41 4.6 C 5.62 g/m*3 4.6 C 0 km/h
1824 25-12-2008 04:55:40 4.6 C 5.56 g/m*3 4.6 C 0 km/h
1825 25-12-2008 05:07:40 4.6 C 5.56 g/m*3 4.6 C 0 km/h
Sensor: Nr:Datum:Temp:Abs-Feuchte:Windchill:Wind:
Aussen-T/F 1826 25-12-2008 05:19:40 4.6 C 5.56 g/m*3 4.6 C 0 km/h
1827 25-12-2008 05:31:40 4.6 C 5.56 g/m*3 4.6 C 0 km/h
1828 25-12-2008 05:43:40 4.7 C 5.6 g/m*3 4.7 C 0 km/h
1829 25-12-2008 05:55:40 4.7 C 5.53 g/m*3 4.7 C 0 km/h
1830 25-12-2008 06:07:40 4.7 C 5.53 g/m*3 4.7 C 0 km/h
1831 25-12-2008 06:19:39 4.7 C 5.53 g/m*3 4.7 C 0 km/h
1832 25-12-2008 06:31:39 4.7 C 5.53 g/m*3 4.7 C 0 km/h
1833 25-12-2008 06:43:39 4.7 C 5.46 g/m*3 4.7 C 0 km/h
1834 25-12-2008 06:55:39 4.7 C 5.46 g/m*3 4.7 C 0 km/h
1835 25-12-2008 07:07:39 4.8 C 5.5 g/m*3 4.8 C 0 km/h
1836 25-12-2008 07:19:38 4.8 C 5.43 g/m*3 4.8 C 0 km/h
1837 25-12-2008 07:31:39 4.8 C 5.43 g/m*3 4.8 C 0 km/h
1838 25-12-2008 07:43:39 4.8 C 5.43 g/m*3 4.8 C 0 km/h
1839 25-12-2008 07:55:38 4.8 C 5.43 g/m*3 4.8 C 0 km/h
1840 25-12-2008 08:07:38 4.7 C 5.4 g/m*3 4.7 C 0 km/h
1841 25-12-2008 08:19:39 4.7 C 5.4 g/m*3 4.7 C 0 km/h
1842 25-12-2008 08:31:38 4.7 C 5.4 g/m*3 4.7 C 0 km/h
1843 25-12-2008 08:43:38 4.8 C 5.43 g/m*3 4.8 C 0 km/h
1844 25-12-2008 08:55:38 4.8 C 5.43 g/m*3 4.8 C 0 km/h
1845 25-12-2008 09:07:38 4.8 C 5.43 g/m*3 4.8 C 0 km/h
1846 25-12-2008 09:24:38 5 C 5.44 g/m*3 5 C 0 km/h
1847 25-12-2008 09:36:37 5.1 C 5.47 g/m*3 5.1 C 0 km/h
1848 25-12-2008 09:48:38 5.3 C 5.48 g/m*3 5.3 C 0 km/h
1849 25-12-2008 10:00:37 5.4 C 5.58 g/m*3 5.4 C 0 km/h
1850 25-12-2008 10:12:37 5.7 C 5.62 g/m*3 5.7 C 0 km/h
Sensor: Nr:Datum:Temp:Abs-Feuchte:Windchill:Wind:
Aussen-T/F 1851 25-12-2008 10:24:37 5.8 C 5.59 g/m*3 5.8 C 0 km/h
1852 25-12-2008 10:36:37 6 C 5.52 g/m*3 6 C 0 km/h
1853 25-12-2008 10:48:37 6.2 C 5.44 g/m*3 6.2 C 0 km/h
1854 25-12-2008 11:00:36 6.3 C 5.4 g/m*3 6.3 C 0 km/h
1855 25-12-2008 11:12:36 6.3 C 5.33 g/m*3 6.3 C 0 km/h
1856 25-12-2008 11:25:37 6.3 C 5.26 g/m*3 6.3 C 0 km/h
1857 25-12-2008 11:37:36 6.4 C 5.07 g/m*3 6.4 C 0 km/h
1858 25-12-2008 11:49:37 6.9 C 4.93 g/m*3 6.9 C 0 km/h
1859 25-12-2008 12:01:36 7 C 4.8 g/m*3 7 C 0 km/h
1860 25-12-2008 12:13:36 7 C 4.8 g/m*3 7 C 0 km/h
1861 25-12-2008 12:25:36 6.9 C 4.85 g/m*3 6.9 C 0 km/h
1862 25-12-2008 12:37:36 7.1 C 4.76 g/m*3 7.1 C 0 km/h
1863 25-12-2008 12:49:36 7.1 C 4.6 g/m*3 7.1 C 0 km/h
1864 25-12-2008 13:01:35 7 C 4.65 g/m*3 7 C 0 km/h
1865 25-12-2008 13:13:35 7 C 4.65 g/m*3 7 C 0 km/h
1866 25-12-2008 13:25:36 6.9 C 4.7 g/m*3 6.9 C 0 km/h
1867 25-12-2008 13:37:35 7 C 4.57 g/m*3 7 C 0 km/h
1868 25-12-2008 13:49:35 7 C 4.49 g/m*3 7 C 0 km/h
1869 25-12-2008 14:01:35 7.1 C 4.37 g/m*3 7.1 C 0 km/h
1870 25-12-2008 14:13:35 7.1 C 4.52 g/m*3 7.1 C 0 km/h
1871 25-12-2008 14:25:35 7.1 C 4.37 g/m*3 7.1 C 0 km/h
1872 25-12-2008 14:37:35 7 C 4.26 g/m*3 7 C 0 km/h
1873 25-12-2008 14:49:35 7.1 C 4.21 g/m*3 7.1 C 0 km/h
1874 25-12-2008 15:01:35 7.2 C 4.24 g/m*3 7.2 C 0 km/h
1875 25-12-2008 15:13:35 7.1 C 4.29 g/m*3 7.1 C 0 km/h
Sensor: Nr:Datum:Temp:Abs-Feuchte:Windchill:Wind:
Aussen-T/F 1876 25-12-2008 15:25:35 7 C 4.26 g/m*3 7 C 0 km/h
1877 25-12-2008 15:37:34 6.9 C 4.39 g/m*3 6.9 C 0 km/h
1878 25-12-2008 15:49:34 6.6 C 4.45 g/m*3 6.6 C 0 km/h
1879 25-12-2008 16:01:34 6.1 C 4.24 g/m*3 6.1 C 0 km/h
1880 25-12-2008 16:13:34 5.9 C 4.33 g/m*3 5.9 C 0 km/h
1881 25-12-2008 16:25:34 5.6 C 4.31 g/m*3 5.6 C 0 km/h
1882 25-12-2008 16:37:34 5.1 C 4.24 g/m*3 5.1 C 0 km/h
1883 25-12-2008 16:49:33 4.8 C 4.29 g/m*3 4.8 C 0 km/h
1884 25-12-2008 17:01:34 4.7 C 4.26 g/m*3 4.7 C 0 km/h
1885 25-12-2008 17:13:34 4.5 C 4.14 g/m*3 4.5 C 0 km/h
1886 25-12-2008 17:25:33 4.2 C 4.12 g/m*3 4.2 C 0 km/h
1887 25-12-2008 17:37:34 4 C 4.07 g/m*3 4 C 0 km/h
1888 25-12-2008 17:49:34 3.7 C 3.99 g/m*3 3.7 C 0 km/h
1889 25-12-2008 18:01:33 3.5 C 3.87 g/m*3 3.5 C 0 km/h
1890 25-12-2008 18:13:34 3.3 C 3.76 g/m*3 3.3 C 0 km/h
1891 25-12-2008 18:25:33 3.1 C 3.47 g/m*3 3.1 C 0 km/h
1892 25-12-2008 18:37:33 3 C 3.33 g/m*3 3 C 0 km/h
1893 25-12-2008 18:49:33 2.7 C 3.38 g/m*3 2.7 C 0 km/h
1894 25-12-2008 19:01:32 2.4 C 3.31 g/m*3 2.4 C 0 km/h
1895 25-12-2008 19:13:32 2.2 C 3.27 g/m*3 2.2 C 0 km/h
1896 25-12-2008 19:25:33 1.8 C 3.18 g/m*3 1.8 C 0 km/h
1897 25-12-2008 19:37:32 1.5 C 3.12 g/m*3 1.5 C 0 km/h
1898 25-12-2008 19:49:32 1.3 C 3.07 g/m*3 1.3 C 0 km/h
1899 25-12-2008 20:01:32 1.1 C 3.08 g/m*3 1.1 C 0 km/h
1900 25-12-2008 20:13:32 1 C 3.11 g/m*3 1 C 0 km/h
Sensor: Nr:Datum:Temp:Abs-Feuchte:Windchill:Wind:
Aussen-T/F 1901 25-12-2008 20:25:31 1 C 3.06 g/m*3 1 C 0 km/h
1902 25-12-2008 20:37:32 1 C 3.06 g/m*3 1 C 0 km/h
1903 25-12-2008 20:49:32 1.1 C 3.08 g/m*3 1.1 C 0 km/h
1904 25-12-2008 21:01:32 1 C 3.01 g/m*3 1 C 0 km/h
1905 25-12-2008 21:13:32 1 C 3.01 g/m*3 1 C 0 km/h
1906 25-12-2008 21:25:31 0.9 C 2.99 g/m*3 0.9 C 0 km/h
1907 25-12-2008 21:37:31 0.8 C 2.97 g/m*3 0.8 C 0 km/h
1908 25-12-2008 21:49:31 0.7 C 2.9 g/m*3 0.7 C 0 km/h
1909 25-12-2008 22:01:31 0.6 C 2.88 g/m*3 0.6 C 0 km/h
1910 25-12-2008 22:13:31 0.6 C 2.88 g/m*3 0.6 C 0 km/h
1911 25-12-2008 22:25:31 0.5 C 2.86 g/m*3 0.5 C 0 km/h
1912 25-12-2008 22:37:31 0.6 C 2.93 g/m*3 0.6 C 0 km/h
1913 25-12-2008 22:49:30 0.7 C 2.9 g/m*3 0.7 C 0 km/h
1914 25-12-2008 23:01:30 0.5 C 2.86 g/m*3 0.5 C 0 km/h
1915 25-12-2008 23:13:30 0.3 C 2.82 g/m*3 0.3 C 0 km/h
1916 25-12-2008 23:25:30 0 C 2.81 g/m*3 0 C 0 km/h
1917 25-12-2008 23:37:30 -0.4 C 2.83 g/m*3 -0.4 C 0 km/h
1918 25-12-2008 23:49:29 -0.5 C 2.81 g/m*3 -0.5 C 0 km/h
1919 26-12-2008 00:01:30 -0.6 C 2.79 g/m*3 -0.6 C 0 km/h
1920 26-12-2008 00:13:30 -0.6 C 2.79 g/m*3 -0.6 C 0 km/h
1921 26-12-2008 00:25:30 -0.7 C 2.82 g/m*3 -0.7 C 0 km/h
1922 26-12-2008 00:37:29 -0.7 C 2.82 g/m*3 -0.7 C 0 km/h
1923 26-12-2008 00:49:30 -0.5 C 2.86 g/m*3 -0.5 C 0 km/h
1924 26-12-2008 01:01:29 -0.2 C 2.91 g/m*3 -0.2 C 0 km/h
1925 26-12-2008 01:13:29 0.2 C 2.95 g/m*3 0.2 C 0 km/h
Sensor: Nr:Datum:Temp:Abs-Feuchte:Windchill:Wind:
Aussen-T/F 1926 26-12-2008 01:25:29 0.4 C 2.94 g/m*3 0.4 C 0 km/h
1927 26-12-2008 01:37:29 0.5 C 2.91 g/m*3 0.5 C 0 km/h
1928 26-12-2008 01:49:29 0.5 C 2.86 g/m*3 0.5 C 0 km/h
1929 26-12-2008 02:01:28 0.5 C 2.81 g/m*3 0.5 C 0 km/h
1930 26-12-2008 02:13:28 0.4 C 2.84 g/m*3 0.4 C 0 km/h
1931 26-12-2008 02:25:29 0.2 C 2.8 g/m*3 0.2 C 0 km/h
1932 26-12-2008 02:37:29 0.2 C 2.75 g/m*3 0.2 C 0 km/h
1933 26-12-2008 02:50:01 0.2 C 2.7 g/m*3 0.2 C 0 km/h
1934 26-12-2008 03:02:01 0.1 C 2.68 g/m*3 0.1 C 0 km/h
1935 26-12-2008 03:14:01 -0.2 C 2.58 g/m*3 -0.2 C 0 km/h
1936 26-12-2008 03:26:01 -0.5 C 2.48 g/m*3 -0.5 C 0 km/h
1937 26-12-2008 03:38:02 -0.6 C 2.46 g/m*3 -0.6 C 0 km/h
1938 26-12-2008 03:50:02 -0.8 C 2.48 g/m*3 -0.8 C 0 km/h
1939 26-12-2008 04:02:01 -0.8 C 2.52 g/m*3 -0.8 C 0 km/h
1940 26-12-2008 04:14:01 -0.9 C 2.5 g/m*3 -0.9 C 0 km/h
1941 26-12-2008 04:26:01 -1 C 2.49 g/m*3 -1 C 0 km/h
1942 26-12-2008 04:38:02 -1 C 2.49 g/m*3 -1 C 0 km/h
1943 26-12-2008 04:50:01 -1.1 C 2.47 g/m*3 -1.1 C 0 km/h
1944 26-12-2008 05:02:01 -1.1 C 2.47 g/m*3 -1.1 C 0 km/h
1945 26-12-2008 05:14:01 -1.2 C 2.5 g/m*3 -1.2 C 0 km/h
1946 26-12-2008 05:26:01 -1.3 C 2.48 g/m*3 -1.3 C 0 km/h
1947 26-12-2008 05:38:01 -1.3 C 2.48 g/m*3 -1.3 C 0 km/h
1948 26-12-2008 05:50:01 -1.4 C 2.51 g/m*3 -1.4 C 0 km/h
1949 26-12-2008 06:02:01 -1.4 C 2.51 g/m*3 -1.4 C 0 km/h
1950 26-12-2008 06:14:01 -1.6 C 2.47 g/m*3 -1.6 C 0 km/h
Sensor: Nr:Datum:Temp:Abs-Feuchte:Windchill:Wind:
Aussen-T/F 1951 26-12-2008 06:26:01 -1.6 C 2.47 g/m*3 -1.6 C 0 km/h
1952 26-12-2008 06:38:01 -1.6 C 2.47 g/m*3 -1.6 C 0 km/h
1953 26-12-2008 06:50:01 -1.7 C 2.45 g/m*3 -1.7 C 0 km/h
1954 26-12-2008 07:02:01 -1.7 C 2.45 g/m*3 -1.7 C 0 km/h
1955 26-12-2008 07:14:01 -1.7 C 2.5 g/m*3 -1.7 C 0 km/h
1956 26-12-2008 07:26:02 -1.8 C 2.48 g/m*3 -1.8 C 0 km/h
1957 26-12-2008 07:38:01 -1.7 C 2.5 g/m*3 -1.7 C 0 km/h
1958 26-12-2008 07:50:02 -1.8 C 2.44 g/m*3 -1.8 C 0 km/h
1959 26-12-2008 08:02:01 -1.9 C 2.46 g/m*3 -1.9 C 0 km/h
1960 26-12-2008 08:14:01 -1.9 C 2.46 g/m*3 -1.9 C 0 km/h
1961 26-12-2008 08:26:01 -2 C 2.49 g/m*3 -2 C 0 km/h
1962 26-12-2008 08:38:01 -2 C 2.49 g/m*3 -2 C 0 km/h
1963 26-12-2008 08:50:01 -2 C 2.53 g/m*3 -2 C 0 km/h
1964 26-12-2008 09:02:02 -2 C 2.53 g/m*3 -2 C 0 km/h
1965 26-12-2008 09:14:02 -1.9 C 2.55 g/m*3 -1.9 C 0 km/h
1966 26-12-2008 09:26:01 -1.9 C 2.55 g/m*3 -1.9 C 0 km/h
1967 26-12-2008 09:38:02 -1.8 C 2.56 g/m*3 -1.8 C 0 km/h
1968 26-12-2008 09:50:01 -1.7 C 2.58 g/m*3 -1.7 C 0 km/h
1969 26-12-2008 10:02:02 -1.6 C 2.6 g/m*3 -1.6 C 0 km/h
1970 26-12-2008 10:14:02 -1.5 C 2.58 g/m*3 -1.5 C 0 km/h
1971 26-12-2008 10:26:01 -1.5 C 2.58 g/m*3 -1.5 C 0 km/h
1972 26-12-2008 10:38:02 -1.4 C 2.55 g/m*3 -1.4 C 0 km/h
1973 26-12-2008 10:50:01 -1.3 C 2.57 g/m*3 -1.3 C 0 km/h
1974 26-12-2008 11:02:02 -1.2 C 2.54 g/m*3 -1.2 C 0 km/h
1975 26-12-2008 11:14:02 -1 C 2.58 g/m*3 -1 C 0 km/h
Sensor: Nr:Datum:Temp:Abs-Feuchte:Windchill:Wind:
Aussen-T/F 1976 26-12-2008 11:26:01 -0.8 C 2.52 g/m*3 -0.8 C 0 km/h
1977 26-12-2008 11:38:01 -0.9 C 2.5 g/m*3 -0.9 C 0 km/h
1978 26-12-2008 11:50:01 -0.8 C 2.52 g/m*3 -0.8 C 0 km/h
1979 26-12-2008 12:02:01 -0.6 C 2.51 g/m*3 -0.6 C 0 km/h
1980 26-12-2008 12:14:01 -0.6 C 2.51 g/m*3 -0.6 C 0 km/h
1981 26-12-2008 12:26:01 -0.5 C 2.53 g/m*3 -0.5 C 0 km/h
1982 26-12-2008 12:38:01 -0.3 C 2.56 g/m*3 -0.3 C 0 km/h
1983 26-12-2008 12:50:01 -0.2 C 2.48 g/m*3 -0.2 C 0 km/h
1984 26-12-2008 13:02:01 0 C 2.52 g/m*3 0 C 0 km/h
1985 26-12-2008 13:14:01 0.1 C 2.54 g/m*3 0.1 C 0 km/h
1986 26-12-2008 13:26:02 0.2 C 2.55 g/m*3 0.2 C 0 km/h
1987 26-12-2008 13:38:01 0.4 C 2.54 g/m*3 0.4 C 0 km/h
1988 26-12-2008 13:50:02 0.3 C 2.57 g/m*3 0.3 C 0 km/h
1989 26-12-2008 14:02:01 0.4 C 2.54 g/m*3 0.4 C 0 km/h
1990 26-12-2008 14:14:01 0.4 C 2.54 g/m*3 0.4 C 0 km/h
1991 26-12-2008 14:26:02 0.5 C 2.56 g/m*3 0.5 C 0 km/h
1992 26-12-2008 14:38:01 0.5 C 2.56 g/m*3 0.5 C 0 km/h
1993 26-12-2008 14:50:01 0.5 C 2.56 g/m*3 0.5 C 0 km/h
1994 26-12-2008 15:02:01 0.6 C 2.52 g/m*3 0.6 C 0 km/h
1995 26-12-2008 15:14:01 0.6 C 2.52 g/m*3 0.6 C 0 km/h
1996 26-12-2008 15:26:01 0.5 C 2.56 g/m*3 0.5 C 0 km/h
1997 26-12-2008 15:38:02 0.6 C 2.58 g/m*3 0.6 C 0 km/h
1998 26-12-2008 15:50:01 0.3 C 2.57 g/m*3 0.3 C 0 km/h
1999 26-12-2008 16:02:02 0.2 C 2.6 g/m*3 0.2 C 0 km/h
2000 26-12-2008 16:14:02 -0.3 C 2.66 g/m*3 -0.3 C 0 km/h
Sensor: Nr:Datum:Temp:Abs-Feuchte:Windchill:Wind:
Aussen-T/F 2001 26-12-2008 16:26:01 -0.5 C 2.67 g/m*3 -0.5 C 0 km/h
2002 26-12-2008 16:38:01 -0.5 C 2.67 g/m*3 -0.5 C 0 km/h
2003 26-12-2008 16:50:01 -0.5 C 2.62 g/m*3 -0.5 C 0 km/h
2004 26-12-2008 17:02:01 -0.7 C 2.58 g/m*3 -0.7 C 0 km/h
2005 26-12-2008 17:14:01 -1 C 2.62 g/m*3 -1 C 0 km/h
2006 26-12-2008 17:26:01 -1.3 C 2.61 g/m*3 -1.3 C 0 km/h
2007 26-12-2008 17:38:01 -1.3 C 2.66 g/m*3 -1.3 C 0 km/h
2008 26-12-2008 17:50:01 -1.3 C 2.61 g/m*3 -1.3 C 0 km/h
2009 26-12-2008 18:02:01 -1.4 C 2.59 g/m*3 -1.4 C 0 km/h
2010 26-12-2008 18:14:01 -1.6 C 2.64 g/m*3 -1.6 C 0 km/h
2011 26-12-2008 18:26:02 -1.9 C 2.63 g/m*3 -1.9 C 0 km/h
2012 26-12-2008 18:38:01 -2 C 2.66 g/m*3 -2 C 0 km/h
2013 26-12-2008 18:50:02 -2.1 C 2.64 g/m*3 -2.1 C 0 km/h
2014 26-12-2008 19:02:01 -2.1 C 2.68 g/m*3 -2.1 C 0 km/h
2015 26-12-2008 19:14:01 -2 C 2.7 g/m*3 -2 C 0 km/h
2016 26-12-2008 19:26:01 -1.9 C 2.63 g/m*3 -1.9 C 0 km/h
2017 26-12-2008 19:38:01 -2.3 C 2.64 g/m*3 -2.3 C 0 km/h
2018 26-12-2008 19:50:01 -2.4 C 2.66 g/m*3 -2.4 C 0 km/h
2019 26-12-2008 20:02:02 -2.5 C 2.69 g/m*3 -2.5 C 0 km/h
2020 26-12-2008 20:14:02 -2.4 C 2.66 g/m*3 -2.4 C 0 km/h
2021 26-12-2008 20:26:01 -2.3 C 2.64 g/m*3 -2.3 C 0 km/h
2022 26-12-2008 20:38:02 -2.5 C 2.6 g/m*3 -2.5 C 0 km/h
2023 26-12-2008 20:50:01 -2.5 C 2.6 g/m*3 -2.5 C 0 km/h
2024 26-12-2008 21:02:02 -2.6 C 2.59 g/m*3 -2.6 C 0 km/h
2025 26-12-2008 21:14:02 -2.6 C 2.59 g/m*3 -2.6 C 0 km/h
Sensor: Nr:Datum:Temp:Abs-Feuchte:Windchill:Wind:
Aussen-T/F 2026 26-12-2008 21:26:01 -2.7 C 2.57 g/m*3 -2.7 C 0 km/h
2027 26-12-2008 21:38:02 -2.8 C 2.59 g/m*3 -2.8 C 0 km/h
2028 26-12-2008 21:50:01 -3 C 2.55 g/m*3 -3 C 0 km/h
2029 26-12-2008 22:02:02 -3 C 2.59 g/m*3 -3 C 0 km/h
2030 26-12-2008 22:14:02 -3.1 C 2.57 g/m*3 -3.1 C 0 km/h
2031 26-12-2008 22:26:01 -3.1 C 2.61 g/m*3 -3.1 C 0 km/h
2032 26-12-2008 22:38:01 -3.1 C 2.57 g/m*3 -3.1 C 0 km/h
2033 26-12-2008 22:50:01 -3.1 C 2.57 g/m*3 -3.1 C 0 km/h
2034 26-12-2008 23:02:01 -3.2 C 2.59 g/m*3 -3.2 C 0 km/h
2035 26-12-2008 23:14:01 -3.3 C 2.58 g/m*3 -3.3 C 0 km/h
2036 26-12-2008 23:26:02 -3.6 C 2.56 g/m*3 -3.6 C 0 km/h
2037 26-12-2008 23:38:01 -3.5 C 2.65 g/m*3 -3.5 C 0 km/h
2038 26-12-2008 23:50:02 -3.4 C 2.67 g/m*3 -3.4 C 0 km/h
2039 27-12-2008 00:02:01 -3.4 C 2.63 g/m*3 -3.4 C 0 km/h
2040 27-12-2008 00:14:01 -3.3 C 2.65 g/m*3 -3.3 C 0 km/h
2041 27-12-2008 00:26:02 -3.2 C 2.71 g/m*3 -3.2 C 0 km/h
2042 27-12-2008 00:38:01 -3.1 C 2.69 g/m*3 -3.1 C 0 km/h
2043 27-12-2008 00:50:02 -3.1 C 2.69 g/m*3 -3.1 C 0 km/h
2044 27-12-2008 01:02:01 -3.1 C 2.69 g/m*3 -3.1 C 0 km/h
2045 27-12-2008 01:14:01 -3 C 2.67 g/m*3 -3 C 0 km/h
2046 27-12-2008 01:26:02 -3.1 C 2.65 g/m*3 -3.1 C 0 km/h
2047 27-12-2008 01:38:01 -3 C 2.71 g/m*3 -3 C 0 km/h
2048 27-12-2008 01:50:02 -2.9 C 2.73 g/m*3 -2.9 C 0 km/h
2049 27-12-2008 02:02:01 -2.8 C 2.71 g/m*3 -2.8 C 0 km/h
2050 27-12-2008 02:14:01 -2.8 C 2.67 g/m*3 -2.8 C 0 km/h
Sensor: Nr:Datum:Temp:Abs-Feuchte:Windchill:Wind:
Aussen-T/F 2051 27-12-2008 02:26:01 -2.8 C 2.67 g/m*3 -2.8 C 0 km/h
2052 27-12-2008 02:38:02 -2.9 C 2.65 g/m*3 -2.9 C 0 km/h
2053 27-12-2008 02:50:19 -2.7 C 2.69 g/m*3 -2.7 C 0 km/h
2054 27-12-2008 03:02:19 -2.7 C 2.69 g/m*3 -2.7 C 0 km/h
2055 27-12-2008 03:14:18 -2.7 C 2.69 g/m*3 -2.7 C 0 km/h
2056 27-12-2008 03:26:18 -2.7 C 2.65 g/m*3 -2.7 C 0 km/h
2057 27-12-2008 03:38:18 -2.7 C 2.65 g/m*3 -2.7 C 0 km/h
2058 27-12-2008 03:50:19 -2.8 C 2.67 g/m*3 -2.8 C 0 km/h
2059 27-12-2008 04:02:18 -2.7 C 2.65 g/m*3 -2.7 C 0 km/h
2060 27-12-2008 04:14:18 -2.5 C 2.69 g/m*3 -2.5 C 0 km/h
2061 27-12-2008 04:26:18 -2.5 C 2.65 g/m*3 -2.5 C 0 km/h
2062 27-12-2008 04:38:18 -2.5 C 2.65 g/m*3 -2.5 C 0 km/h
2063 27-12-2008 04:50:18 -2.5 C 2.65 g/m*3 -2.5 C 0 km/h
2064 27-12-2008 05:02:18 -2.5 C 2.65 g/m*3 -2.5 C 0 km/h
2065 27-12-2008 05:14:17 -2.4 C 2.62 g/m*3 -2.4 C 0 km/h
2066 27-12-2008 05:26:17 -2.3 C 2.64 g/m*3 -2.3 C 0 km/h
2067 27-12-2008 05:38:18 -2.3 C 2.6 g/m*3 -2.3 C 0 km/h
2068 27-12-2008 05:50:17 -2.3 C 2.56 g/m*3 -2.3 C 0 km/h
2069 27-12-2008 06:02:18 -2.3 C 2.6 g/m*3 -2.3 C 0 km/h
2070 27-12-2008 06:14:17 -2.3 C 2.6 g/m*3 -2.3 C 0 km/h
2071 27-12-2008 06:26:17 -2.3 C 2.6 g/m*3 -2.3 C 0 km/h
2072 27-12-2008 06:38:17 -2.3 C 2.56 g/m*3 -2.3 C 0 km/h
2073 27-12-2008 06:50:16 -2.3 C 2.56 g/m*3 -2.3 C 0 km/h
2074 27-12-2008 07:02:17 -2.4 C 2.54 g/m*3 -2.4 C 0 km/h
2075 27-12-2008 07:14:16 -2.3 C 2.52 g/m*3 -2.3 C 0 km/h
Sensor: Nr:Datum:Temp:Abs-Feuchte:Windchill:Wind:
Aussen-T/F 2076 27-12-2008 07:26:16 -2.3 C 2.52 g/m*3 -2.3 C 0 km/h
2077 27-12-2008 07:38:16 -2.1 C 2.6 g/m*3 -2.1 C 0 km/h
2078 27-12-2008 07:50:16 -2.3 C 2.56 g/m*3 -2.3 C 0 km/h
2079 27-12-2008 08:02:16 -2.4 C 2.54 g/m*3 -2.4 C 0 km/h
2080 27-12-2008 08:14:16 -2.4 C 2.54 g/m*3 -2.4 C 0 km/h
2081 27-12-2008 08:26:16 -2.4 C 2.54 g/m*3 -2.4 C 0 km/h
2082 27-12-2008 08:38:16 -2.3 C 2.56 g/m*3 -2.3 C 0 km/h
2083 27-12-2008 08:50:16 -2.1 C 2.55 g/m*3 -2.1 C 0 km/h
2084 27-12-2008 09:02:15 -2.1 C 2.55 g/m*3 -2.1 C 0 km/h
2085 27-12-2008 09:14:15 -2 C 2.53 g/m*3 -2 C 0 km/h
2086 27-12-2008 09:26:16 -2 C 2.49 g/m*3 -2 C 0 km/h
2087 27-12-2008 09:38:15 -1.9 C 2.46 g/m*3 -1.9 C 0 km/h
2088 27-12-2008 09:50:16 -1.7 C 2.5 g/m*3 -1.7 C 0 km/h
2089 27-12-2008 10:02:16 -1.7 C 2.45 g/m*3 -1.7 C 0 km/h
2090 27-12-2008 10:14:14 -1.6 C 2.47 g/m*3 -1.6 C 0 km/h
2091 27-12-2008 10:26:14 -1.4 C 2.46 g/m*3 -1.4 C 0 km/h
2092 27-12-2008 10:38:15 -1.3 C 2.43 g/m*3 -1.3 C 0 km/h
2093 27-12-2008 10:50:14 -1.2 C 2.45 g/m*3 -1.2 C 0 km/h
2094 27-12-2008 11:02:15 -1 C 2.49 g/m*3 -1 C 0 km/h
2095 27-12-2008 11:14:14 -1 C 2.49 g/m*3 -1 C 0 km/h
2096 27-12-2008 11:26:14 -0.8 C 2.48 g/m*3 -0.8 C 0 km/h
2097 27-12-2008 11:38:15 -0.6 C 2.51 g/m*3 -0.6 C 0 km/h
2098 27-12-2008 11:50:14 -0.6 C 2.46 g/m*3 -0.6 C 0 km/h
2099 27-12-2008 12:02:14 -0.6 C 2.42 g/m*3 -0.6 C 0 km/h
2100 27-12-2008 12:14:14 -0.4 C 2.45 g/m*3 -0.4 C 0 km/h
Sensor: Nr:Datum:Temp:Abs-Feuchte:Windchill:Wind:
Aussen-T/F 2101 27-12-2008 12:26:14 -0.2 C 2.48 g/m*3 -0.2 C 0 km/h
2102 27-12-2008 12:38:13 0 C 2.47 g/m*3 0 C 0 km/h
2103 27-12-2008 12:50:14 0 C 2.47 g/m*3 0 C 0 km/h
2104 27-12-2008 13:02:13 -0.1 C 2.41 g/m*3 -0.1 C 0 km/h
2105 27-12-2008 13:14:13 -0.2 C 2.44 g/m*3 -0.2 C 0 km/h
2106 27-12-2008 13:26:13 -0.3 C 2.42 g/m*3 -0.3 C 0 km/h
2107 27-12-2008 13:38:13 -0.4 C 2.4 g/m*3 -0.4 C 0 km/h
2108 27-12-2008 13:50:13 -0.5 C 2.39 g/m*3 -0.5 C 0 km/h
2109 27-12-2008 14:02:13 -0.6 C 2.37 g/m*3 -0.6 C 0 km/h
2110 27-12-2008 14:14:12 -0.7 C 2.35 g/m*3 -0.7 C 0 km/h
2111 27-12-2008 14:26:12 -0.7 C 2.4 g/m*3 -0.7 C 0 km/h
2112 27-12-2008 14:38:13 -0.7 C 2.4 g/m*3 -0.7 C 0 km/h
2113 27-12-2008 14:50:12 -0.8 C 2.38 g/m*3 -0.8 C 0 km/h
2114 27-12-2008 15:02:12 -0.7 C 2.45 g/m*3 -0.7 C 0 km/h
2115 27-12-2008 15:14:12 -0.6 C 2.46 g/m*3 -0.6 C 0 km/h
2116 27-12-2008 15:26:12 -0.6 C 2.46 g/m*3 -0.6 C 0 km/h
2117 27-12-2008 15:38:12 -0.8 C 2.43 g/m*3 -0.8 C 0 km/h
2118 27-12-2008 15:50:11 -0.9 C 2.46 g/m*3 -0.9 C 0 km/h
2119 27-12-2008 16:02:12 -1 C 2.49 g/m*3 -1 C 0 km/h
2120 27-12-2008 16:14:12 -1.1 C 2.47 g/m*3 -1.1 C 0 km/h
2121 27-12-2008 16:26:12 -1.1 C 2.47 g/m*3 -1.1 C 0 km/h
2122 27-12-2008 16:38:11 -1.2 C 2.45 g/m*3 -1.2 C 0 km/h
2123 27-12-2008 16:50:12 -1.3 C 2.43 g/m*3 -1.3 C 0 km/h
2124 27-12-2008 17:02:11 -1.3 C 2.48 g/m*3 -1.3 C 0 km/h
2125 27-12-2008 17:14:11 -1.2 C 2.5 g/m*3 -1.2 C 0 km/h
Sensor: Nr:Datum:Temp:Abs-Feuchte:Windchill:Wind:
Aussen-T/F 2126 27-12-2008 17:26:11 -1.2 C 2.5 g/m*3 -1.2 C 0 km/h
2127 27-12-2008 17:38:11 -1.3 C 2.48 g/m*3 -1.3 C 0 km/h
2128 27-12-2008 17:50:37 -1.4 C 2.51 g/m*3 -1.4 C 0 km/h
2129 27-12-2008 18:02:37 -1.4 C 2.51 g/m*3 -1.4 C 0 km/h
2130 27-12-2008 18:14:38 -1.4 C 2.51 g/m*3 -1.4 C 0 km/h
2131 27-12-2008 18:26:38 -1.4 C 2.51 g/m*3 -1.4 C 0 km/h
2132 27-12-2008 18:38:38 -1.4 C 2.51 g/m*3 -1.4 C 0 km/h
2133 27-12-2008 18:50:38 -1.4 C 2.51 g/m*3 -1.4 C 0 km/h
2134 27-12-2008 19:02:38 -1.4 C 2.55 g/m*3 -1.4 C 0 km/h
2135 27-12-2008 19:14:38 -1.5 C 2.53 g/m*3 -1.5 C 0 km/h
2136 27-12-2008 19:26:02 -1.6 C 2.51 g/m*3 -1.6 C 0 km/h
2137 27-12-2008 19:38:01 -1.6 C 2.56 g/m*3 -1.6 C 0 km/h
2138 27-12-2008 19:50:01 -1.6 C 2.56 g/m*3 -1.6 C 0 km/h
2139 27-12-2008 20:02:01 -1.6 C 2.6 g/m*3 -1.6 C 0 km/h
2140 27-12-2008 20:14:01 -1.6 C 2.6 g/m*3 -1.6 C 0 km/h
2141 27-12-2008 20:26:00 -1.8 C 2.56 g/m*3 -1.8 C 0 km/h
2142 27-12-2008 20:38:00 -1.9 C 2.59 g/m*3 -1.9 C 0 km/h
2143 27-12-2008 20:50:00 -2 C 2.57 g/m*3 -2 C 0 km/h
2144 27-12-2008 21:02:00 -1.9 C 2.59 g/m*3 -1.9 C 0 km/h
2145 27-12-2008 21:14:00 -2 C 2.57 g/m*3 -2 C 0 km/h
2146 27-12-2008 21:26:00 -2.1 C 2.6 g/m*3 -2.1 C 0 km/h
2147 27-12-2008 21:38:00 -2.2 C 2.62 g/m*3 -2.2 C 0 km/h
2148 27-12-2008 21:50:00 -2.2 C 2.58 g/m*3 -2.2 C 0 km/h
2149 27-12-2008 22:02:59 -2.3 C 2.6 g/m*3 -2.3 C 0 km/h
2150 27-12-2008 22:14:00 -2.4 C 2.58 g/m*3 -2.4 C 0 km/h
Sensor: Nr:Datum:Temp:Abs-Feuchte:Windchill:Wind:
Aussen-T/F 2151 27-12-2008 22:26:00 -2.5 C 2.56 g/m*3 -2.5 C 0 km/h
2152 27-12-2008 22:38:59 -2.7 C 2.57 g/m*3 -2.7 C 0 km/h
2153 27-12-2008 22:50:59 -2.8 C 2.59 g/m*3 -2.8 C 0 km/h
2154 27-12-2008 23:02:00 -2.9 C 2.57 g/m*3 -2.9 C 0 km/h
2155 27-12-2008 23:14:00 -3 C 2.55 g/m*3 -3 C 0 km/h
2156 27-12-2008 23:26:59 -3.1 C 2.57 g/m*3 -3.1 C 0 km/h
2157 27-12-2008 23:38:59 -3.2 C 2.56 g/m*3 -3.2 C 0 km/h
2158 27-12-2008 23:50:59 -3.3 C 2.58 g/m*3 -3.3 C 0 km/h
2159 28-12-2008 00:02:59 -3.2 C 2.59 g/m*3 -3.2 C 0 km/h
2160 28-12-2008 00:14:59 -3.2 C 2.59 g/m*3 -3.2 C 0 km/h
2161 28-12-2008 00:26:59 -3.1 C 2.57 g/m*3 -3.1 C 0 km/h
2162 28-12-2008 00:38:58 -3.1 C 2.57 g/m*3 -3.1 C 0 km/h
2163 28-12-2008 00:50:59 -3 C 2.55 g/m*3 -3 C 0 km/h
2164 28-12-2008 01:02:58 -3 C 2.55 g/m*3 -3 C 0 km/h
2165 28-12-2008 01:14:58 -3.1 C 2.54 g/m*3 -3.1 C 0 km/h
2166 28-12-2008 01:26:58 -3.1 C 2.54 g/m*3 -3.1 C 0 km/h
2167 28-12-2008 01:38:57 -3.1 C 2.54 g/m*3 -3.1 C 0 km/h
2168 28-12-2008 01:50:58 -3.4 C 2.48 g/m*3 -3.4 C 0 km/h
2169 28-12-2008 02:02:57 -3.5 C 2.5 g/m*3 -3.5 C 0 km/h
2170 28-12-2008 02:14:57 -3.7 C 2.47 g/m*3 -3.7 C 0 km/h
2171 28-12-2008 02:26:57 -3.7 C 2.5 g/m*3 -3.7 C 0 km/h
2172 28-12-2008 02:38:57 -3.5 C 2.54 g/m*3 -3.5 C 0 km/h
2173 28-12-2008 02:51:58 -3.4 C 2.56 g/m*3 -3.4 C 0 km/h
2174 28-12-2008 03:03:58 -3.7 C 2.5 g/m*3 -3.7 C 0 km/h
2175 28-12-2008 03:15:58 -3.6 C 2.56 g/m*3 -3.6 C 0 km/h
Sensor: Nr:Datum:Temp:Abs-Feuchte:Windchill:Wind:
Aussen-T/F 2176 28-12-2008 03:27:58 -3.5 C 2.58 g/m*3 -3.5 C 0 km/h
2177 28-12-2008 03:39:58 -3.3 C 2.61 g/m*3 -3.3 C 0 km/h
2178 28-12-2008 03:51:58 -3.3 C 2.58 g/m*3 -3.3 C 0 km/h
2179 28-12-2008 04:03:58 -3.1 C 2.57 g/m*3 -3.1 C 0 km/h
2180 28-12-2008 04:15:58 -3.1 C 2.54 g/m*3 -3.1 C 0 km/h
2181 28-12-2008 04:27:58 -3 C 2.55 g/m*3 -3 C 0 km/h
2182 28-12-2008 04:39:58 -2.8 C 2.55 g/m*3 -2.8 C 0 km/h
2183 28-12-2008 04:51:58 -2.6 C 2.55 g/m*3 -2.6 C 0 km/h
2184 28-12-2008 05:03:57 -2.6 C 2.51 g/m*3 -2.6 C 0 km/h
2185 28-12-2008 05:15:57 -2.5 C 2.52 g/m*3 -2.5 C 0 km/h
2186 28-12-2008 05:27:57 -2.4 C 2.5 g/m*3 -2.4 C 0 km/h
2187 28-12-2008 05:39:57 -2.4 C 2.5 g/m*3 -2.4 C 0 km/h
2188 28-12-2008 05:51:56 -2.5 C 2.48 g/m*3 -2.5 C 0 km/h
2189 28-12-2008 06:03:57 -2.5 C 2.48 g/m*3 -2.5 C 0 km/h
2190 28-12-2008 06:15:57 -2.7 C 2.45 g/m*3 -2.7 C 0 km/h
2191 28-12-2008 06:27:57 -2.7 C 2.45 g/m*3 -2.7 C 0 km/h
2192 28-12-2008 06:39:56 -2.8 C 2.47 g/m*3 -2.8 C 0 km/h
2193 28-12-2008 06:51:57 -2.7 C 2.45 g/m*3 -2.7 C 0 km/h
2194 28-12-2008 07:03:56 -2.5 C 2.48 g/m*3 -2.5 C 0 km/h
2195 28-12-2008 07:15:56 -2.7 C 2.45 g/m*3 -2.7 C 0 km/h
2196 28-12-2008 07:27:56 -2.8 C 2.43 g/m*3 -2.8 C 0 km/h
2197 28-12-2008 07:39:56 -3.1 C 2.38 g/m*3 -3.1 C 0 km/h
2198 28-12-2008 07:51:56 -3.5 C 2.35 g/m*3 -3.5 C 0 km/h
2199 28-12-2008 08:03:55 -3.7 C 2.43 g/m*3 -3.7 C 0 km/h
2200 28-12-2008 08:15:55 -4 C 2.38 g/m*3 -4 C 0 km/h
Sensor: Nr:Datum:Temp:Abs-Feuchte:Windchill:Wind:
Aussen-T/F 2201 28-12-2008 08:27:55 -4.1 C 2.43 g/m*3 -4.1 C 0 km/h
2202 28-12-2008 08:39:55 -4.2 C 2.45 g/m*3 -4.2 C 0 km/h
2203 28-12-2008 08:51:55 -4.3 C 2.43 g/m*3 -4.3 C 0 km/h
2204 28-12-2008 09:03:55 -4.2 C 2.49 g/m*3 -4.2 C 0 km/h
2205 28-12-2008 09:15:55 -4.2 C 2.49 g/m*3 -4.2 C 0 km/h
2206 28-12-2008 09:27:55 -4.1 C 2.51 g/m*3 -4.1 C 0 km/h
2207 28-12-2008 09:39:55 -4.1 C 2.51 g/m*3 -4.1 C 0 km/h
2208 28-12-2008 09:51:54 -3.9 C 2.54 g/m*3 -3.9 C 0 km/h
2209 28-12-2008 10:03:55 -3.5 C 2.58 g/m*3 -3.5 C 0 km/h
2210 28-12-2008 10:15:54 -3.2 C 2.56 g/m*3 -3.2 C 0 km/h
2211 28-12-2008 10:27:54 -2.9 C 2.53 g/m*3 -2.9 C 0 km/h
2212 28-12-2008 10:39:54 -2.8 C 2.51 g/m*3 -2.8 C 0 km/h
2213 28-12-2008 10:51:54 -2.7 C 2.49 g/m*3 -2.7 C 0 km/h
2214 28-12-2008 11:03:54 -2.7 C 2.49 g/m*3 -2.7 C 0 km/h
2215 28-12-2008 11:15:54 -2.5 C 2.48 g/m*3 -2.5 C 0 km/h
2216 28-12-2008 11:27:54 -2.4 C 2.5 g/m*3 -2.4 C 0 km/h
2217 28-12-2008 11:39:53 -2.4 C 2.5 g/m*3 -2.4 C 0 km/h
2218 28-12-2008 11:51:54 -2 C 2.53 g/m*3 -2 C 0 km/h
2219 28-12-2008 12:03:53 -2 C 2.53 g/m*3 -2 C 0 km/h
2220 28-12-2008 12:15:53 -1.9 C 2.5 g/m*3 -1.9 C 0 km/h
2221 28-12-2008 12:27:53 -1.8 C 2.48 g/m*3 -1.8 C 0 km/h
2222 28-12-2008 12:39:53 -1.7 C 2.5 g/m*3 -1.7 C 0 km/h
2223 28-12-2008 12:51:53 -1.4 C 2.51 g/m*3 -1.4 C 0 km/h
2224 28-12-2008 13:03:52 -1.4 C 2.51 g/m*3 -1.4 C 0 km/h
2225 28-12-2008 13:15:53 -1.3 C 2.48 g/m*3 -1.3 C 0 km/h
Sensor: Nr:Datum:Temp:Abs-Feuchte:Windchill:Wind:
Aussen-T/F 2226 28-12-2008 13:27:53 -1.3 C 2.48 g/m*3 -1.3 C 0 km/h
2227 28-12-2008 13:39:53 -1.2 C 2.5 g/m*3 -1.2 C 0 km/h
2228 28-12-2008 13:51:52 -1.1 C 2.51 g/m*3 -1.1 C 0 km/h
2229 28-12-2008 14:03:53 -1.1 C 2.47 g/m*3 -1.1 C 0 km/h
2230 28-12-2008 14:15:52 -1.1 C 2.47 g/m*3 -1.1 C 0 km/h
2231 28-12-2008 14:27:52 -1.1 C 2.51 g/m*3 -1.1 C 0 km/h
2232 28-12-2008 14:39:52 -1.2 C 2.5 g/m*3 -1.2 C 0 km/h
2233 28-12-2008 14:51:52 -1.5 C 2.53 g/m*3 -1.5 C 0 km/h
2234 28-12-2008 15:03:52 -1.4 C 2.55 g/m*3 -1.4 C 0 km/h
2235 28-12-2008 15:15:51 -1.4 C 2.51 g/m*3 -1.4 C 0 km/h
2236 28-12-2008 15:27:51 -1.3 C 2.52 g/m*3 -1.3 C 0 km/h
2237 28-12-2008 15:39:51 -1.2 C 2.54 g/m*3 -1.2 C 0 km/h
2238 28-12-2008 15:51:51 -1.3 C 2.52 g/m*3 -1.3 C 0 km/h
2239 28-12-2008 16:03:51 -1.6 C 2.51 g/m*3 -1.6 C 0 km/h
2240 28-12-2008 16:15:51 -1.6 C 2.47 g/m*3 -1.6 C 0 km/h
2241 28-12-2008 16:27:51 -1.9 C 2.46 g/m*3 -1.9 C 0 km/h
2242 28-12-2008 16:39:51 -2.4 C 2.42 g/m*3 -2.4 C 0 km/h
2243 28-12-2008 16:51:51 -2.2 C 2.49 g/m*3 -2.2 C 0 km/h
2244 28-12-2008 17:03:50 -2.5 C 2.48 g/m*3 -2.5 C 0 km/h
2245 28-12-2008 17:15:51 -2.7 C 2.49 g/m*3 -2.7 C 0 km/h
2246 28-12-2008 17:27:51 -2.8 C 2.51 g/m*3 -2.8 C 0 km/h
2247 28-12-2008 17:39:50 -2.9 C 2.53 g/m*3 -2.9 C 0 km/h
2248 28-12-2008 17:51:50 -3.1 C 2.54 g/m*3 -3.1 C 0 km/h
2249 28-12-2008 18:03:50 -3.2 C 2.52 g/m*3 -3.2 C 0 km/h
2250 28-12-2008 18:15:50 -3.3 C 2.54 g/m*3 -3.3 C 0 km/h
Sensor: Nr:Datum:Temp:Abs-Feuchte:Windchill:Wind:
Aussen-T/F 2251 28-12-2008 18:27:50 -3.3 C 2.58 g/m*3 -3.3 C 0 km/h
2252 28-12-2008 18:39:50 -3.3 C 2.58 g/m*3 -3.3 C 0 km/h
2253 28-12-2008 18:51:49 -3.3 C 2.58 g/m*3 -3.3 C 0 km/h
2254 28-12-2008 19:03:50 -3.5 C 2.54 g/m*3 -3.5 C 0 km/h
2255 28-12-2008 19:15:50 -3.5 C 2.58 g/m*3 -3.5 C 0 km/h
2256 28-12-2008 19:27:50 -3.4 C 2.6 g/m*3 -3.4 C 0 km/h
2257 28-12-2008 19:39:49 -3.6 C 2.56 g/m*3 -3.6 C 0 km/h
2258 28-12-2008 19:51:49 -3.4 C 2.6 g/m*3 -3.4 C 0 km/h
2259 28-12-2008 20:03:49 -3.5 C 2.58 g/m*3 -3.5 C 0 km/h
2260 28-12-2008 20:15:49 -3.7 C 2.58 g/m*3 -3.7 C 0 km/h
2261 28-12-2008 20:27:49 -3.9 C 2.54 g/m*3 -3.9 C 0 km/h
2262 28-12-2008 20:39:48 -4 C 2.56 g/m*3 -4 C 0 km/h
2263 28-12-2008 20:51:49 -3.9 C 2.62 g/m*3 -3.9 C 0 km/h
2264 28-12-2008 21:03:48 -4 C 2.6 g/m*3 -4 C 0 km/h
2265 28-12-2008 21:15:48 -4.1 C 2.58 g/m*3 -4.1 C 0 km/h
2266 28-12-2008 21:27:48 -4.3 C 2.54 g/m*3 -4.3 C 0 km/h
2267 28-12-2008 21:39:48 -4.4 C 2.56 g/m*3 -4.4 C 0 km/h
2268 28-12-2008 21:51:48 -4.5 C 2.58 g/m*3 -4.5 C 0 km/h
2269 28-12-2008 22:03:47 -4.5 C 2.61 g/m*3 -4.5 C 0 km/h
2270 28-12-2008 22:15:47 -4.6 C 2.59 g/m*3 -4.6 C 0 km/h
2271 28-12-2008 22:27:47 -4.6 C 2.59 g/m*3 -4.6 C 0 km/h
2272 28-12-2008 22:39:48 -4.8 C 2.59 g/m*3 -4.8 C 0 km/h
2273 28-12-2008 22:51:47 -4.8 C 2.59 g/m*3 -4.8 C 0 km/h
2274 28-12-2008 23:03:47 -4.8 C 2.59 g/m*3 -4.8 C 0 km/h
2275 28-12-2008 23:15:47 -5.1 C 2.54 g/m*3 -5.1 C 0 km/h
Sensor: Nr:Datum:Temp:Abs-Feuchte:Windchill:Wind:
Aussen-T/F 2276 28-12-2008 23:27:47 -5.2 C 2.55 g/m*3 -5.2 C 0 km/h
2277 28-12-2008 23:39:47 -5 C 2.59 g/m*3 -5 C 0 km/h
2278 28-12-2008 23:51:46 -5.2 C 2.58 g/m*3 -5.2 C 0 km/h
2279 29-12-2008 00:03:47 -5.2 C 2.58 g/m*3 -5.2 C 0 km/h
2280 29-12-2008 00:15:46 -5.3 C 2.57 g/m*3 -5.3 C 0 km/h
2281 29-12-2008 00:27:46 -5.2 C 2.58 g/m*3 -5.2 C 0 km/h
2282 29-12-2008 00:39:46 -5.3 C 2.57 g/m*3 -5.3 C 0 km/h
2283 29-12-2008 00:51:46 -5.3 C 2.57 g/m*3 -5.3 C 0 km/h
2284 29-12-2008 01:03:46 -5.5 C 2.53 g/m*3 -5.5 C 0 km/h
2285 29-12-2008 01:15:45 -5.5 C 2.53 g/m*3 -5.5 C 0 km/h
2286 29-12-2008 01:27:45 -5.6 C 2.54 g/m*3 -5.6 C 0 km/h
2287 29-12-2008 01:39:46 -5.7 C 2.52 g/m*3 -5.7 C 0 km/h
2288 29-12-2008 01:51:45 -5.8 C 2.51 g/m*3 -5.8 C 0 km/h
2289 29-12-2008 02:03:45 -5.7 C 2.56 g/m*3 -5.7 C 0 km/h
2290 29-12-2008 02:15:46 -5.7 C 2.56 g/m*3 -5.7 C 0 km/h
2291 29-12-2008 02:27:46 -6 C 2.5 g/m*3 -6 C 0 km/h
2292 29-12-2008 02:39:45 -6.1 C 2.48 g/m*3 -6.1 C 0 km/h
2293 29-12-2008 02:52:47 -6.2 C 2.47 g/m*3 -6.2 C 0 km/h
2294 29-12-2008 03:04:47 -6.2 C 2.5 g/m*3 -6.2 C 0 km/h
2295 29-12-2008 03:16:47 -6.2 C 2.5 g/m*3 -6.2 C 0 km/h
2296 29-12-2008 03:28:47 -6.1 C 2.55 g/m*3 -6.1 C 0 km/h
2297 29-12-2008 03:40:46 -6.2 C 2.53 g/m*3 -6.2 C 0 km/h
2298 29-12-2008 03:52:46 -6.2 C 2.53 g/m*3 -6.2 C 0 km/h
2299 29-12-2008 04:04:46 -6.2 C 2.53 g/m*3 -6.2 C 0 km/h
2300 29-12-2008 04:16:47 -6.4 C 2.49 g/m*3 -6.4 C 0 km/h
Sensor: Nr:Datum:Temp:Abs-Feuchte:Windchill:Wind:
Aussen-T/F 2301 29-12-2008 04:28:47 -6.4 C 2.49 g/m*3 -6.4 C 0 km/h
2302 29-12-2008 04:40:46 -6.4 C 2.52 g/m*3 -6.4 C 0 km/h
2303 29-12-2008 04:52:46 -6.5 C 2.5 g/m*3 -6.5 C 0 km/h
2304 29-12-2008 05:04:46 -6.5 C 2.5 g/m*3 -6.5 C 0 km/h
2305 29-12-2008 05:16:45 -6.7 C 2.47 g/m*3 -6.7 C 0 km/h
2306 29-12-2008 05:28:45 -6.8 C 2.45 g/m*3 -6.8 C 0 km/h
2307 29-12-2008 05:40:46 -6.9 C 2.43 g/m*3 -6.9 C 0 km/h
2308 29-12-2008 05:52:46 -6.9 C 2.43 g/m*3 -6.9 C 0 km/h
2309 29-12-2008 06:04:45 -7.1 C 2.4 g/m*3 -7.1 C 0 km/h
2310 29-12-2008 06:16:45 -7.1 C 2.4 g/m*3 -7.1 C 0 km/h
2311 29-12-2008 06:28:46 -6.9 C 2.46 g/m*3 -6.9 C 0 km/h
2312 29-12-2008 06:40:44 -7 C 2.44 g/m*3 -7 C 0 km/h
2313 29-12-2008 06:52:45 -7.1 C 2.43 g/m*3 -7.1 C 0 km/h
2314 29-12-2008 07:04:44 -7.2 C 2.41 g/m*3 -7.2 C 0 km/h
2315 29-12-2008 07:16:44 -7.3 C 2.39 g/m*3 -7.3 C 0 km/h
2316 29-12-2008 07:28:44 -7.4 C 2.37 g/m*3 -7.4 C 0 km/h
2317 29-12-2008 07:40:45 -7.7 C 2.32 g/m*3 -7.7 C 0 km/h
2318 29-12-2008 07:52:44 -7.8 C 2.3 g/m*3 -7.8 C 0 km/h
2319 29-12-2008 08:04:44 -7.7 C 2.32 g/m*3 -7.7 C 0 km/h
2320 29-12-2008 08:16:44 -7.6 C 2.37 g/m*3 -7.6 C 0 km/h
2321 29-12-2008 08:28:44 -7.7 C 2.35 g/m*3 -7.7 C 0 km/h
2322 29-12-2008 08:40:44 -7.7 C 2.35 g/m*3 -7.7 C 0 km/h
2323 29-12-2008 08:52:44 -7.8 C 2.33 g/m*3 -7.8 C 0 km/h
2324 29-12-2008 09:04:43 -7.9 C 2.31 g/m*3 -7.9 C 0 km/h
2325 29-12-2008 09:16:44 -7.7 C 2.35 g/m*3 -7.7 C 0 km/h
Sensor: Nr:Datum:Temp:Abs-Feuchte:Windchill:Wind:
Aussen-T/F 2326 29-12-2008 09:28:44 -7.6 C 2.39 g/m*3 -7.6 C 0 km/h
2327 29-12-2008 09:40:43 -7.5 C 2.41 g/m*3 -7.5 C 0 km/h
2328 29-12-2008 09:52:43 -7.4 C 2.43 g/m*3 -7.4 C 0 km/h
2329 29-12-2008 10:04:43 -7.2 C 2.47 g/m*3 -7.2 C 0 km/h
2330 29-12-2008 10:16:43 -7 C 2.5 g/m*3 -7 C 0 km/h
2331 29-12-2008 10:28:43 -6.9 C 2.52 g/m*3 -6.9 C 0 km/h
2332 29-12-2008 10:40:42 -6.6 C 2.61 g/m*3 -6.6 C 0 km/h
2333 29-12-2008 10:52:42 -6.3 C 2.66 g/m*3 -6.3 C 0 km/h
2334 29-12-2008 11:04:43 -6.2 C 2.68 g/m*3 -6.2 C 0 km/h
2335 29-12-2008 11:16:42 -6.1 C 2.7 g/m*3 -6.1 C 0 km/h
2336 29-12-2008 11:28:42 -5.7 C 2.78 g/m*3 -5.7 C 0 km/h
2337 29-12-2008 11:40:42 -5.5 C 2.82 g/m*3 -5.5 C 0 km/h
2338 29-12-2008 11:52:42 -5.3 C 2.87 g/m*3 -5.3 C 0 km/h
2339 29-12-2008 12:04:41 -5.1 C 2.87 g/m*3 -5.1 C 0 km/h
2340 29-12-2008 12:16:42 -4.9 C 2.92 g/m*3 -4.9 C 0 km/h
2341 29-12-2008 12:28:42 -4.7 C 2.92 g/m*3 -4.7 C 0 km/h
2342 29-12-2008 12:40:42 -4.5 C 2.93 g/m*3 -4.5 C 0 km/h
2343 29-12-2008 12:52:41 -4.3 C 2.9 g/m*3 -4.3 C 0 km/h
2344 29-12-2008 13:04:42 -4 C 2.89 g/m*3 -4 C 0 km/h
2345 29-12-2008 13:16:41 -3.8 C 2.89 g/m*3 -3.8 C 0 km/h
2346 29-12-2008 13:28:41 -3.6 C 2.86 g/m*3 -3.6 C 0 km/h
2347 29-12-2008 13:40:41 -3.4 C 2.83 g/m*3 -3.4 C 0 km/h
2348 29-12-2008 13:52:41 -3.1 C 2.85 g/m*3 -3.1 C 0 km/h
2349 29-12-2008 14:04:41 -3 C 2.79 g/m*3 -3 C 0 km/h
2350 29-12-2008 14:16:40 -2.9 C 2.81 g/m*3 -2.9 C 0 km/h
Sensor: Nr:Datum:Temp:Abs-Feuchte:Windchill:Wind:
Aussen-T/F 2351 29-12-2008 14:28:40 -2.7 C 2.81 g/m*3 -2.7 C 0 km/h
2352 29-12-2008 14:40:41 -2.7 C 2.77 g/m*3 -2.7 C 0 km/h
2353 29-12-2008 14:52:41 -2.8 C 2.75 g/m*3 -2.8 C 0 km/h
2354 29-12-2008 15:04:40 -2.7 C 2.77 g/m*3 -2.7 C 0 km/h
2355 29-12-2008 15:16:40 -2.6 C 2.79 g/m*3 -2.6 C 0 km/h
2356 29-12-2008 15:28:40 -2.8 C 2.75 g/m*3 -2.8 C 0 km/h
2357 29-12-2008 15:40:40 -2.8 C 2.79 g/m*3 -2.8 C 0 km/h
2358 29-12-2008 15:52:40 -3 C 2.75 g/m*3 -3 C 0 km/h
2359 29-12-2008 16:04:40 -3 C 2.79 g/m*3 -3 C 0 km/h
2360 29-12-2008 16:16:39 -3.1 C 2.81 g/m*3 -3.1 C 0 km/h
2361 29-12-2008 16:28:39 -3.3 C 2.77 g/m*3 -3.3 C 0 km/h
2362 29-12-2008 16:40:38 -3.4 C 2.79 g/m*3 -3.4 C 0 km/h
2363 29-12-2008 16:52:38 -3.5 C 2.77 g/m*3 -3.5 C 0 km/h
2364 29-12-2008 17:04:38 -3.5 C 2.77 g/m*3 -3.5 C 0 km/h
2365 29-12-2008 17:16:38 -3.7 C 2.73 g/m*3 -3.7 C 0 km/h
2366 29-12-2008 17:28:38 -3.9 C 2.69 g/m*3 -3.9 C 0 km/h
2367 29-12-2008 17:40:38 -4 C 2.71 g/m*3 -4 C 0 km/h
2368 29-12-2008 17:52:38 -4 C 2.74 g/m*3 -4 C 0 km/h
2369 29-12-2008 18:04:38 -4.1 C 2.76 g/m*3 -4.1 C 0 km/h
2370 29-12-2008 18:16:38 -4.3 C 2.72 g/m*3 -4.3 C 0 km/h
2371 29-12-2008 18:28:38 -4.2 C 2.74 g/m*3 -4.2 C 0 km/h
2372 29-12-2008 18:40:37 -4.2 C 2.74 g/m*3 -4.2 C 0 km/h
2373 29-12-2008 18:52:37 -4.4 C 2.7 g/m*3 -4.4 C 0 km/h
2374 29-12-2008 19:04:37 -4.5 C 2.68 g/m*3 -4.5 C 0 km/h
2375 29-12-2008 19:16:37 -4.6 C 2.7 g/m*3 -4.6 C 0 km/h
Sensor: Nr:Datum:Temp:Abs-Feuchte:Windchill:Wind:
Aussen-T/F 2376 29-12-2008 19:28:37 -4.7 C 2.68 g/m*3 -4.7 C 0 km/h
2377 29-12-2008 19:40:37 -4.9 C 2.64 g/m*3 -4.9 C 0 km/h
2378 29-12-2008 19:52:37 -4.9 C 2.68 g/m*3 -4.9 C 0 km/h
2379 29-12-2008 20:04:37 -4.9 C 2.68 g/m*3 -4.9 C 0 km/h
2380 29-12-2008 20:16:36 -5.2 C 2.62 g/m*3 -5.2 C 0 km/h
2381 29-12-2008 20:28:36 -5.2 C 2.65 g/m*3 -5.2 C 0 km/h
2382 29-12-2008 20:40:37 -5.3 C 2.63 g/m*3 -5.3 C 0 km/h
2383 29-12-2008 20:52:36 -5.4 C 2.61 g/m*3 -5.4 C 0 km/h
2384 29-12-2008 21:04:36 -5.5 C 2.59 g/m*3 -5.5 C 0 km/h
2385 29-12-2008 21:16:36 -5.6 C 2.61 g/m*3 -5.6 C 0 km/h
2386 29-12-2008 21:28:36 -5.8 C 2.57 g/m*3 -5.8 C 0 km/h
2387 29-12-2008 21:40:36 -5.9 C 2.55 g/m*3 -5.9 C 0 km/h
2388 29-12-2008 21:53:37 -6 C 2.53 g/m*3 -6 C 0 km/h
2389 29-12-2008 22:05:37 -6 C 2.53 g/m*3 -6 C 0 km/h
2390 29-12-2008 22:17:37 -6 C 2.57 g/m*3 -6 C 0 km/h
2391 29-12-2008 22:29:37 -6.1 C 2.55 g/m*3 -6.1 C 0 km/h
2392 29-12-2008 22:41:37 -6 C 2.6 g/m*3 -6 C 0 km/h
2393 29-12-2008 22:53:37 -6.1 C 2.58 g/m*3 -6.1 C 0 km/h
2394 29-12-2008 23:05:38 -6.3 C 2.54 g/m*3 -6.3 C 0 km/h
2395 29-12-2008 23:17:38 -6.4 C 2.52 g/m*3 -6.4 C 0 km/h
2396 29-12-2008 23:29:38 -6.4 C 2.52 g/m*3 -6.4 C 0 km/h
2397 29-12-2008 23:41:38 -6.6 C 2.49 g/m*3 -6.6 C 0 km/h
2398 29-12-2008 23:53:38 -6.8 C 2.45 g/m*3 -6.8 C 0 km/h
2399 30-12-2008 00:05:38 -6.9 C 2.43 g/m*3 -6.9 C 0 km/h
2400 30-12-2008 00:17:38 -6.9 C 2.46 g/m*3 -6.9 C 0 km/h
Sensor: Nr:Datum:Temp:Abs-Feuchte:Windchill:Wind:
Aussen-T/F 2401 30-12-2008 00:29:38 -7 C 2.44 g/m*3 -7 C 0 km/h
2402 30-12-2008 00:41:38 -6.8 C 2.51 g/m*3 -6.8 C 0 km/h
2403 30-12-2008 00:53:38 -6.9 C 2.49 g/m*3 -6.9 C 0 km/h
2404 30-12-2008 01:05:38 -7 C 2.47 g/m*3 -7 C 0 km/h
2405 30-12-2008 01:17:38 -7.2 C 2.44 g/m*3 -7.2 C 0 km/h
2406 30-12-2008 01:29:38 -7.1 C 2.45 g/m*3 -7.1 C 0 km/h
2407 30-12-2008 01:41:38 -7.2 C 2.44 g/m*3 -7.2 C 0 km/h
2408 30-12-2008 01:53:38 -7.2 C 2.44 g/m*3 -7.2 C 0 km/h
2409 30-12-2008 02:05:38 -7.3 C 2.42 g/m*3 -7.3 C 0 km/h
2410 30-12-2008 02:17:38 -7.2 C 2.47 g/m*3 -7.2 C 0 km/h
2411 30-12-2008 02:29:38 -7.3 C 2.45 g/m*3 -7.3 C 0 km/h
2412 30-12-2008 02:41:38 -7.5 C 2.41 g/m*3 -7.5 C 0 km/h
2413 30-12-2008 02:53:39 -7.7 C 2.38 g/m*3 -7.7 C 0 km/h
2414 30-12-2008 03:05:39 -7.7 C 2.38 g/m*3 -7.7 C 0 km/h
2415 30-12-2008 03:17:39 -7.5 C 2.41 g/m*3 -7.5 C 0 km/h
2416 30-12-2008 03:29:39 -7.7 C 2.38 g/m*3 -7.7 C 0 km/h
2417 30-12-2008 03:41:39 -7.8 C 2.36 g/m*3 -7.8 C 0 km/h
2418 30-12-2008 03:53:39 -7.9 C 2.34 g/m*3 -7.9 C 0 km/h
2419 30-12-2008 04:05:39 -8 C 2.32 g/m*3 -8 C 0 km/h
2420 30-12-2008 04:17:39 -8 C 2.32 g/m*3 -8 C 0 km/h
2421 30-12-2008 04:29:39 -8.1 C 2.31 g/m*3 -8.1 C 0 km/h
2422 30-12-2008 04:41:39 -8.2 C 2.29 g/m*3 -8.2 C 0 km/h
2423 30-12-2008 04:53:39 -8.1 C 2.31 g/m*3 -8.1 C 0 km/h
2424 30-12-2008 05:05:39 -8.2 C 2.29 g/m*3 -8.2 C 0 km/h
2425 30-12-2008 05:17:39 -8.2 C 2.26 g/m*3 -8.2 C 0 km/h
Sensor: Nr:Datum:Temp:Abs-Feuchte:Windchill:Wind:
Aussen-T/F 2426 30-12-2008 05:29:39 -8.3 C 2.25 g/m*3 -8.3 C 0 km/h
2427 30-12-2008 05:41:39 -8.3 C 2.22 g/m*3 -8.3 C 0 km/h
2428 30-12-2008 05:53:39 -8.3 C 2.22 g/m*3 -8.3 C 0 km/h
2429 30-12-2008 06:05:39 -8.3 C 2.22 g/m*3 -8.3 C 0 km/h
2430 30-12-2008 06:17:39 -8.4 C 2.2 g/m*3 -8.4 C 0 km/h
2431 30-12-2008 06:29:39 -8.4 C 2.18 g/m*3 -8.4 C 0 km/h
2432 30-12-2008 06:41:39 -8.4 C 2.18 g/m*3 -8.4 C 0 km/h
2433 30-12-2008 06:53:40 -8.3 C 2.19 g/m*3 -8.3 C 0 km/h
2434 30-12-2008 07:05:40 -8.4 C 2.15 g/m*3 -8.4 C 0 km/h
2435 30-12-2008 07:17:40 -8.2 C 2.21 g/m*3 -8.2 C 0 km/h
2436 30-12-2008 07:29:40 -8.3 C 2.17 g/m*3 -8.3 C 0 km/h
2437 30-12-2008 07:41:40 -8.2 C 2.18 g/m*3 -8.2 C 0 km/h
2438 30-12-2008 07:53:40 -8.3 C 2.17 g/m*3 -8.3 C 0 km/h
2439 30-12-2008 08:05:40 -8.5 C 2.13 g/m*3 -8.5 C 0 km/h
2440 30-12-2008 08:17:37 -8.4 C 2.15 g/m*3 -8.4 C 0 km/h
2441 30-12-2008 08:29:37 -8.3 C 2.17 g/m*3 -8.3 C 0 km/h
2442 30-12-2008 08:41:37 -8.3 C 2.17 g/m*3 -8.3 C 0 km/h
2443 30-12-2008 08:53:37 -8.5 C 2.13 g/m*3 -8.5 C 0 km/h
2444 30-12-2008 09:05:37 -8.2 C 2.18 g/m*3 -8.2 C 0 km/h
2445 30-12-2008 09:17:36 -8.3 C 2.17 g/m*3 -8.3 C 0 km/h
2446 30-12-2008 09:29:36 -8.2 C 2.18 g/m*3 -8.2 C 0 km/h
2447 30-12-2008 09:41:37 -8.2 C 2.18 g/m*3 -8.2 C 0 km/h
2448 30-12-2008 09:53:02 -8 C 2.22 g/m*3 -8 C 0 km/h
2449 30-12-2008 10:05:01 -7.9 C 2.23 g/m*3 -7.9 C 0 km/h
2450 30-12-2008 10:17:01 -7.7 C 2.26 g/m*3 -7.7 C 0 km/h
Sensor: Nr:Datum:Temp:Abs-Feuchte:Windchill:Wind:
Aussen-T/F 2451 30-12-2008 10:29:01 -7.6 C 2.28 g/m*3 -7.6 C 0 km/h
2452 30-12-2008 10:41:02 -7.5 C 2.3 g/m*3 -7.5 C 0 km/h
2453 30-12-2008 10:53:01 -7.4 C 2.32 g/m*3 -7.4 C 0 km/h
2454 30-12-2008 11:05:01 -7.1 C 2.4 g/m*3 -7.1 C 0 km/h
2455 30-12-2008 11:17:01 -6.9 C 2.43 g/m*3 -6.9 C 0 km/h
2456 30-12-2008 11:29:01 -6.6 C 2.52 g/m*3 -6.6 C 0 km/h
2457 30-12-2008 11:41:00 -6.5 C 2.5 g/m*3 -6.5 C 0 km/h
2458 30-12-2008 11:53:01 -6.2 C 2.59 g/m*3 -6.2 C 0 km/h
2459 30-12-2008 12:05:00 -5.9 C 2.65 g/m*3 -5.9 C 0 km/h
2460 30-12-2008 12:17:00 -5.7 C 2.69 g/m*3 -5.7 C 0 km/h
2461 30-12-2008 12:29:01 -5.5 C 2.73 g/m*3 -5.5 C 0 km/h
2462 30-12-2008 12:41:00 -5.2 C 2.82 g/m*3 -5.2 C 0 km/h
2463 30-12-2008 12:53:00 -5.1 C 2.81 g/m*3 -5.1 C 0 km/h
2464 30-12-2008 13:05:59 -4.9 C 2.85 g/m*3 -4.9 C 0 km/h
2465 30-12-2008 13:17:00 -4.6 C 2.94 g/m*3 -4.6 C 0 km/h
2466 30-12-2008 13:29:00 -4.1 C 3.01 g/m*3 -4.1 C 0 km/h
2467 30-12-2008 13:41:00 -3.7 C 3.06 g/m*3 -3.7 C 0 km/h
2468 30-12-2008 13:53:59 -3.6 C 3.01 g/m*3 -3.6 C 0 km/h
2469 30-12-2008 14:04:59 -3.5 C 3.03 g/m*3 -3.5 C 0 km/h
2470 30-12-2008 14:17:59 -3.4 C 3.02 g/m*3 -3.4 C 0 km/h
2471 30-12-2008 14:29:59 -3.3 C 3 g/m*3 -3.3 C 0 km/h
2472 30-12-2008 14:41:59 -3.2 C 2.98 g/m*3 -3.2 C 0 km/h
2473 30-12-2008 14:53:58 -3.1 C 2.96 g/m*3 -3.1 C 0 km/h
2474 30-12-2008 15:05:59 -3.1 C 2.96 g/m*3 -3.1 C 0 km/h
2475 30-12-2008 15:17:58 -3.1 C 2.96 g/m*3 -3.1 C 0 km/h
Sensor: Nr:Datum:Temp:Abs-Feuchte:Windchill:Wind:
Aussen-T/F 2476 30-12-2008 15:29:58 -3.1 C 2.93 g/m*3 -3.1 C 0 km/h
2477 30-12-2008 15:41:58 -3.1 C 2.96 g/m*3 -3.1 C 0 km/h
2478 30-12-2008 15:53:58 -3.3 C 2.92 g/m*3 -3.3 C 0 km/h
2479 30-12-2008 16:05:58 -3.4 C 2.9 g/m*3 -3.4 C 0 km/h
2480 30-12-2008 16:17:58 -3.4 C 2.94 g/m*3 -3.4 C 0 km/h
2481 30-12-2008 16:29:58 -3.5 C 2.92 g/m*3 -3.5 C 0 km/h
2482 30-12-2008 16:41:57 -3.7 C 2.88 g/m*3 -3.7 C 0 km/h
2483 30-12-2008 16:53:58 -3.8 C 2.82 g/m*3 -3.8 C 0 km/h
2484 30-12-2008 17:05:57 -3.9 C 2.8 g/m*3 -3.9 C 0 km/h
2485 30-12-2008 17:17:58 -3.9 C 2.84 g/m*3 -3.9 C 0 km/h
2486 30-12-2008 17:29:58 -4.1 C 2.76 g/m*3 -4.1 C 0 km/h
2487 30-12-2008 17:41:57 -4.2 C 2.78 g/m*3 -4.2 C 0 km/h
2488 30-12-2008 17:53:57 -4.3 C 2.72 g/m*3 -4.3 C 0 km/h
2489 30-12-2008 18:05:57 -4.4 C 2.74 g/m*3 -4.4 C 0 km/h
2490 30-12-2008 18:17:57 -4.5 C 2.72 g/m*3 -4.5 C 0 km/h
2491 30-12-2008 18:29:58 -4.5 C 2.75 g/m*3 -4.5 C 0 km/h
2492 30-12-2008 18:41:56 -4.5 C 2.75 g/m*3 -4.5 C 0 km/h
2493 30-12-2008 18:53:57 -4.6 C 2.73 g/m*3 -4.6 C 0 km/h
2494 30-12-2008 19:05:56 -4.5 C 2.75 g/m*3 -4.5 C 0 km/h
2495 30-12-2008 19:17:56 -4.6 C 2.73 g/m*3 -4.6 C 0 km/h
2496 30-12-2008 19:29:56 -4.8 C 2.69 g/m*3 -4.8 C 0 km/h
2497 30-12-2008 19:41:56 -5 C 2.66 g/m*3 -5 C 0 km/h
2498 30-12-2008 19:53:56 -5 C 2.66 g/m*3 -5 C 0 km/h
2499 30-12-2008 20:05:56 -5 C 2.69 g/m*3 -5 C 0 km/h
2500 30-12-2008 20:17:55 -5.1 C 2.67 g/m*3 -5.1 C 0 km/h
Sensor: Nr:Datum:Temp:Abs-Feuchte:Windchill:Wind:
Aussen-T/F 2501 30-12-2008 20:29:55 -5.1 C 2.67 g/m*3 -5.1 C 0 km/h
2502 30-12-2008 20:41:56 -5.3 C 2.63 g/m*3 -5.3 C 0 km/h
2503 30-12-2008 20:53:55 -5.4 C 2.61 g/m*3 -5.4 C 0 km/h
2504 30-12-2008 21:05:55 -5.6 C 2.58 g/m*3 -5.6 C 0 km/h
2505 30-12-2008 21:17:55 -5.5 C 2.63 g/m*3 -5.5 C 0 km/h
2506 30-12-2008 21:29:55 -5.6 C 2.64 g/m*3 -5.6 C 0 km/h
2507 30-12-2008 21:42:56 -5.7 C 2.62 g/m*3 -5.7 C 0 km/h
2508 30-12-2008 21:54:56 -5.8 C 2.6 g/m*3 -5.8 C 0 km/h
2509 30-12-2008 22:06:56 -5.8 C 2.6 g/m*3 -5.8 C 0 km/h
2510 30-12-2008 22:18:56 -5.8 C 2.64 g/m*3 -5.8 C 0 km/h
2511 30-12-2008 22:30:56 -6 C 2.6 g/m*3 -6 C 0 km/h
2512 30-12-2008 22:42:56 -6.2 C 2.56 g/m*3 -6.2 C 0 km/h
2513 30-12-2008 22:54:56 -6.3 C 2.54 g/m*3 -6.3 C 0 km/h
2514 30-12-2008 23:06:56 -6.3 C 2.54 g/m*3 -6.3 C 0 km/h
2515 30-12-2008 23:18:56 -6.3 C 2.57 g/m*3 -6.3 C 0 km/h
2516 30-12-2008 23:30:56 -6.5 C 2.53 g/m*3 -6.5 C 0 km/h
2517 30-12-2008 23:42:56 -6.4 C 2.55 g/m*3 -6.4 C 0 km/h
2518 30-12-2008 23:54:56 -6.4 C 2.55 g/m*3 -6.4 C 0 km/h
2519 31-12-2008 00:06:57 -6.4 C 2.55 g/m*3 -6.4 C 0 km/h
2520 31-12-2008 00:18:57 -6.4 C 2.55 g/m*3 -6.4 C 0 km/h
2521 31-12-2008 00:30:57 -6.2 C 2.62 g/m*3 -6.2 C 0 km/h
2522 31-12-2008 00:42:57 -6.2 C 2.62 g/m*3 -6.2 C 0 km/h
2523 31-12-2008 00:54:57 -6.4 C 2.58 g/m*3 -6.4 C 0 km/h
2524 31-12-2008 01:06:57 -6.4 C 2.58 g/m*3 -6.4 C 0 km/h
2525 31-12-2008 01:18:57 -6.6 C 2.55 g/m*3 -6.6 C 0 km/h
Sensor: Nr:Datum:Temp:Abs-Feuchte:Windchill:Wind:
Aussen-T/F 2526 31-12-2008 01:30:57 -6.8 C 2.48 g/m*3 -6.8 C 0 km/h
2527 31-12-2008 01:42:57 -6.7 C 2.5 g/m*3 -6.7 C 0 km/h
2528 31-12-2008 01:54:57 -6.7 C 2.5 g/m*3 -6.7 C 0 km/h
2529 31-12-2008 02:06:57 -6.9 C 2.46 g/m*3 -6.9 C 0 km/h
2530 31-12-2008 02:18:57 -7.1 C 2.43 g/m*3 -7.1 C 0 km/h
2531 31-12-2008 02:30:57 -7.1 C 2.43 g/m*3 -7.1 C 0 km/h
2532 31-12-2008 02:42:57 -7.2 C 2.41 g/m*3 -7.2 C 0 km/h
2533 31-12-2008 02:54:57 -7.3 C 2.39 g/m*3 -7.3 C 0 km/h
2534 31-12-2008 03:06:57 -7.2 C 2.41 g/m*3 -7.2 C 0 km/h
2535 31-12-2008 03:18:57 -7.3 C 2.39 g/m*3 -7.3 C 0 km/h
2536 31-12-2008 03:30:57 -7.3 C 2.39 g/m*3 -7.3 C 0 km/h
2537 31-12-2008 03:42:57 -7.2 C 2.41 g/m*3 -7.2 C 0 km/h
2538 31-12-2008 03:54:57 -7.1 C 2.45 g/m*3 -7.1 C 0 km/h
2539 31-12-2008 04:06:58 -7.1 C 2.45 g/m*3 -7.1 C 0 km/h
2540 31-12-2008 04:18:58 -7.3 C 2.39 g/m*3 -7.3 C 0 km/h
2541 31-12-2008 04:30:58 -7.3 C 2.39 g/m*3 -7.3 C 0 km/h
2542 31-12-2008 04:42:58 -7.4 C 2.37 g/m*3 -7.4 C 0 km/h
2543 31-12-2008 04:54:55 -7.4 C 2.37 g/m*3 -7.4 C 0 km/h
2544 31-12-2008 05:06:56 -7.4 C 2.37 g/m*3 -7.4 C 0 km/h
2545 31-12-2008 05:18:55 -7.4 C 2.37 g/m*3 -7.4 C 0 km/h
2546 31-12-2008 05:30:55 -7.5 C 2.36 g/m*3 -7.5 C 0 km/h
2547 31-12-2008 05:42:55 -7.4 C 2.37 g/m*3 -7.4 C 0 km/h
2548 31-12-2008 05:54:55 -7.5 C 2.36 g/m*3 -7.5 C 0 km/h
2549 31-12-2008 06:06:55 -7.5 C 2.36 g/m*3 -7.5 C 0 km/h
2550 31-12-2008 06:18:55 -7.7 C 2.32 g/m*3 -7.7 C 0 km/h
Sensor: Nr:Datum:Temp:Abs-Feuchte:Windchill:Wind:
Aussen-T/F 2551 31-12-2008 06:30:55 -7.7 C 2.29 g/m*3 -7.7 C 0 km/h
2552 31-12-2008 06:42:55 -7.8 C 2.28 g/m*3 -7.8 C 0 km/h
2553 31-12-2008 06:54:54 -7.8 C 2.28 g/m*3 -7.8 C 0 km/h
2554 31-12-2008 07:06:55 -7.8 C 2.28 g/m*3 -7.8 C 0 km/h
2555 31-12-2008 07:18:54 -7.8 C 2.28 g/m*3 -7.8 C 0 km/h
2556 31-12-2008 07:30:54 -7.8 C 2.28 g/m*3 -7.8 C 0 km/h
2557 31-12-2008 07:42:54 -7.8 C 2.28 g/m*3 -7.8 C 0 km/h
2558 31-12-2008 07:54:54 -7.8 C 2.28 g/m*3 -7.8 C 0 km/h
2559 31-12-2008 08:06:54 -7.8 C 2.28 g/m*3 -7.8 C 0 km/h
2560 31-12-2008 08:18:54 -7.8 C 2.28 g/m*3 -7.8 C 0 km/h
2561 31-12-2008 08:30:54 -7.5 C 2.33 g/m*3 -7.5 C 0 km/h
2562 31-12-2008 08:42:54 -7.1 C 2.43 g/m*3 -7.1 C 0 km/h
2563 31-12-2008 08:54:53 -6.7 C 2.53 g/m*3 -6.7 C 0 km/h
2564 31-12-2008 09:06:53 -6.4 C 2.58 g/m*3 -6.4 C 0 km/h
2565 31-12-2008 09:18:53 -6 C 2.66 g/m*3 -6 C 0 km/h
2566 31-12-2008 09:30:53 -5.9 C 2.68 g/m*3 -5.9 C 0 km/h
2567 31-12-2008 09:42:53 -5.7 C 2.72 g/m*3 -5.7 C 0 km/h
2568 31-12-2008 09:54:52 -5.6 C 2.74 g/m*3 -5.6 C 0 km/h
2569 31-12-2008 10:06:53 -5.4 C 2.75 g/m*3 -5.4 C 0 km/h
2570 31-12-2008 10:18:53 -5.2 C 2.79 g/m*3 -5.2 C 0 km/h
2571 31-12-2008 10:30:52 -4.9 C 2.85 g/m*3 -4.9 C 0 km/h
2572 31-12-2008 10:42:52 -4.5 C 2.89 g/m*3 -4.5 C 0 km/h
2573 31-12-2008 10:54:02 -3.8 C 3.04 g/m*3 -3.8 C 0 km/h
2574 31-12-2008 11:06:01 -3.7 C 3.06 g/m*3 -3.7 C 0 km/h
2575 31-12-2008 11:18:01 -3.8 C 3.01 g/m*3 -3.8 C 0 km/h
Sensor: Nr:Datum:Temp:Abs-Feuchte:Windchill:Wind:
Aussen-T/F 2576 31-12-2008 11:30:01 -3.9 C 2.98 g/m*3 -3.9 C 0 km/h
2577 31-12-2008 11:42:01 -3.6 C 3.05 g/m*3 -3.6 C 0 km/h
2578 31-12-2008 11:54:01 -3 C 3.22 g/m*3 -3 C 0 km/h
2579 31-12-2008 12:06:01 -2.6 C 3.27 g/m*3 -2.6 C 0 km/h
2580 31-12-2008 12:18:02 -2.6 C 3.23 g/m*3 -2.6 C 0 km/h
2581 31-12-2008 12:30:02 -2.9 C 3.09 g/m*3 -2.9 C 0 km/h
2582 31-12-2008 12:42:01 -2.9 C 3.09 g/m*3 -2.9 C 0 km/h
2583 31-12-2008 12:54:00 -2.9 C 3.05 g/m*3 -2.9 C 0 km/h
2584 31-12-2008 13:06:01 -2.9 C 3.05 g/m*3 -2.9 C 0 km/h
2585 31-12-2008 13:18:01 -2.8 C 3.03 g/m*3 -2.8 C 0 km/h
2586 31-12-2008 13:30:01 -2.7 C 3.05 g/m*3 -2.7 C 0 km/h
2587 31-12-2008 13:42:00 -2.4 C 3.11 g/m*3 -2.4 C 0 km/h
2588 31-12-2008 13:54:01 -2.1 C 3.22 g/m*3 -2.1 C 0 km/h
2589 31-12-2008 14:06:00 -1.7 C 3.31 g/m*3 -1.7 C 0 km/h
2590 31-12-2008 14:18:00 -1.5 C 3.32 g/m*3 -1.5 C 0 km/h
2591 31-12-2008 14:30:00 -1.5 C 3.27 g/m*3 -1.5 C 0 km/h
2592 31-12-2008 14:42:00 -1.4 C 3.3 g/m*3 -1.4 C 0 km/h
2593 31-12-2008 14:54:00 -1.5 C 3.27 g/m*3 -1.5 C 0 km/h
2594 31-12-2008 15:06:59 -1.6 C 3.25 g/m*3 -1.6 C 0 km/h
2595 31-12-2008 15:29:59 -1.6 C 3.25 g/m*3 -1.6 C 0 km/h
2596 31-12-2008 15:30:00 -1.6 C 3.25 g/m*3 -1.6 C 0 km/h
2597 31-12-2008 15:42:00 -1.6 C 3.25 g/m*3 -1.6 C 0 km/h
2598 31-12-2008 15:54:59 -1.6 C 3.25 g/m*3 -1.6 C 0 km/h
2599 31-12-2008 16:05:59 -1.6 C 3.25 g/m*3 -1.6 C 0 km/h
2600 31-12-2008 16:18:59 -1.7 C 3.23 g/m*3 -1.7 C 0 km/h
Sensor: Nr:Datum:Temp:Abs-Feuchte:Windchill:Wind:
Aussen-T/F 2601 31-12-2008 16:30:59 -1.7 C 3.23 g/m*3 -1.7 C 0 km/h
2602 31-12-2008 16:43:00 -1.7 C 3.23 g/m*3 -1.7 C 0 km/h
2603 31-12-2008 16:54:59 -1.7 C 3.27 g/m*3 -1.7 C 0 km/h
2604 31-12-2008 17:06:59 -1.4 C 3.39 g/m*3 -1.4 C 0 km/h
2605 31-12-2008 17:18:59 -1.2 C 3.48 g/m*3 -1.2 C 0 km/h
2606 31-12-2008 17:30:58 -1 C 3.53 g/m*3 -1 C 0 km/h
2607 31-12-2008 17:42:58 -1.1 C 3.5 g/m*3 -1.1 C 0 km/h
2608 31-12-2008 17:54:59 -1.3 C 3.45 g/m*3 -1.3 C 0 km/h
2609 31-12-2008 18:06:58 -1.1 C 3.55 g/m*3 -1.1 C 0 km/h
2610 31-12-2008 18:18:58 -1.2 C 3.52 g/m*3 -1.2 C 0 km/h
2611 31-12-2008 18:30:57 -1.4 C 3.52 g/m*3 -1.4 C 0 km/h
2612 31-12-2008 18:42:57 -1.5 C 3.54 g/m*3 -1.5 C 0 km/h
2613 31-12-2008 18:54:58 -1.5 C 3.54 g/m*3 -1.5 C 0 km/h
2614 31-12-2008 19:06:57 -1.5 C 3.54 g/m*3 -1.5 C 0 km/h
2615 31-12-2008 19:18:57 -1.6 C 3.55 g/m*3 -1.6 C 0 km/h
2616 31-12-2008 19:30:57 -1.6 C 3.6 g/m*3 -1.6 C 0 km/h
2617 31-12-2008 19:42:57 -1.7 C 3.62 g/m*3 -1.7 C 0 km/h
2618 31-12-2008 19:54:57 -1.8 C 3.59 g/m*3 -1.8 C 0 km/h
2619 31-12-2008 20:06:56 -1.8 C 3.59 g/m*3 -1.8 C 0 km/h
2620 31-12-2008 20:18:57 -1.9 C 3.61 g/m*3 -1.9 C 0 km/h
2621 31-12-2008 20:30:57 -2.3 C 3.51 g/m*3 -2.3 C 0 km/h
2622 31-12-2008 20:42:57 -2.4 C 3.48 g/m*3 -2.4 C 0 km/h
2623 31-12-2008 20:54:56 -2.5 C 3.5 g/m*3 -2.5 C 0 km/h
2624 31-12-2008 21:06:57 -2.6 C 3.48 g/m*3 -2.6 C 0 km/h
2625 31-12-2008 21:18:56 -2.7 C 3.45 g/m*3 -2.7 C 0 km/h
Sensor: Nr:Datum:Temp:Abs-Feuchte:Windchill:Wind:
Aussen-T/F 2626 31-12-2008 21:30:56 -2.5 C 3.54 g/m*3 -2.5 C 0 km/h
2627 31-12-2008 21:42:56 -2.6 C 3.52 g/m*3 -2.6 C 0 km/h
2628 31-12-2008 21:54:55 -2.4 C 3.57 g/m*3 -2.4 C 0 km/h
2629 31-12-2008 22:06:56 -2.5 C 3.54 g/m*3 -2.5 C 0 km/h
2630 31-12-2008 22:18:56 -2.7 C 3.49 g/m*3 -2.7 C 0 km/h
2631 31-12-2008 22:30:55 -2.8 C 3.47 g/m*3 -2.8 C 0 km/h
2632 31-12-2008 22:42:55 -3.1 C 3.39 g/m*3 -3.1 C 0 km/h
2633 31-12-2008 22:54:55 -3.2 C 3.37 g/m*3 -3.2 C 0 km/h
2634 31-12-2008 23:07:53 -3.2 C 3.37 g/m*3 -3.2 C 0 km/h
2635 31-12-2008 23:19:53 -3 C 3.46 g/m*3 -3 C 0 km/h
2636 31-12-2008 23:31:53 -2.6 C 3.6 g/m*3 -2.6 C 0 km/h
2637 31-12-2008 23:43:53 -2.4 C 3.65 g/m*3 -2.4 C 0 km/h
2638 31-12-2008 23:55:53 -2.2 C 3.74 g/m*3 -2.2 C 0 km/h
2639 01-01-2009 00:07:53 -2.1 C 3.77 g/m*3 -2.1 C 0 km/h
2640 01-01-2009 00:19:53 -2 C 3.79 g/m*3 -2 C 0 km/h
2641 01-01-2009 00:31:53 -1.9 C 3.82 g/m*3 -1.9 C 0 km/h
2642 01-01-2009 00:43:53 -1.8 C 3.85 g/m*3 -1.8 C 0 km/h
2643 01-01-2009 00:55:53 -1.7 C 3.87 g/m*3 -1.7 C 0 km/h
2644 01-01-2009 01:07:54 -1.3 C 4.03 g/m*3 -1.3 C 0 km/h
2645 01-01-2009 01:19:54 -1.1 C 4.04 g/m*3 -1.1 C 0 km/h
2646 01-01-2009 01:31:54 -0.9 C 4.05 g/m*3 -0.9 C 0 km/h
2647 01-01-2009 01:43:54 -0.9 C 3.91 g/m*3 -0.9 C 0 km/h
2648 01-01-2009 01:55:54 -0.8 C 3.9 g/m*3 -0.8 C 0 km/h
2649 01-01-2009 02:07:54 -0.9 C 3.82 g/m*3 -0.9 C 0 km/h
2650 01-01-2009 02:19:54 -0.8 C 3.8 g/m*3 -0.8 C 0 km/h
Sensor: Nr:Datum:Temp:Abs-Feuchte:Windchill:Wind:
Aussen-T/F 2651 01-01-2009 02:31:54 -0.9 C 3.78 g/m*3 -0.9 C 0 km/h
2652 01-01-2009 02:43:54 -0.9 C 3.78 g/m*3 -0.9 C 0 km/h
2653 01-01-2009 02:55:54 -1 C 3.75 g/m*3 -1 C 0 km/h
2654 01-01-2009 03:07:54 -1.1 C 3.73 g/m*3 -1.1 C 0 km/h
2655 01-01-2009 03:19:53 -1.1 C 3.77 g/m*3 -1.1 C 0 km/h
2656 01-01-2009 03:31:53 -1.5 C 3.62 g/m*3 -1.5 C 0 km/h
2657 01-01-2009 03:43:53 -1.8 C 3.55 g/m*3 -1.8 C 0 km/h
2658 01-01-2009 03:55:53 -2 C 3.5 g/m*3 -2 C 0 km/h
2659 01-01-2009 04:07:53 -2.1 C 3.52 g/m*3 -2.1 C 0 km/h
2660 01-01-2009 04:19:53 -2.1 C 3.52 g/m*3 -2.1 C 0 km/h
2661 01-01-2009 04:31:52 -2.1 C 3.52 g/m*3 -2.1 C 0 km/h
2662 01-01-2009 04:43:52 -2.1 C 3.52 g/m*3 -2.1 C 0 km/h
2663 01-01-2009 04:55:52 -2.1 C 3.52 g/m*3 -2.1 C 0 km/h
2664 01-01-2009 05:07:53 -2 C 3.54 g/m*3 -2 C 0 km/h
2665 01-01-2009 05:19:52 -2 C 3.54 g/m*3 -2 C 0 km/h
2666 01-01-2009 05:31:52 -2 C 3.54 g/m*3 -2 C 0 km/h
2667 01-01-2009 05:43:53 -2.2 C 3.41 g/m*3 -2.2 C 0 km/h
2668 01-01-2009 05:55:52 -2.3 C 3.38 g/m*3 -2.3 C 0 km/h
2669 01-01-2009 06:07:51 -2.4 C 3.32 g/m*3 -2.4 C 0 km/h
2670 01-01-2009 06:19:52 -2.6 C 3.27 g/m*3 -2.6 C 0 km/h
2671 01-01-2009 06:31:52 -2.8 C 3.23 g/m*3 -2.8 C 0 km/h
2672 01-01-2009 06:43:52 -3.3 C 3.11 g/m*3 -3.3 C 0 km/h
2673 01-01-2009 06:55:51 -3.6 C 3.05 g/m*3 -3.6 C 0 km/h
2674 01-01-2009 07:07:52 -3.8 C 3.01 g/m*3 -3.8 C 0 km/h
2675 01-01-2009 07:19:51 -3.8 C 3.01 g/m*3 -3.8 C 0 km/h
Sensor: Nr:Datum:Temp:Abs-Feuchte:Windchill:Wind:
Aussen-T/F 2676 01-01-2009 07:31:51 -3.9 C 2.98 g/m*3 -3.9 C 0 km/h
2677 01-01-2009 07:43:51 -3.9 C 2.98 g/m*3 -3.9 C 0 km/h
2678 01-01-2009 07:55:51 -3.9 C 2.98 g/m*3 -3.9 C 0 km/h
2679 01-01-2009 08:07:51 -4.2 C 2.89 g/m*3 -4.2 C 0 km/h
2680 01-01-2009 08:19:51 -4.4 C 2.84 g/m*3 -4.4 C 0 km/h
2681 01-01-2009 08:31:50 -4.5 C 2.82 g/m*3 -4.5 C 0 km/h
2682 01-01-2009 08:43:50 -4.6 C 2.77 g/m*3 -4.6 C 0 km/h
2683 01-01-2009 08:55:51 -4.7 C 2.75 g/m*3 -4.7 C 0 km/h
2684 01-01-2009 09:07:50 -4.6 C 2.8 g/m*3 -4.6 C 0 km/h
2685 01-01-2009 09:19:50 -4.6 C 2.8 g/m*3 -4.6 C 0 km/h
2686 01-01-2009 09:31:50 -4.5 C 2.82 g/m*3 -4.5 C 0 km/h
2687 01-01-2009 09:43:50 -4.5 C 2.79 g/m*3 -4.5 C 0 km/h
2688 01-01-2009 09:55:50 -4.2 C 2.85 g/m*3 -4.2 C 0 km/h
2689 01-01-2009 10:07:49 -4.2 C 2.85 g/m*3 -4.2 C 0 km/h
2690 01-01-2009 10:19:50 -4.2 C 2.81 g/m*3 -4.2 C 0 km/h
2691 01-01-2009 10:31:50 -4.1 C 2.83 g/m*3 -4.1 C 0 km/h
2692 01-01-2009 10:43:50 -4.1 C 2.8 g/m*3 -4.1 C 0 km/h
2693 01-01-2009 10:55:49 -4.3 C 2.69 g/m*3 -4.3 C 0 km/h
2694 01-01-2009 11:07:50 -4.3 C 2.69 g/m*3 -4.3 C 0 km/h
2695 01-01-2009 11:19:49 -4 C 2.74 g/m*3 -4 C 0 km/h
2696 01-01-2009 11:31:49 -4 C 2.71 g/m*3 -4 C 0 km/h
2697 01-01-2009 11:43:49 -4.1 C 2.65 g/m*3 -4.1 C 0 km/h
2698 01-01-2009 11:55:48 -4.1 C 2.69 g/m*3 -4.1 C 0 km/h
2699 01-01-2009 12:07:49 -4.1 C 2.69 g/m*3 -4.1 C 0 km/h
2700 01-01-2009 12:19:48 -4.1 C 2.69 g/m*3 -4.1 C 0 km/h
Sensor: Nr:Datum:Temp:Abs-Feuchte:Windchill:Wind:
Aussen-T/F 2701 01-01-2009 12:31:48 -4.1 C 2.65 g/m*3 -4.1 C 0 km/h
2702 01-01-2009 12:43:48 -4 C 2.67 g/m*3 -4 C 0 km/h
2703 01-01-2009 12:55:48 -4 C 2.63 g/m*3 -4 C 0 km/h
2704 01-01-2009 13:07:48 -3.9 C 2.65 g/m*3 -3.9 C 0 km/h
2705 01-01-2009 13:19:48 -3.8 C 2.67 g/m*3 -3.8 C 0 km/h
2706 01-01-2009 13:31:48 -3.8 C 2.67 g/m*3 -3.8 C 0 km/h
2707 01-01-2009 13:43:48 -3.7 C 2.69 g/m*3 -3.7 C 0 km/h
2708 01-01-2009 13:55:48 -3.7 C 2.65 g/m*3 -3.7 C 0 km/h
2709 01-01-2009 14:07:47 -3.6 C 2.63 g/m*3 -3.6 C 0 km/h
2710 01-01-2009 14:19:48 -3.7 C 2.58 g/m*3 -3.7 C 0 km/h
2711 01-01-2009 14:31:01 -3.8 C 2.56 g/m*3 -3.8 C 0 km/h
2712 01-01-2009 14:43:01 -3.9 C 2.54 g/m*3 -3.9 C 0 km/h
2713 01-01-2009 14:55:02 -3.9 C 2.58 g/m*3 -3.9 C 0 km/h
2714 01-01-2009 15:07:01 -3.8 C 2.6 g/m*3 -3.8 C 0 km/h
2715 01-01-2009 15:19:01 -3.7 C 2.62 g/m*3 -3.7 C 0 km/h
2716 01-01-2009 15:31:01 -3.6 C 2.63 g/m*3 -3.6 C 0 km/h
2717 01-01-2009 15:43:01 -3.6 C 2.63 g/m*3 -3.6 C 0 km/h
2718 01-01-2009 15:55:01 -3.9 C 2.58 g/m*3 -3.9 C 0 km/h
2719 01-01-2009 16:07:00 -4.2 C 2.56 g/m*3 -4.2 C 0 km/h
2720 01-01-2009 16:19:00 -4.4 C 2.56 g/m*3 -4.4 C 0 km/h
2721 01-01-2009 16:31:01 -4.6 C 2.56 g/m*3 -4.6 C 0 km/h
2722 01-01-2009 16:43:01 -4.8 C 2.56 g/m*3 -4.8 C 0 km/h
2723 01-01-2009 16:55:00 -4.9 C 2.54 g/m*3 -4.9 C 0 km/h
2724 01-01-2009 17:07:00 -5.1 C 2.54 g/m*3 -5.1 C 0 km/h
2725 01-01-2009 17:19:00 -5.3 C 2.5 g/m*3 -5.3 C 0 km/h
Sensor: Nr:Datum:Temp:Abs-Feuchte:Windchill:Wind:
Aussen-T/F 2726 01-01-2009 17:31:59 -5.3 C 2.53 g/m*3 -5.3 C 0 km/h
2727 01-01-2009 17:42:59 -5 C 2.62 g/m*3 -5 C 0 km/h
2728 01-01-2009 17:55:00 -4.9 C 2.64 g/m*3 -4.9 C 0 km/h
2729 01-01-2009 18:07:59 -4.8 C 2.66 g/m*3 -4.8 C 0 km/h
2730 01-01-2009 18:19:59 -4.6 C 2.7 g/m*3 -4.6 C 0 km/h
2731 01-01-2009 18:31:00 -4.6 C 2.73 g/m*3 -4.6 C 0 km/h
2732 01-01-2009 18:43:00 -4.4 C 2.77 g/m*3 -4.4 C 0 km/h
2733 01-01-2009 18:55:59 -4.3 C 2.79 g/m*3 -4.3 C 0 km/h
2734 01-01-2009 19:07:59 -4.2 C 2.78 g/m*3 -4.2 C 0 km/h
2735 01-01-2009 19:19:59 -4.2 C 2.78 g/m*3 -4.2 C 0 km/h
2736 01-01-2009 19:31:59 -4.2 C 2.7 g/m*3 -4.2 C 0 km/h
2737 01-01-2009 19:44:00 -4.2 C 2.67 g/m*3 -4.2 C 0 km/h
2738 01-01-2009 19:55:58 -4.1 C 2.69 g/m*3 -4.1 C 0 km/h
2739 01-01-2009 20:07:59 -4.1 C 2.69 g/m*3 -4.1 C 0 km/h
2740 01-01-2009 20:19:58 -4.1 C 2.69 g/m*3 -4.1 C 0 km/h
2741 01-01-2009 20:31:58 -4 C 2.71 g/m*3 -4 C 0 km/h
2742 01-01-2009 20:43:58 -4 C 2.71 g/m*3 -4 C 0 km/h
2743 01-01-2009 20:55:58 -4 C 2.71 g/m*3 -4 C 0 km/h
2744 01-01-2009 21:07:58 -3.9 C 2.73 g/m*3 -3.9 C 0 km/h
2745 01-01-2009 21:19:58 -3.9 C 2.73 g/m*3 -3.9 C 0 km/h
2746 01-01-2009 21:31:57 -3.9 C 2.73 g/m*3 -3.9 C 0 km/h
2747 01-01-2009 21:43:57 -3.9 C 2.73 g/m*3 -3.9 C 0 km/h
2748 01-01-2009 21:55:58 -3.9 C 2.73 g/m*3 -3.9 C 0 km/h
2749 01-01-2009 22:07:57 -3.9 C 2.73 g/m*3 -3.9 C 0 km/h
2750 01-01-2009 22:20:58 -3.9 C 2.76 g/m*3 -3.9 C 0 km/h
Sensor: Nr:Datum:Temp:Abs-Feuchte:Windchill:Wind:
Aussen-T/F 2751 01-01-2009 22:32:58 -3.9 C 2.76 g/m*3 -3.9 C 0 km/h
2752 01-01-2009 22:44:59 -3.9 C 2.76 g/m*3 -3.9 C 0 km/h
2753 01-01-2009 22:56:59 -4 C 2.78 g/m*3 -4 C 0 km/h
2754 01-01-2009 23:08:59 -4 C 2.78 g/m*3 -4 C 0 km/h
2755 01-01-2009 23:20:59 -3.9 C 2.8 g/m*3 -3.9 C 0 km/h
2756 01-01-2009 23:32:59 -3.9 C 2.8 g/m*3 -3.9 C 0 km/h
2757 01-01-2009 23:44:59 -4 C 2.78 g/m*3 -4 C 0 km/h
2758 01-01-2009 23:56:59 -4.1 C 2.76 g/m*3 -4.1 C 0 km/h
2759 02-01-2009 00:08:59 -4 C 2.78 g/m*3 -4 C 0 km/h
2760 02-01-2009 00:20:59 -4 C 2.78 g/m*3 -4 C 0 km/h
2761 02-01-2009 00:32:59 -4.1 C 2.76 g/m*3 -4.1 C 0 km/h
2762 02-01-2009 00:44:59 -4.1 C 2.76 g/m*3 -4.1 C 0 km/h
2763 02-01-2009 00:56:59 -4 C 2.78 g/m*3 -4 C 0 km/h
2764 02-01-2009 01:08:59 -4 C 2.78 g/m*3 -4 C 0 km/h
2765 02-01-2009 01:20:59 -4 C 2.78 g/m*3 -4 C 0 km/h
2766 02-01-2009 01:32:59 -4 C 2.78 g/m*3 -4 C 0 km/h
2767 02-01-2009 01:44:59 -4 C 2.78 g/m*3 -4 C 0 km/h
2768 02-01-2009 01:56:59 -4 C 2.82 g/m*3 -4 C 0 km/h
2769 02-01-2009 02:08:59 -3.9 C 2.84 g/m*3 -3.9 C 0 km/h
2770 02-01-2009 02:19:59 -3.9 C 2.8 g/m*3 -3.9 C 0 km/h
2771 02-01-2009 02:31:59 -3.9 C 2.8 g/m*3 -3.9 C 0 km/h
2772 02-01-2009 02:44:00 -3.9 C 2.8 g/m*3 -3.9 C 0 km/h
2773 02-01-2009 02:56:00 -3.9 C 2.8 g/m*3 -3.9 C 0 km/h
2774 02-01-2009 03:08:00 -4 C 2.78 g/m*3 -4 C 0 km/h
2775 02-01-2009 03:20:00 -4 C 2.78 g/m*3 -4 C 0 km/h
Sensor: Nr:Datum:Temp:Abs-Feuchte:Windchill:Wind:
Aussen-T/F 2776 02-01-2009 03:32:00 -3.9 C 2.84 g/m*3 -3.9 C 0 km/h
2777 02-01-2009 03:44:00 -3.9 C 2.84 g/m*3 -3.9 C 0 km/h
2778 02-01-2009 03:56:00 -3.9 C 2.84 g/m*3 -3.9 C 0 km/h
2779 02-01-2009 04:08:00 -3.8 C 2.86 g/m*3 -3.8 C 0 km/h
2780 02-01-2009 04:20:00 -3.8 C 2.86 g/m*3 -3.8 C 0 km/h
2781 02-01-2009 04:32:00 -3.7 C 2.84 g/m*3 -3.7 C 0 km/h
2782 02-01-2009 04:44:00 -3.7 C 2.84 g/m*3 -3.7 C 0 km/h
2783 02-01-2009 04:56:00 -3.7 C 2.88 g/m*3 -3.7 C 0 km/h
2784 02-01-2009 05:08:00 -3.6 C 2.9 g/m*3 -3.6 C 0 km/h
2785 02-01-2009 05:20:00 -3.6 C 2.9 g/m*3 -3.6 C 0 km/h
2786 02-01-2009 05:32:00 -3.5 C 2.92 g/m*3 -3.5 C 0 km/h
2787 02-01-2009 05:44:00 -3.5 C 2.88 g/m*3 -3.5 C 0 km/h
2788 02-01-2009 05:56:00 -3.5 C 2.92 g/m*3 -3.5 C 0 km/h
2789 02-01-2009 06:08:00 -3.4 C 2.94 g/m*3 -3.4 C 0 km/h
2790 02-01-2009 06:20:00 -3.4 C 2.94 g/m*3 -3.4 C 0 km/h
2791 02-01-2009 06:32:01 -3.4 C 2.94 g/m*3 -3.4 C 0 km/h
2792 02-01-2009 06:44:01 -3.3 C 2.96 g/m*3 -3.3 C 0 km/h
2793 02-01-2009 06:56:01 -3.3 C 2.96 g/m*3 -3.3 C 0 km/h
2794 02-01-2009 07:08:01 -3.2 C 2.98 g/m*3 -3.2 C 0 km/h
2795 02-01-2009 07:20:01 -3.2 C 2.94 g/m*3 -3.2 C 0 km/h
2796 02-01-2009 07:32:01 -3.2 C 2.98 g/m*3 -3.2 C 0 km/h
2797 02-01-2009 07:44:01 -3.2 C 2.98 g/m*3 -3.2 C 0 km/h
2798 02-01-2009 07:56:01 -3.2 C 2.98 g/m*3 -3.2 C 0 km/h
2799 02-01-2009 08:08:01 -3.3 C 3 g/m*3 -3.3 C 0 km/h
2800 02-01-2009 08:20:59 -3.3 C 3.04 g/m*3 -3.3 C 0 km/h
Sensor: Nr:Datum:Temp:Abs-Feuchte:Windchill:Wind:
Aussen-T/F 2801 02-01-2009 08:32:58 -3.3 C 3.11 g/m*3 -3.3 C 0 km/h
2802 02-01-2009 08:44:57 -3.3 C 3.15 g/m*3 -3.3 C 0 km/h
2803 02-01-2009 08:56:57 -3.3 C 3.15 g/m*3 -3.3 C 0 km/h
2804 02-01-2009 09:08:58 -3.2 C 3.18 g/m*3 -3.2 C 0 km/h
2805 02-01-2009 09:20:58 -3.1 C 3.2 g/m*3 -3.1 C 0 km/h
2806 02-01-2009 09:32:57 -3.1 C 3.2 g/m*3 -3.1 C 0 km/h
2807 02-01-2009 09:44:58 -3 C 3.22 g/m*3 -3 C 0 km/h
2808 02-01-2009 09:56:58 -3 C 3.22 g/m*3 -3 C 0 km/h
2809 02-01-2009 10:08:57 -2.8 C 3.27 g/m*3 -2.8 C 0 km/h
2810 02-01-2009 10:20:57 -2.8 C 3.27 g/m*3 -2.8 C 0 km/h
2811 02-01-2009 10:32:57 -2.7 C 3.25 g/m*3 -2.7 C 0 km/h
2812 02-01-2009 10:44:57 -2.7 C 3.25 g/m*3 -2.7 C 0 km/h
2813 02-01-2009 10:56:57 -2.5 C 3.3 g/m*3 -2.5 C 0 km/h
2814 02-01-2009 11:08:56 -2.3 C 3.34 g/m*3 -2.3 C 0 km/h
2815 02-01-2009 11:20:57 -2.1 C 3.39 g/m*3 -2.1 C 0 km/h
2816 02-01-2009 11:32:57 -2 C 3.37 g/m*3 -2 C 0 km/h
2817 02-01-2009 11:44:56 -1.8 C 3.42 g/m*3 -1.8 C 0 km/h
2818 02-01-2009 11:56:56 -1.7 C 3.44 g/m*3 -1.7 C 0 km/h
2819 02-01-2009 12:08:57 -1.7 C 3.44 g/m*3 -1.7 C 0 km/h
2820 02-01-2009 12:20:56 -1.7 C 3.49 g/m*3 -1.7 C 0 km/h
2821 02-01-2009 12:32:56 -1.6 C 3.51 g/m*3 -1.6 C 0 km/h
2822 02-01-2009 12:44:55 -1.5 C 3.54 g/m*3 -1.5 C 0 km/h
2823 02-01-2009 12:56:55 -1.3 C 3.59 g/m*3 -1.3 C 0 km/h
2824 02-01-2009 13:08:56 -1.1 C 3.64 g/m*3 -1.1 C 0 km/h
2825 02-01-2009 13:20:55 -1 C 3.66 g/m*3 -1 C 0 km/h
Sensor: Nr:Datum:Temp:Abs-Feuchte:Windchill:Wind:
Aussen-T/F 2826 02-01-2009 13:32:55 -0.8 C 3.71 g/m*3 -0.8 C 0 km/h
2827 02-01-2009 13:44:55 -0.8 C 3.71 g/m*3 -0.8 C 0 km/h
2828 02-01-2009 13:56:55 -0.8 C 3.71 g/m*3 -0.8 C 0 km/h
2829 02-01-2009 14:08:55 -0.6 C 3.76 g/m*3 -0.6 C 0 km/h
2830 02-01-2009 14:20:55 -0.6 C 3.76 g/m*3 -0.6 C 0 km/h
2831 02-01-2009 14:32:54 -0.5 C 3.79 g/m*3 -0.5 C 0 km/h
2832 02-01-2009 14:44:55 -0.5 C 3.79 g/m*3 -0.5 C 0 km/h
2833 02-01-2009 14:56:55 -0.5 C 3.79 g/m*3 -0.5 C 0 km/h
2834 02-01-2009 15:08:54 -0.5 C 3.79 g/m*3 -0.5 C 0 km/h
2835 02-01-2009 15:20:55 -0.5 C 3.79 g/m*3 -0.5 C 0 km/h
2836 02-01-2009 15:32:54 -0.5 C 3.79 g/m*3 -0.5 C 0 km/h
2837 02-01-2009 15:44:54 -0.5 C 3.79 g/m*3 -0.5 C 0 km/h
2838 02-01-2009 15:56:55 -0.5 C 3.84 g/m*3 -0.5 C 0 km/h
2839 02-01-2009 16:08:53 -0.5 C 3.84 g/m*3 -0.5 C 0 km/h
2840 02-01-2009 16:20:54 -0.6 C 3.81 g/m*3 -0.6 C 0 km/h
2841 02-01-2009 16:32:54 -0.6 C 3.86 g/m*3 -0.6 C 0 km/h
2842 02-01-2009 16:44:53 -0.6 C 3.86 g/m*3 -0.6 C 0 km/h
2843 02-01-2009 16:56:53 -0.6 C 3.9 g/m*3 -0.6 C 0 km/h
2844 02-01-2009 17:08:54 -0.6 C 3.9 g/m*3 -0.6 C 0 km/h
2845 02-01-2009 17:20:53 -0.4 C 3.96 g/m*3 -0.4 C 0 km/h
2846 02-01-2009 17:32:53 -0.5 C 3.93 g/m*3 -0.5 C 0 km/h
2847 02-01-2009 17:44:53 -0.5 C 3.93 g/m*3 -0.5 C 0 km/h
2848 02-01-2009 17:56:53 -0.5 C 3.93 g/m*3 -0.5 C 0 km/h
2849 02-01-2009 18:08:53 -0.6 C 3.9 g/m*3 -0.6 C 0 km/h
2850 02-01-2009 18:20:52 -0.4 C 3.96 g/m*3 -0.4 C 0 km/h
Sensor: Nr:Datum:Temp:Abs-Feuchte:Windchill:Wind:
Aussen-T/F 2851 02-01-2009 18:32:52 -0.6 C 3.9 g/m*3 -0.6 C 0 km/h
2852 02-01-2009 18:44:52 -0.4 C 3.96 g/m*3 -0.4 C 0 km/h
2853 02-01-2009 18:56:52 -0.4 C 3.96 g/m*3 -0.4 C 0 km/h
2854 02-01-2009 19:08:52 -0.6 C 3.9 g/m*3 -0.6 C 0 km/h
2855 02-01-2009 19:20:52 -0.6 C 3.9 g/m*3 -0.6 C 0 km/h
2856 02-01-2009 19:32:52 -0.4 C 3.96 g/m*3 -0.4 C 0 km/h
2857 02-01-2009 19:44:52 -0.5 C 3.98 g/m*3 -0.5 C 0 km/h
2858 02-01-2009 19:56:52 -0.6 C 3.95 g/m*3 -0.6 C 0 km/h
2859 02-01-2009 20:08:51 -0.6 C 3.95 g/m*3 -0.6 C 0 km/h
2860 02-01-2009 20:20:52 -0.6 C 3.95 g/m*3 -0.6 C 0 km/h
2861 02-01-2009 20:32:51 -0.6 C 3.95 g/m*3 -0.6 C 0 km/h
2862 02-01-2009 20:44:51 -0.6 C 3.95 g/m*3 -0.6 C 0 km/h
2863 02-01-2009 20:56:51 -0.6 C 3.95 g/m*3 -0.6 C 0 km/h
2864 02-01-2009 21:08:52 -0.6 C 3.95 g/m*3 -0.6 C 0 km/h
2865 02-01-2009 21:20:51 -0.6 C 3.95 g/m*3 -0.6 C 0 km/h
2866 02-01-2009 21:32:51 -0.6 C 3.95 g/m*3 -0.6 C 0 km/h
2867 02-01-2009 21:44:50 -0.5 C 3.98 g/m*3 -0.5 C 0 km/h
2868 02-01-2009 21:56:50 -0.6 C 3.95 g/m*3 -0.6 C 0 km/h
2869 02-01-2009 22:08:51 -0.6 C 3.95 g/m*3 -0.6 C 0 km/h
2870 02-01-2009 22:20:50 -0.6 C 3.95 g/m*3 -0.6 C 0 km/h
2871 02-01-2009 22:33:51 -0.6 C 3.95 g/m*3 -0.6 C 0 km/h
2872 02-01-2009 22:45:51 -0.6 C 3.95 g/m*3 -0.6 C 0 km/h
2873 02-01-2009 22:57:51 -0.7 C 3.92 g/m*3 -0.7 C 0 km/h
2874 02-01-2009 23:09:51 -0.8 C 3.9 g/m*3 -0.8 C 0 km/h
2875 02-01-2009 23:21:51 -0.8 C 3.9 g/m*3 -0.8 C 0 km/h
Sensor: Nr:Datum:Temp:Abs-Feuchte:Windchill:Wind:
Aussen-T/F 2876 02-01-2009 23:33:51 -0.8 C 3.9 g/m*3 -0.8 C 0 km/h
2877 02-01-2009 23:45:51 -0.7 C 3.92 g/m*3 -0.7 C 0 km/h
2878 02-01-2009 23:57:51 -0.7 C 3.92 g/m*3 -0.7 C 0 km/h
2879 03-01-2009 00:09:51 -0.7 C 3.92 g/m*3 -0.7 C 0 km/h
2880 03-01-2009 00:21:51 -0.6 C 3.95 g/m*3 -0.6 C 0 km/h
2881 03-01-2009 00:33:51 -0.7 C 3.92 g/m*3 -0.7 C 0 km/h
2882 03-01-2009 00:45:51 -0.7 C 3.88 g/m*3 -0.7 C 0 km/h
2883 03-01-2009 00:57:51 -0.8 C 3.67 g/m*3 -0.8 C 0 km/h
2884 03-01-2009 01:09:51 -1.2 C 3.43 g/m*3 -1.2 C 0 km/h
2885 03-01-2009 01:21:51 -1.7 C 3.31 g/m*3 -1.7 C 0 km/h
2886 03-01-2009 01:33:51 -2.1 C 3.26 g/m*3 -2.1 C 0 km/h
2887 03-01-2009 01:45:51 -2.5 C 3.21 g/m*3 -2.5 C 0 km/h
2888 03-01-2009 01:57:51 -2.9 C 3.16 g/m*3 -2.9 C 0 km/h
2889 03-01-2009 02:09:51 -3.1 C 3.12 g/m*3 -3.1 C 0 km/h
2890 03-01-2009 02:21:51 -3.2 C 3.14 g/m*3 -3.2 C 0 km/h
2891 03-01-2009 02:33:52 -3.1 C 3.2 g/m*3 -3.1 C 0 km/h
2892 03-01-2009 02:45:52 -2.7 C 3.29 g/m*3 -2.7 C 0 km/h
2893 03-01-2009 02:57:52 -2.6 C 3.31 g/m*3 -2.6 C 0 km/h
2894 03-01-2009 03:09:52 -2.5 C 3.34 g/m*3 -2.5 C 0 km/h
2895 03-01-2009 03:21:52 -2.4 C 3.36 g/m*3 -2.4 C 0 km/h
2896 03-01-2009 03:33:52 -2.3 C 3.38 g/m*3 -2.3 C 0 km/h
2897 03-01-2009 03:45:52 -2.2 C 3.41 g/m*3 -2.2 C 0 km/h
2898 03-01-2009 03:57:52 -2.1 C 3.39 g/m*3 -2.1 C 0 km/h
2899 03-01-2009 04:09:52 -2.2 C 3.28 g/m*3 -2.2 C 0 km/h
2900 03-01-2009 04:21:52 -2.5 C 3.17 g/m*3 -2.5 C 0 km/h
Sensor: Nr:Datum:Temp:Abs-Feuchte:Windchill:Wind:
Aussen-T/F 2901 03-01-2009 04:33:52 -2.9 C 3.05 g/m*3 -2.9 C 0 km/h
2902 03-01-2009 04:45:52 -3 C 3.06 g/m*3 -3 C 0 km/h
2903 03-01-2009 04:57:52 -3 C 3.02 g/m*3 -3 C 0 km/h
2904 03-01-2009 05:09:52 -2.8 C 3.07 g/m*3 -2.8 C 0 km/h
2905 03-01-2009 05:21:52 -2.7 C 3.09 g/m*3 -2.7 C 0 km/h
2906 03-01-2009 05:33:52 -2.6 C 3.11 g/m*3 -2.6 C 0 km/h
2907 03-01-2009 05:45:52 -2.6 C 3.11 g/m*3 -2.6 C 0 km/h
2908 03-01-2009 05:57:52 -2.6 C 3.07 g/m*3 -2.6 C 0 km/h
2909 03-01-2009 06:09:52 -2.6 C 3.11 g/m*3 -2.6 C 0 km/h
2910 03-01-2009 06:21:52 -2.6 C 3.11 g/m*3 -2.6 C 0 km/h
2911 03-01-2009 06:33:52 -2.6 C 3.11 g/m*3 -2.6 C 0 km/h
2912 03-01-2009 06:45:53 -2.6 C 3.11 g/m*3 -2.6 C 0 km/h
2913 03-01-2009 06:57:53 -2.6 C 3.11 g/m*3 -2.6 C 0 km/h
2914 03-01-2009 07:09:53 -2.8 C 2.99 g/m*3 -2.8 C 0 km/h
2915 03-01-2009 07:21:53 -2.9 C 2.97 g/m*3 -2.9 C 0 km/h
2916 03-01-2009 07:33:53 -3 C 2.91 g/m*3 -3 C 0 km/h
2917 03-01-2009 07:45:53 -3.4 C 2.83 g/m*3 -3.4 C 0 km/h
2918 03-01-2009 07:57:53 -3.9 C 2.73 g/m*3 -3.9 C 0 km/h
2919 03-01-2009 08:09:53 -4 C 2.74 g/m*3 -4 C 0 km/h
2920 03-01-2009 08:21:53 -4 C 2.78 g/m*3 -4 C 0 km/h
2921 03-01-2009 08:33:53 -4 C 2.78 g/m*3 -4 C 0 km/h
2922 03-01-2009 08:45:53 -4.2 C 2.74 g/m*3 -4.2 C 0 km/h
2923 03-01-2009 08:57:53 -4.4 C 2.7 g/m*3 -4.4 C 0 km/h
2924 03-01-2009 09:09:51 -4.7 C 2.64 g/m*3 -4.7 C 0 km/h
2925 03-01-2009 09:21:50 -4.7 C 2.68 g/m*3 -4.7 C 0 km/h
Sensor: Nr:Datum:Temp:Abs-Feuchte:Windchill:Wind:
Aussen-T/F 2926 03-01-2009 09:33:50 -4.7 C 2.68 g/m*3 -4.7 C 0 km/h
2927 03-01-2009 09:45:50 -4.7 C 2.68 g/m*3 -4.7 C 0 km/h
2928 03-01-2009 09:57:50 -4.7 C 2.71 g/m*3 -4.7 C 0 km/h
2929 03-01-2009 10:09:50 -4.7 C 2.71 g/m*3 -4.7 C 0 km/h
2930 03-01-2009 10:21:50 -4.7 C 2.71 g/m*3 -4.7 C 0 km/h
2931 03-01-2009 10:33:50 -4.6 C 2.73 g/m*3 -4.6 C 0 km/h
2932 03-01-2009 10:45:50 -4.6 C 2.73 g/m*3 -4.6 C 0 km/h
2933 03-01-2009 10:57:50 -4.6 C 2.73 g/m*3 -4.6 C 0 km/h
2934 03-01-2009 11:09:49 -4.5 C 2.75 g/m*3 -4.5 C 0 km/h
2935 03-01-2009 11:21:50 -4.4 C 2.77 g/m*3 -4.4 C 0 km/h
2936 03-01-2009 11:33:49 -4.4 C 2.77 g/m*3 -4.4 C 0 km/h
2937 03-01-2009 11:45:49 -4.3 C 2.79 g/m*3 -4.3 C 0 km/h
2938 03-01-2009 11:57:50 -4.2 C 2.81 g/m*3 -4.2 C 0 km/h
2939 03-01-2009 12:09:48 -4.2 C 2.81 g/m*3 -4.2 C 0 km/h
2940 03-01-2009 12:21:49 -4.1 C 2.8 g/m*3 -4.1 C 0 km/h
2941 03-01-2009 12:33:49 -4.1 C 2.8 g/m*3 -4.1 C 0 km/h
2942 03-01-2009 12:45:48 -3.9 C 2.84 g/m*3 -3.9 C 0 km/h
2943 03-01-2009 12:57:48 -3.8 C 2.86 g/m*3 -3.8 C 0 km/h
2944 03-01-2009 13:09:49 -3.8 C 2.86 g/m*3 -3.8 C 0 km/h
2945 03-01-2009 13:21:48 -3.7 C 2.88 g/m*3 -3.7 C 0 km/h
2946 03-01-2009 13:33:48 -3.6 C 2.9 g/m*3 -3.6 C 0 km/h
2947 03-01-2009 13:45:48 -3.5 C 2.92 g/m*3 -3.5 C 0 km/h
2948 03-01-2009 13:57:48 -3.4 C 2.9 g/m*3 -3.4 C 0 km/h
2949 03-01-2009 14:09:48 -3.4 C 2.9 g/m*3 -3.4 C 0 km/h
2950 03-01-2009 14:21:47 -3.4 C 2.9 g/m*3 -3.4 C 0 km/h
Sensor: Nr:Datum:Temp:Abs-Feuchte:Windchill:Wind:
Aussen-T/F 2951 03-01-2009 14:33:47 -3.3 C 2.92 g/m*3 -3.3 C 0 km/h
2952 03-01-2009 14:45:47 -3.3 C 2.92 g/m*3 -3.3 C 0 km/h
2953 03-01-2009 14:57:47 -3.2 C 2.94 g/m*3 -3.2 C 0 km/h
2954 03-01-2009 15:09:47 -3.3 C 2.92 g/m*3 -3.3 C 0 km/h
2955 03-01-2009 15:21:47 -3.3 C 2.92 g/m*3 -3.3 C 0 km/h
2956 03-01-2009 15:33:47 -3.3 C 2.92 g/m*3 -3.3 C 0 km/h
2957 03-01-2009 15:45:47 -3.3 C 2.92 g/m*3 -3.3 C 0 km/h
2958 03-01-2009 15:57:47 -3.4 C 2.86 g/m*3 -3.4 C 0 km/h
2959 03-01-2009 16:09:46 -3.4 C 2.86 g/m*3 -3.4 C 0 km/h
2960 03-01-2009 16:21:47 -3.5 C 2.84 g/m*3 -3.5 C 0 km/h
2961 03-01-2009 16:33:46 -3.6 C 2.82 g/m*3 -3.6 C 0 km/h
2962 03-01-2009 16:45:46 -3.6 C 2.86 g/m*3 -3.6 C 0 km/h
2963 03-01-2009 16:57:46 -3.8 C 2.82 g/m*3 -3.8 C 0 km/h
2964 03-01-2009 17:09:46 -4 C 2.78 g/m*3 -4 C 0 km/h
2965 03-01-2009 17:21:46 -4.3 C 2.72 g/m*3 -4.3 C 0 km/h
2966 03-01-2009 17:33:46 -4.3 C 2.79 g/m*3 -4.3 C 0 km/h
2967 03-01-2009 17:45:46 -4.5 C 2.75 g/m*3 -4.5 C 0 km/h
2968 03-01-2009 17:57:46 -4.4 C 2.81 g/m*3 -4.4 C 0 km/h
2969 03-01-2009 18:09:46 -4.6 C 2.77 g/m*3 -4.6 C 0 km/h
2970 03-01-2009 18:21:45 -4.7 C 2.75 g/m*3 -4.7 C 0 km/h
2971 03-01-2009 18:33:45 -4.7 C 2.78 g/m*3 -4.7 C 0 km/h
2972 03-01-2009 18:45:45 -4.8 C 2.8 g/m*3 -4.8 C 0 km/h
2973 03-01-2009 18:57:45 -4.6 C 2.84 g/m*3 -4.6 C 0 km/h
2974 03-01-2009 19:09:45 -4.6 C 2.87 g/m*3 -4.6 C 0 km/h
2975 03-01-2009 19:21:44 -4.6 C 2.87 g/m*3 -4.6 C 0 km/h
Sensor: Nr:Datum:Temp:Abs-Feuchte:Windchill:Wind:
Aussen-T/F 2976 03-01-2009 19:33:45 -4.9 C 2.78 g/m*3 -4.9 C 0 km/h
2977 03-01-2009 19:45:45 -5.2 C 2.72 g/m*3 -5.2 C 0 km/h
2978 03-01-2009 19:57:45 -5.1 C 2.77 g/m*3 -5.1 C 0 km/h
2979 03-01-2009 20:09:44 -5 C 2.83 g/m*3 -5 C 0 km/h
2980 03-01-2009 20:21:45 -5.2 C 2.79 g/m*3 -5.2 C 0 km/h
2981 03-01-2009 20:33:44 -5.2 C 2.79 g/m*3 -5.2 C 0 km/h
2982 03-01-2009 20:45:44 -5 C 2.86 g/m*3 -5 C 0 km/h
2983 03-01-2009 20:57:44 -4.6 C 2.98 g/m*3 -4.6 C 0 km/h
2984 03-01-2009 21:09:43 -4.3 C 3.01 g/m*3 -4.3 C 0 km/h
2985 03-01-2009 21:21:44 -4.2 C 2.99 g/m*3 -4.2 C 0 km/h
2986 03-01-2009 21:33:44 -4.2 C 2.92 g/m*3 -4.2 C 0 km/h
2987 03-01-2009 21:45:43 -4.2 C 2.92 g/m*3 -4.2 C 0 km/h
2988 03-01-2009 21:57:43 -4.1 C 2.91 g/m*3 -4.1 C 0 km/h
2989 03-01-2009 22:09:44 -4.1 C 2.91 g/m*3 -4.1 C 0 km/h
2990 03-01-2009 22:21:43 -4 C 2.89 g/m*3 -4 C 0 km/h
2991 03-01-2009 22:33:43 -4 C 2.89 g/m*3 -4 C 0 km/h
2992 03-01-2009 22:46:44 -4 C 2.89 g/m*3 -4 C 0 km/h
2993 03-01-2009 22:58:44 -4 C 2.89 g/m*3 -4 C 0 km/h
2994 03-01-2009 23:10:44 -3.9 C 2.91 g/m*3 -3.9 C 0 km/h
2995 03-01-2009 23:22:44 -3.9 C 2.91 g/m*3 -3.9 C 0 km/h
2996 03-01-2009 23:34:44 -3.8 C 2.89 g/m*3 -3.8 C 0 km/h
2997 03-01-2009 23:46:44 -3.6 C 2.9 g/m*3 -3.6 C 0 km/h
2998 03-01-2009 23:58:44 -3.5 C 2.88 g/m*3 -3.5 C 0 km/h
2999 04-01-2009 00:10:44 -3.5 C 2.84 g/m*3 -3.5 C 0 km/h
3000 04-01-2009 00:22:44 -3.4 C 2.86 g/m*3 -3.4 C 0 km/h
Sensor: Nr:Datum:Temp:Abs-Feuchte:Windchill:Wind:
Aussen-T/F 3001 04-01-2009 00:34:45 -3.4 C 2.86 g/m*3 -3.4 C 0 km/h
3002 04-01-2009 00:46:45 -3.4 C 2.86 g/m*3 -3.4 C 0 km/h
3003 04-01-2009 00:58:45 -3.4 C 2.83 g/m*3 -3.4 C 0 km/h
3004 04-01-2009 01:10:45 -3.4 C 2.83 g/m*3 -3.4 C 0 km/h
3005 04-01-2009 01:22:45 -3.3 C 2.85 g/m*3 -3.3 C 0 km/h
3006 04-01-2009 01:34:45 -3.3 C 2.81 g/m*3 -3.3 C 0 km/h
3007 04-01-2009 01:46:45 -3.3 C 2.77 g/m*3 -3.3 C 0 km/h
3008 04-01-2009 01:58:45 -3.3 C 2.77 g/m*3 -3.3 C 0 km/h
3009 04-01-2009 02:10:45 -3.2 C 2.79 g/m*3 -3.2 C 0 km/h
3010 04-01-2009 02:22:45 -3.1 C 2.77 g/m*3 -3.1 C 0 km/h
3011 04-01-2009 02:34:45 -3.1 C 2.77 g/m*3 -3.1 C 0 km/h
3012 04-01-2009 02:46:45 -3.1 C 2.77 g/m*3 -3.1 C 0 km/h
3013 04-01-2009 02:58:45 -3.1 C 2.81 g/m*3 -3.1 C 0 km/h
3014 04-01-2009 03:10:45 -3.1 C 2.81 g/m*3 -3.1 C 0 km/h
3015 04-01-2009 03:22:45 -3 C 2.79 g/m*3 -3 C 0 km/h
3016 04-01-2009 03:34:45 -3 C 2.79 g/m*3 -3 C 0 km/h
3017 04-01-2009 03:46:45 -3 C 2.79 g/m*3 -3 C 0 km/h
3018 04-01-2009 03:58:45 -3 C 2.79 g/m*3 -3 C 0 km/h
3019 04-01-2009 04:10:45 -2.9 C 2.81 g/m*3 -2.9 C 0 km/h
3020 04-01-2009 04:22:45 -2.8 C 2.83 g/m*3 -2.8 C 0 km/h
3021 04-01-2009 04:34:46 -2.7 C 2.85 g/m*3 -2.7 C 0 km/h
3022 04-01-2009 04:46:46 -2.8 C 2.83 g/m*3 -2.8 C 0 km/h
3023 04-01-2009 04:58:46 -2.7 C 2.85 g/m*3 -2.7 C 0 km/h
3024 04-01-2009 05:10:46 -2.6 C 2.83 g/m*3 -2.6 C 0 km/h
3025 04-01-2009 05:22:46 -2.6 C 2.83 g/m*3 -2.6 C 0 km/h
Sensor: Nr:Datum:Temp:Abs-Feuchte:Windchill:Wind:
Aussen-T/F 3026 04-01-2009 05:34:46 -2.5 C 2.85 g/m*3 -2.5 C 0 km/h
3027 04-01-2009 05:46:46 -2.4 C 2.83 g/m*3 -2.4 C 0 km/h
3028 04-01-2009 05:58:46 -2.4 C 2.83 g/m*3 -2.4 C 0 km/h
3029 04-01-2009 06:10:46 -2.3 C 2.85 g/m*3 -2.3 C 0 km/h
3030 04-01-2009 06:22:46 -2.3 C 2.85 g/m*3 -2.3 C 0 km/h
3031 04-01-2009 06:34:46 -2.3 C 2.85 g/m*3 -2.3 C 0 km/h
3032 04-01-2009 06:46:46 -2.3 C 2.89 g/m*3 -2.3 C 0 km/h
3033 04-01-2009 06:58:46 -2.2 C 2.87 g/m*3 -2.2 C 0 km/h
3034 04-01-2009 07:10:46 -2.2 C 2.87 g/m*3 -2.2 C 0 km/h
3035 04-01-2009 07:22:46 -2.1 C 2.89 g/m*3 -2.1 C 0 km/h
3036 04-01-2009 07:34:44 -2.1 C 2.89 g/m*3 -2.1 C 0 km/h
3037 04-01-2009 07:46:44 -2 C 2.91 g/m*3 -2 C 0 km/h
3038 04-01-2009 07:58:44 -1.9 C 2.89 g/m*3 -1.9 C 0 km/h
3039 04-01-2009 08:10:44 -1.8 C 2.95 g/m*3 -1.8 C 0 km/h
3040 04-01-2009 08:22:43 -1.7 C 2.97 g/m*3 -1.7 C 0 km/h
3041 04-01-2009 08:34:44 -1.6 C 2.95 g/m*3 -1.6 C 0 km/h
3042 04-01-2009 08:46:43 -1.5 C 2.92 g/m*3 -1.5 C 0 km/h
3043 04-01-2009 08:58:43 -1.5 C 2.92 g/m*3 -1.5 C 0 km/h
3044 04-01-2009 09:10:43 -1.4 C 2.95 g/m*3 -1.4 C 0 km/h
3045 04-01-2009 09:22:43 -1.4 C 2.95 g/m*3 -1.4 C 0 km/h
3046 04-01-2009 09:34:43 -1.3 C 2.97 g/m*3 -1.3 C 0 km/h
3047 04-01-2009 09:46:43 -1.2 C 2.99 g/m*3 -1.2 C 0 km/h
3048 04-01-2009 09:58:43 -1.1 C 2.96 g/m*3 -1.1 C 0 km/h
3049 04-01-2009 10:10:43 -1 C 2.98 g/m*3 -1 C 0 km/h
3050 04-01-2009 10:22:42 -1 C 2.98 g/m*3 -1 C 0 km/h
Sensor: Nr:Datum:Temp:Abs-Feuchte:Windchill:Wind:
Aussen-T/F 3051 04-01-2009 10:34:42 -0.9 C 3 g/m*3 -0.9 C 0 km/h
3052 04-01-2009 10:46:42 -0.4 C 3.11 g/m*3 -0.4 C 0 km/h
3053 04-01-2009 10:58:42 -0.4 C 3.06 g/m*3 -0.4 C 0 km/h
3054 04-01-2009 11:10:42 -0.3 C 3.08 g/m*3 -0.3 C 0 km/h
3055 04-01-2009 11:22:41 -0.2 C 3.11 g/m*3 -0.2 C 0 km/h
3056 04-01-2009 11:34:42 -0.2 C 3.06 g/m*3 -0.2 C 0 km/h
3057 04-01-2009 11:46:42 -0.2 C 3.06 g/m*3 -0.2 C 0 km/h
3058 04-01-2009 11:58:42 -0.1 C 3.08 g/m*3 -0.1 C 0 km/h
3059 04-01-2009 12:10:41 -0.1 C 3.08 g/m*3 -0.1 C 0 km/h
3060 04-01-2009 12:22:42 -0.1 C 3.13 g/m*3 -0.1 C 0 km/h
3061 04-01-2009 12:34:41 0 C 3.1 g/m*3 0 C 0 km/h
3062 04-01-2009 12:46:41 0 C 3.1 g/m*3 0 C 0 km/h
3063 04-01-2009 12:58:41 0.1 C 3.12 g/m*3 0.1 C 0 km/h
3064 04-01-2009 13:10:41 0.3 C 3.12 g/m*3 0.3 C 0 km/h
3065 04-01-2009 13:22:41 0.5 C 3.11 g/m*3 0.5 C 0 km/h
3066 04-01-2009 13:34:41 0.8 C 3.02 g/m*3 0.8 C 0 km/h
3067 04-01-2009 13:46:41 0.9 C 2.94 g/m*3 0.9 C 0 km/h
3068 04-01-2009 13:58:41 0.9 C 2.99 g/m*3 0.9 C 0 km/h
3069 04-01-2009 14:10:41 0.8 C 2.92 g/m*3 0.8 C 0 km/h
3070 04-01-2009 14:22:40 0.6 C 2.93 g/m*3 0.6 C 0 km/h
3071 04-01-2009 14:34:40 0.6 C 2.98 g/m*3 0.6 C 0 km/h
3072 04-01-2009 14:46:40 0.5 C 2.96 g/m*3 0.5 C 0 km/h
3073 04-01-2009 14:58:40 0.5 C 2.91 g/m*3 0.5 C 0 km/h
3074 04-01-2009 15:10:40 0.5 C 2.91 g/m*3 0.5 C 0 km/h
3075 04-01-2009 15:22:39 0.4 C 2.89 g/m*3 0.4 C 0 km/h
Sensor: Nr:Datum:Temp:Abs-Feuchte:Windchill:Wind:
Aussen-T/F 3076 04-01-2009 15:34:40 0.4 C 2.89 g/m*3 0.4 C 0 km/h
3077 04-01-2009 15:46:39 0.3 C 2.92 g/m*3 0.3 C 0 km/h
3078 04-01-2009 15:58:39 0.3 C 2.87 g/m*3 0.3 C 0 km/h
3079 04-01-2009 16:10:39 0.2 C 2.9 g/m*3 0.2 C 0 km/h
3080 04-01-2009 16:22:39 0.2 C 2.95 g/m*3 0.2 C 0 km/h
3081 04-01-2009 16:34:39 0.1 C 2.93 g/m*3 0.1 C 0 km/h
3082 04-01-2009 16:46:39 0 C 2.96 g/m*3 0 C 0 km/h
3083 04-01-2009 16:58:39 0 C 2.96 g/m*3 0 C 0 km/h
3084 04-01-2009 17:10:39 0 C 2.91 g/m*3 0 C 0 km/h
3085 04-01-2009 17:22:39 0.1 C 2.93 g/m*3 0.1 C 0 km/h
3086 04-01-2009 17:34:38 0 C 2.91 g/m*3 0 C 0 km/h
3087 04-01-2009 17:46:39 0 C 2.96 g/m*3 0 C 0 km/h
3088 04-01-2009 17:58:39 -0.1 C 2.98 g/m*3 -0.1 C 0 km/h
3089 04-01-2009 18:10:38 -0.2 C 3.01 g/m*3 -0.2 C 0 km/h
3090 04-01-2009 18:22:38 -0.2 C 3.01 g/m*3 -0.2 C 0 km/h
3091 04-01-2009 18:34:38 -0.2 C 3.01 g/m*3 -0.2 C 0 km/h
3092 04-01-2009 18:46:37 -0.2 C 3.01 g/m*3 -0.2 C 0 km/h
3093 04-01-2009 18:58:37 -0.1 C 3.03 g/m*3 -0.1 C 0 km/h
3094 04-01-2009 19:10:38 0.1 C 3.02 g/m*3 0.1 C 0 km/h
3095 04-01-2009 19:22:37 0.1 C 3.02 g/m*3 0.1 C 0 km/h
3096 04-01-2009 19:34:37 0.1 C 3.02 g/m*3 0.1 C 0 km/h
3097 04-01-2009 19:46:37 0 C 3.05 g/m*3 0 C 0 km/h
3098 04-01-2009 19:58:37 0 C 3.05 g/m*3 0 C 0 km/h
3099 04-01-2009 20:10:37 0 C 3.05 g/m*3 0 C 0 km/h
3100 04-01-2009 20:22:37 0 C 3.05 g/m*3 0 C 0 km/h
Sensor: Nr:Datum:Temp:Abs-Feuchte:Windchill:Wind:
Aussen-T/F 3101 04-01-2009 20:34:36 0 C 3.05 g/m*3 0 C 0 km/h
3102 04-01-2009 20:46:37 -0.1 C 3.03 g/m*3 -0.1 C 0 km/h
3103 04-01-2009 20:58:37 -0.1 C 3.03 g/m*3 -0.1 C 0 km/h
3104 04-01-2009 21:10:37 -0.1 C 3.08 g/m*3 -0.1 C 0 km/h
3105 04-01-2009 21:22:36 -0.1 C 3.03 g/m*3 -0.1 C 0 km/h
3106 04-01-2009 21:34:36 -0.1 C 3.08 g/m*3 -0.1 C 0 km/h
3107 04-01-2009 21:46:36 -0.2 C 3.01 g/m*3 -0.2 C 0 km/h
3108 04-01-2009 21:58:36 -0.2 C 3.01 g/m*3 -0.2 C 0 km/h
3109 04-01-2009 22:10:36 -0.2 C 3.01 g/m*3 -0.2 C 0 km/h
3110 04-01-2009 22:22:35 -0.2 C 3.01 g/m*3 -0.2 C 0 km/h
3111 04-01-2009 22:34:36 -0.2 C 3.06 g/m*3 -0.2 C 0 km/h
3112 04-01-2009 22:46:35 -0.2 C 3.06 g/m*3 -0.2 C 0 km/h
3113 04-01-2009 22:58:35 -0.2 C 3.06 g/m*3 -0.2 C 0 km/h
3114 04-01-2009 23:10:35 -0.3 C 3.18 g/m*3 -0.3 C 0 km/h
3115 04-01-2009 23:22:36 -0.4 C 3.25 g/m*3 -0.4 C 0 km/h
3116 04-01-2009 23:34:35 -0.5 C 3.28 g/m*3 -0.5 C 0 km/h
3117 04-01-2009 23:46:35 -0.7 C 3.28 g/m*3 -0.7 C 0 km/h
3118 04-01-2009 23:58:35 -0.8 C 3.3 g/m*3 -0.8 C 0 km/h
3119 05-01-2009 00:10:34 -0.8 C 3.3 g/m*3 -0.8 C 0 km/h
3120 05-01-2009 00:22:35 -0.9 C 3.37 g/m*3 -0.9 C 0 km/h
3121 05-01-2009 00:34:35 -0.9 C 3.41 g/m*3 -0.9 C 0 km/h
3122 05-01-2009 00:46:34 -1 C 3.39 g/m*3 -1 C 0 km/h
3123 05-01-2009 00:58:34 -1.1 C 3.41 g/m*3 -1.1 C 0 km/h
3124 05-01-2009 01:10:35 -1.1 C 3.46 g/m*3 -1.1 C 0 km/h
3125 05-01-2009 01:22:34 -1.1 C 3.46 g/m*3 -1.1 C 0 km/h
Sensor: Nr:Datum:Temp:Abs-Feuchte:Windchill:Wind:
Aussen-T/F 3126 05-01-2009 01:34:34 -1.2 C 3.48 g/m*3 -1.2 C 0 km/h
3127 05-01-2009 01:46:33 -1.2 C 3.52 g/m*3 -1.2 C 0 km/h
3128 05-01-2009 01:58:33 -1.3 C 3.54 g/m*3 -1.3 C 0 km/h
3129 05-01-2009 02:10:34 -1.3 C 3.54 g/m*3 -1.3 C 0 km/h
3130 05-01-2009 02:22:33 -1.2 C 3.57 g/m*3 -1.2 C 0 km/h
3131 05-01-2009 02:34:33 -1.3 C 3.54 g/m*3 -1.3 C 0 km/h
3132 05-01-2009 02:47:34 -1.2 C 3.57 g/m*3 -1.2 C 0 km/h
3133 05-01-2009 02:59:34 -1.2 C 3.52 g/m*3 -1.2 C 0 km/h
3134 05-01-2009 03:11:34 -1.2 C 3.57 g/m*3 -1.2 C 0 km/h
3135 05-01-2009 03:23:34 -1.3 C 3.63 g/m*3 -1.3 C 0 km/h
3136 05-01-2009 03:35:34 -1.3 C 3.63 g/m*3 -1.3 C 0 km/h
3137 05-01-2009 03:47:34 -1.4 C 3.65 g/m*3 -1.4 C 0 km/h
3138 05-01-2009 03:59:34 -1.5 C 3.67 g/m*3 -1.5 C 0 km/h
3139 05-01-2009 04:11:34 -1.5 C 3.67 g/m*3 -1.5 C 0 km/h
3140 05-01-2009 04:23:33 -1.6 C 3.68 g/m*3 -1.6 C 0 km/h
3141 05-01-2009 04:35:34 -1.6 C 3.68 g/m*3 -1.6 C 0 km/h
3142 05-01-2009 04:47:34 -1.6 C 3.73 g/m*3 -1.6 C 0 km/h
3143 05-01-2009 04:59:34 -1.6 C 3.73 g/m*3 -1.6 C 0 km/h
3144 05-01-2009 05:11:33 -1.6 C 3.73 g/m*3 -1.6 C 0 km/h
3145 05-01-2009 05:23:33 -1.6 C 3.73 g/m*3 -1.6 C 0 km/h
3146 05-01-2009 05:35:34 -1.6 C 3.77 g/m*3 -1.6 C 0 km/h
3147 05-01-2009 05:47:33 -1.7 C 3.75 g/m*3 -1.7 C 0 km/h
3148 05-01-2009 05:59:33 -1.7 C 3.75 g/m*3 -1.7 C 0 km/h
3149 05-01-2009 06:11:33 -1.7 C 3.75 g/m*3 -1.7 C 0 km/h
3150 05-01-2009 06:23:33 -1.6 C 3.77 g/m*3 -1.6 C 0 km/h
Sensor: Nr:Datum:Temp:Abs-Feuchte:Windchill:Wind:
Aussen-T/F 3151 05-01-2009 06:35:32 -1.7 C 3.75 g/m*3 -1.7 C 0 km/h
3152 05-01-2009 06:47:33 -1.6 C 3.77 g/m*3 -1.6 C 0 km/h
3153 05-01-2009 06:59:34 -1.6 C 3.77 g/m*3 -1.6 C 0 km/h
3154 05-01-2009 07:11:32 -1.7 C 3.75 g/m*3 -1.7 C 0 km/h
3155 05-01-2009 07:23:32 -1.6 C 3.77 g/m*3 -1.6 C 0 km/h
3156 05-01-2009 07:35:32 -1.7 C 3.75 g/m*3 -1.7 C 0 km/h
3157 05-01-2009 07:47:32 -1.7 C 3.75 g/m*3 -1.7 C 0 km/h
3158 05-01-2009 07:59:32 -1.7 C 3.79 g/m*3 -1.7 C 0 km/h
3159 05-01-2009 08:11:32 -1.7 C 3.79 g/m*3 -1.7 C 0 km/h
3160 05-01-2009 08:23:31 -1.7 C 3.79 g/m*3 -1.7 C 0 km/h
3161 05-01-2009 08:35:32 -1.7 C 3.75 g/m*3 -1.7 C 0 km/h
3162 05-01-2009 08:47:31 -1.7 C 3.79 g/m*3 -1.7 C 0 km/h
3163 05-01-2009 08:59:31 -1.7 C 3.79 g/m*3 -1.7 C 0 km/h
3164 05-01-2009 09:11:32 -1.6 C 3.81 g/m*3 -1.6 C 0 km/h
3165 05-01-2009 09:23:31 -1.6 C 3.81 g/m*3 -1.6 C 0 km/h
3166 05-01-2009 09:35:31 -1.5 C 3.84 g/m*3 -1.5 C 0 km/h
3167 05-01-2009 09:47:31 -1.4 C 3.87 g/m*3 -1.4 C 0 km/h
3168 05-01-2009 09:59:31 -1.3 C 3.85 g/m*3 -1.3 C 0 km/h
3169 05-01-2009 10:11:31 -1.2 C 3.83 g/m*3 -1.2 C 0 km/h
3170 05-01-2009 10:23:30 -1 C 3.89 g/m*3 -1 C 0 km/h
3171 05-01-2009 10:35:31 -1 C 3.84 g/m*3 -1 C 0 km/h
3172 05-01-2009 10:47:30 -1 C 3.8 g/m*3 -1 C 0 km/h
3173 05-01-2009 10:59:30 -0.9 C 3.78 g/m*3 -0.9 C 0 km/h
3174 05-01-2009 11:11:30 -0.8 C 3.8 g/m*3 -0.8 C 0 km/h
3175 05-01-2009 11:23:30 -0.9 C 3.73 g/m*3 -0.9 C 0 km/h
Sensor: Nr:Datum:Temp:Abs-Feuchte:Windchill:Wind:
Aussen-T/F 3176 05-01-2009 11:35:30 -0.9 C 3.69 g/m*3 -0.9 C 0 km/h
3177 05-01-2009 11:47:29 -0.6 C 3.76 g/m*3 -0.6 C 0 km/h
3178 05-01-2009 11:59:29 -0.3 C 3.84 g/m*3 -0.3 C 0 km/h
3179 05-01-2009 12:11:29 -0.3 C 3.8 g/m*3 -0.3 C 0 km/h
3180 05-01-2009 12:23:30 -0.2 C 3.82 g/m*3 -0.2 C 0 km/h
3181 05-01-2009 12:35:29 -0.1 C 3.85 g/m*3 -0.1 C 0 km/h
3182 05-01-2009 12:47:29 0.2 C 3.93 g/m*3 0.2 C 0 km/h
3183 05-01-2009 12:59:29 0.3 C 3.96 g/m*3 0.3 C 0 km/h
3184 05-01-2009 13:11:29 0.4 C 3.98 g/m*3 0.4 C 0 km/h
3185 05-01-2009 13:23:29 0.5 C 4.01 g/m*3 0.5 C 0 km/h
3186 05-01-2009 13:35:28 0.3 C 3.91 g/m*3 0.3 C 0 km/h
3187 05-01-2009 13:47:29 0.1 C 3.66 g/m*3 0.1 C 0 km/h
3188 05-01-2009 13:59:30 0 C 3.44 g/m*3 0 C 0 km/h
3189 05-01-2009 14:11:28 0 C 3.39 g/m*3 0 C 0 km/h
3190 05-01-2009 14:23:28 0.1 C 3.32 g/m*3 0.1 C 0 km/h
3191 05-01-2009 14:35:28 0.1 C 3.22 g/m*3 0.1 C 0 km/h
3192 05-01-2009 14:47:28 0.2 C 3.19 g/m*3 0.2 C 0 km/h
3193 05-01-2009 14:59:28 0.2 C 3.19 g/m*3 0.2 C 0 km/h
3194 05-01-2009 15:11:28 0.1 C 3.07 g/m*3 0.1 C 0 km/h
3195 05-01-2009 15:23:27 -0.1 C 2.94 g/m*3 -0.1 C 0 km/h
3196 05-01-2009 15:35:28 -0.2 C 2.91 g/m*3 -0.2 C 0 km/h
3197 05-01-2009 15:47:27 -0.3 C 2.94 g/m*3 -0.3 C 0 km/h
3198 05-01-2009 15:59:27 -0.5 C 2.95 g/m*3 -0.5 C 0 km/h
3199 05-01-2009 16:11:27 -0.8 C 2.75 g/m*3 -0.8 C 0 km/h
3200 05-01-2009 16:23:27 -1 C 2.76 g/m*3 -1 C 0 km/h
Sensor: Nr:Datum:Temp:Abs-Feuchte:Windchill:Wind:
Aussen-T/F 3201 05-01-2009 16:35:27 -1.2 C 2.76 g/m*3 -1.2 C 0 km/h
3202 05-01-2009 16:47:26 -1.3 C 2.79 g/m*3 -1.3 C 0 km/h
3203 05-01-2009 16:59:26 -1.3 C 2.83 g/m*3 -1.3 C 0 km/h
3204 05-01-2009 17:11:27 -1.2 C 2.9 g/m*3 -1.2 C 0 km/h
3205 05-01-2009 17:23:27 -1.2 C 2.9 g/m*3 -1.2 C 0 km/h
3206 05-01-2009 17:35:26 -1.2 C 2.85 g/m*3 -1.2 C 0 km/h
3207 05-01-2009 17:47:27 -1.3 C 2.83 g/m*3 -1.3 C 0 km/h
3208 05-01-2009 17:59:27 -1.3 C 2.79 g/m*3 -1.3 C 0 km/h
3209 05-01-2009 18:11:26 -1.4 C 2.77 g/m*3 -1.4 C 0 km/h
3210 05-01-2009 18:23:26 -1.5 C 2.75 g/m*3 -1.5 C 0 km/h
3211 05-01-2009 18:35:25 -1.5 C 2.71 g/m*3 -1.5 C 0 km/h
3212 05-01-2009 18:47:26 -1.5 C 2.66 g/m*3 -1.5 C 0 km/h
3213 05-01-2009 18:59:26 -1.5 C 2.58 g/m*3 -1.5 C 0 km/h
3214 05-01-2009 19:11:25 -1.5 C 2.49 g/m*3 -1.5 C 0 km/h
3215 05-01-2009 19:23:25 -1.6 C 2.47 g/m*3 -1.6 C 0 km/h
3216 05-01-2009 19:35:26 -1.5 C 2.44 g/m*3 -1.5 C 0 km/h
3217 05-01-2009 19:47:25 -1.5 C 2.44 g/m*3 -1.5 C 0 km/h
3218 05-01-2009 19:59:25 -1.6 C 2.47 g/m*3 -1.6 C 0 km/h
3219 05-01-2009 20:11:25 -1.6 C 2.51 g/m*3 -1.6 C 0 km/h
3220 05-01-2009 20:23:25 -1.7 C 2.54 g/m*3 -1.7 C 0 km/h
3221 05-01-2009 20:35:25 -1.7 C 2.54 g/m*3 -1.7 C 0 km/h
3222 05-01-2009 20:47:24 -1.7 C 2.45 g/m*3 -1.7 C 0 km/h
3223 05-01-2009 20:59:24 -1.8 C 2.44 g/m*3 -1.8 C 0 km/h
3224 05-01-2009 21:11:24 -1.9 C 2.46 g/m*3 -1.9 C 0 km/h
3225 05-01-2009 21:23:24 -1.9 C 2.5 g/m*3 -1.9 C 0 km/h
Sensor: Nr:Datum:Temp:Abs-Feuchte:Windchill:Wind:
Aussen-T/F 3226 05-01-2009 21:35:24 -2 C 2.49 g/m*3 -2 C 0 km/h
3227 05-01-2009 21:47:24 -2.1 C 2.43 g/m*3 -2.1 C 0 km/h
3228 05-01-2009 21:59:24 -2.1 C 2.43 g/m*3 -2.1 C 0 km/h
3229 05-01-2009 22:11:24 -2.2 C 2.41 g/m*3 -2.2 C 0 km/h
3230 05-01-2009 22:24:25 -2.3 C 2.39 g/m*3 -2.3 C 0 km/h
3231 05-01-2009 22:36:25 -2.3 C 2.39 g/m*3 -2.3 C 0 km/h
3232 05-01-2009 22:48:25 -2.4 C 2.34 g/m*3 -2.4 C 0 km/h
3233 05-01-2009 23:00:25 -2.5 C 2.32 g/m*3 -2.5 C 0 km/h
3234 05-01-2009 23:12:25 -2.5 C 2.36 g/m*3 -2.5 C 0 km/h
3235 05-01-2009 23:24:25 -2.6 C 2.34 g/m*3 -2.6 C 0 km/h
3236 05-01-2009 23:36:25 -2.6 C 2.34 g/m*3 -2.6 C 0 km/h
3237 05-01-2009 23:48:26 -2.7 C 2.33 g/m*3 -2.7 C 0 km/h
3238 06-01-2009 00:00:26 -2.8 C 2.31 g/m*3 -2.8 C 0 km/h
3239 06-01-2009 00:12:26 -2.8 C 2.39 g/m*3 -2.8 C 0 km/h
3240 06-01-2009 00:24:26 -2.9 C 2.33 g/m*3 -2.9 C 0 km/h
3241 06-01-2009 00:36:26 -3 C 2.32 g/m*3 -3 C 0 km/h
3242 06-01-2009 00:48:26 -3.3 C 2.23 g/m*3 -3.3 C 0 km/h
3243 06-01-2009 01:00:26 -3.6 C 2.18 g/m*3 -3.6 C 0 km/h
3244 06-01-2009 01:12:26 -4.1 C 2.11 g/m*3 -4.1 C